Darstellungsparameter: Aktuell verwendete Einstellungen:
Skalierung der Graphiken ... ?
xyx+y,   Skalierungsfaktor:      Skalierung: Modus: x, Faktor: 1
Darstellungszeitraum ... ?
Vom - - bis: - -   Zeitraum: 15.06.2014 - 21.06.2014
Min/Max/Avg-Anzeige ... ?
Zeige MMA aktuell
Zeige MMA Monat
Zeige MMA alles
Zeige --A aktuell
Zeige --A Monat
Zeige --A alles
Keine MMA-Anzeige
MMA:
Keine MMA-Graphiken
MMA-Basis: 15.06.2014 - 21.06.2014
Quicknavigation für Darstellung... ?
Tage:      1T, 2T, 3T, 5T -1T -2T -3T -5T +1T +2T +3T +5T
Wochen: 1W, 2W, 3W -1W -2W -3W +1W +2W +3W
Monate: 1M, 3M, 6M -1M -3M -6M +1M +3M +6M
Jahre:    1J, 3J, 5J, 10J -1J -3J -5J -10J +1J +3J +5J +10J
Nutze für die Darstellung ... ?
Originaldaten oder Mittelwerte auf ...
Stundenbasis Tagesbasis Wochenbasis
Monatsbasis Jahresbasis      Datenbasis: Original-Daten
Darstellen als:
Statistik (Auto) Statistik J:M      Darstellung:
Zur Graphik,    zurück zur Übersicht aller Sensoren.
 
Tabellarische Datenbersicht: ?
 
Sensor: Nr:Datum:Temp:Abs-Feuchte:Windchill:Wind:
Aussen-T/F 1 15-06-2014 00:00:00 14.1 C 9.47 g/m*3 14.1 C 0 km/h
2 15-06-2014 00:05:00 13.9 C 9.35 g/m*3 13.9 C 0 km/h
3 15-06-2014 00:10:00 13.9 C 9.35 g/m*3 13.9 C 0 km/h
4 15-06-2014 00:15:00 13.8 C 9.29 g/m*3 13.8 C 0 km/h
5 15-06-2014 00:20:00 13.7 C 9.35 g/m*3 13.7 C 0 km/h
6 15-06-2014 00:25:00 13.7 C 9.35 g/m*3 13.7 C 0 km/h
7 15-06-2014 00:30:00 13.6 C 9.42 g/m*3 13.6 C 0 km/h
8 15-06-2014 00:35:00 13.5 C 9.36 g/m*3 13.5 C 0 km/h
9 15-06-2014 00:40:00 13.4 C 9.3 g/m*3 13.4 C 0 km/h
10 15-06-2014 00:45:00 13.3 C 9.24 g/m*3 13.3 C 0 km/h
11 15-06-2014 00:50:00 13.2 C 9.19 g/m*3 13.2 C 0 km/h
12 15-06-2014 00:55:00 13.1 C 9.24 g/m*3 13.1 C 0 km/h
13 15-06-2014 01:00:00 13.1 C 9.36 g/m*3 13.1 C 0 km/h
14 15-06-2014 01:05:00 13 C 9.3 g/m*3 13 C 0 km/h
15 15-06-2014 01:10:00 12.9 C 9.35 g/m*3 12.9 C 0 km/h
16 15-06-2014 01:15:00 12.8 C 9.3 g/m*3 12.8 C 0 km/h
17 15-06-2014 01:20:00 12.8 C 9.3 g/m*3 12.8 C 0 km/h
18 15-06-2014 01:25:00 12.8 C 9.3 g/m*3 12.8 C 0 km/h
19 15-06-2014 01:30:00 12.7 C 9.24 g/m*3 12.7 C 0 km/h
20 15-06-2014 01:35:00 12.7 C 9.24 g/m*3 12.7 C 0 km/h
21 15-06-2014 01:40:00 12.6 C 9.29 g/m*3 12.6 C 0 km/h
22 15-06-2014 01:45:00 12.6 C 9.29 g/m*3 12.6 C 0 km/h
23 15-06-2014 01:50:00 12.5 C 9.24 g/m*3 12.5 C 0 km/h
24 15-06-2014 01:55:00 12.4 C 9.18 g/m*3 12.4 C 0 km/h
25 15-06-2014 02:00:00 12.2 C 9.17 g/m*3 12.2 C 0 km/h
Sensor: Nr:Datum:Temp:Abs-Feuchte:Windchill:Wind:
Aussen-T/F 26 15-06-2014 02:05:00 12 C 9.06 g/m*3 12 C 0 km/h
27 15-06-2014 02:10:00 11.9 C 9.11 g/m*3 11.9 C 0 km/h
28 15-06-2014 02:15:00 11.9 C 9.11 g/m*3 11.9 C 0 km/h
29 15-06-2014 02:20:00 11.8 C 9.05 g/m*3 11.8 C 0 km/h
30 15-06-2014 02:25:00 11.7 C 9.1 g/m*3 11.7 C 0 km/h
31 15-06-2014 02:30:00 11.6 C 9.04 g/m*3 11.6 C 0 km/h
32 15-06-2014 02:35:00 11.6 C 9.04 g/m*3 11.6 C 0 km/h
33 15-06-2014 02:40:00 11.5 C 9.09 g/m*3 11.5 C 0 km/h
34 15-06-2014 02:45:00 11.4 C 9.03 g/m*3 11.4 C 0 km/h
35 15-06-2014 02:50:00 11.4 C 9.03 g/m*3 11.4 C 0 km/h
36 15-06-2014 02:55:00 11.3 C 8.98 g/m*3 11.3 C 0 km/h
37 15-06-2014 03:00:00 11.3 C 8.98 g/m*3 11.3 C 0 km/h
38 15-06-2014 03:05:00 11.2 C 9.02 g/m*3 11.2 C 0 km/h
39 15-06-2014 03:10:00 11.2 C 9.02 g/m*3 11.2 C 0 km/h
40 15-06-2014 03:15:00 11.1 C 8.96 g/m*3 11.1 C 0 km/h
41 15-06-2014 03:20:00 11.1 C 8.96 g/m*3 11.1 C 0 km/h
42 15-06-2014 03:25:00 11.1 C 9.07 g/m*3 11.1 C 0 km/h
43 15-06-2014 03:30:00 11.1 C 9.07 g/m*3 11.1 C 0 km/h
44 15-06-2014 03:35:00 11 C 9.01 g/m*3 11 C 0 km/h
45 15-06-2014 03:40:00 10.9 C 8.95 g/m*3 10.9 C 0 km/h
46 15-06-2014 03:45:00 10.9 C 8.95 g/m*3 10.9 C 0 km/h
47 15-06-2014 03:50:00 10.9 C 9.05 g/m*3 10.9 C 0 km/h
48 15-06-2014 03:55:00 10.9 C 9.05 g/m*3 10.9 C 0 km/h
49 15-06-2014 04:00:00 11 C 9.11 g/m*3 11 C 1.6 km/h
50 15-06-2014 04:05:00 11.1 C 9.17 g/m*3 11.1 C 0 km/h
Sensor: Nr:Datum:Temp:Abs-Feuchte:Windchill:Wind:
Aussen-T/F 51 15-06-2014 04:10:00 11.1 C 9.27 g/m*3 11.1 C 0 km/h
52 15-06-2014 04:15:00 11.2 C 9.33 g/m*3 11.2 C 1.6 km/h
53 15-06-2014 04:20:00 11.3 C 9.28 g/m*3 11.3 C 0 km/h
54 15-06-2014 04:25:00 11.3 C 9.28 g/m*3 11.3 C 0 km/h
55 15-06-2014 04:30:00 11.3 C 9.28 g/m*3 11.3 C 0 km/h
56 15-06-2014 04:35:00 11.3 C 9.28 g/m*3 11.3 C 0 km/h
57 15-06-2014 04:40:00 11.4 C 9.34 g/m*3 11.4 C 0 km/h
58 15-06-2014 04:45:00 11.4 C 9.34 g/m*3 11.4 C 0 km/h
59 15-06-2014 04:50:00 11.4 C 9.34 g/m*3 11.4 C 0 km/h
60 15-06-2014 04:55:00 11.5 C 9.4 g/m*3 11.5 C 0 km/h
61 15-06-2014 05:00:00 11.6 C 9.46 g/m*3 11.6 C 0 km/h
62 15-06-2014 05:05:00 11.6 C 9.35 g/m*3 11.6 C 0 km/h
63 15-06-2014 05:10:00 11.6 C 9.35 g/m*3 11.6 C 0 km/h
64 15-06-2014 05:15:00 11.6 C 9.46 g/m*3 11.6 C 0 km/h
65 15-06-2014 05:20:00 11.6 C 9.46 g/m*3 11.6 C 0 km/h
66 15-06-2014 05:25:00 11.7 C 9.52 g/m*3 11.7 C 1.6 km/h
67 15-06-2014 05:30:00 11.7 C 9.52 g/m*3 11.7 C 0 km/h
68 15-06-2014 05:35:00 11.8 C 9.58 g/m*3 11.8 C 0 km/h
69 15-06-2014 05:40:00 11.8 C 9.58 g/m*3 11.8 C 1.6 km/h
70 15-06-2014 05:45:00 11.8 C 9.47 g/m*3 11.8 C 0 km/h
71 15-06-2014 05:50:00 11.9 C 9.53 g/m*3 11.9 C 0 km/h
72 15-06-2014 05:55:00 11.9 C 9.53 g/m*3 11.9 C 0 km/h
73 15-06-2014 06:00:00 11.9 C 9.53 g/m*3 11.9 C 0 km/h
74 15-06-2014 06:05:00 11.9 C 9.64 g/m*3 11.9 C 0 km/h
75 15-06-2014 06:10:00 12 C 9.59 g/m*3 12 C 0 km/h
Sensor: Nr:Datum:Temp:Abs-Feuchte:Windchill:Wind:
Aussen-T/F 76 15-06-2014 06:15:00 12 C 9.59 g/m*3 12 C 0 km/h
77 15-06-2014 06:20:00 12.1 C 9.76 g/m*3 12.1 C 0 km/h
78 15-06-2014 06:25:00 12.2 C 9.82 g/m*3 12.2 C 1.6 km/h
79 15-06-2014 06:30:00 12.2 C 9.82 g/m*3 12.2 C 0 km/h
80 15-06-2014 06:35:00 12.3 C 9.88 g/m*3 12.3 C 0 km/h
81 15-06-2014 06:40:00 12.3 C 9.88 g/m*3 12.3 C 0 km/h
82 15-06-2014 06:45:00 12.4 C 9.94 g/m*3 12.4 C 0 km/h
83 15-06-2014 06:50:00 12.6 C 10.07 g/m*3 12.6 C 0 km/h
84 15-06-2014 06:55:00 12.7 C 10.02 g/m*3 12.7 C 0 km/h
85 15-06-2014 07:00:00 12.9 C 10.14 g/m*3 12.9 C 0 km/h
86 15-06-2014 07:05:00 13 C 10.09 g/m*3 13 C 0 km/h
87 15-06-2014 07:10:00 13.2 C 10.22 g/m*3 13.2 C 0 km/h
88 15-06-2014 07:15:00 13.4 C 10.35 g/m*3 13.4 C 0 km/h
89 15-06-2014 07:20:00 13.7 C 10.42 g/m*3 13.7 C 1.6 km/h
90 15-06-2014 07:25:00 13.8 C 10.48 g/m*3 13.8 C 1.6 km/h
91 15-06-2014 07:30:00 13.9 C 10.43 g/m*3 13.9 C 1.6 km/h
92 15-06-2014 07:35:00 13.9 C 10.43 g/m*3 13.9 C 0 km/h
93 15-06-2014 07:40:00 13.9 C 10.43 g/m*3 13.9 C 0 km/h
94 15-06-2014 07:45:00 14.1 C 10.56 g/m*3 14.1 C 1.6 km/h
95 15-06-2014 07:50:00 14.2 C 10.62 g/m*3 14.2 C 0 km/h
96 15-06-2014 07:55:00 14.4 C 10.51 g/m*3 14.4 C 3.2 km/h
97 15-06-2014 08:00:00 14.7 C 10.58 g/m*3 14.7 C 8.1 km/h
98 15-06-2014 08:05:00 15.1 C 10.45 g/m*3 15.1 C 6.4 km/h
99 15-06-2014 08:10:00 15.4 C 10.51 g/m*3 15.4 C 6.4 km/h
100 15-06-2014 08:15:00 15.6 C 10.37 g/m*3 15.6 C 9.7 km/h
Sensor: Nr:Datum:Temp:Abs-Feuchte:Windchill:Wind:
Aussen-T/F 101 15-06-2014 08:20:00 15.7 C 10.44 g/m*3 15.7 C 6.4 km/h
102 15-06-2014 08:25:00 15.7 C 10.3 g/m*3 15.7 C 3.2 km/h
103 15-06-2014 08:30:00 15.8 C 10.5 g/m*3 15.8 C 6.4 km/h
104 15-06-2014 08:35:00 16.2 C 10.76 g/m*3 16.2 C 11.3 km/h
105 15-06-2014 08:40:00 16.5 C 10.81 g/m*3 16.5 C 9.7 km/h
106 15-06-2014 08:45:00 16.4 C 10.61 g/m*3 16.4 C 8.1 km/h
107 15-06-2014 08:50:00 16.2 C 10.48 g/m*3 16.2 C 6.4 km/h
108 15-06-2014 08:55:00 16.2 C 10.62 g/m*3 16.2 C 6.4 km/h
109 15-06-2014 09:00:00 16.3 C 10.68 g/m*3 16.3 C 6.4 km/h
110 15-06-2014 09:05:00 16.6 C 10.88 g/m*3 16.6 C 6.4 km/h
111 15-06-2014 09:10:00 16.7 C 10.66 g/m*3 16.7 C 9.7 km/h
112 15-06-2014 09:15:00 16.7 C 10.66 g/m*3 16.7 C 9.7 km/h
113 15-06-2014 09:20:00 16.6 C 10.74 g/m*3 16.6 C 8.1 km/h
114 15-06-2014 09:25:00 16.6 C 10.74 g/m*3 16.6 C 9.7 km/h
115 15-06-2014 09:30:00 16.5 C 10.53 g/m*3 16.5 C 11.3 km/h
116 15-06-2014 09:35:00 16.4 C 10.47 g/m*3 16.4 C 12.9 km/h
117 15-06-2014 09:40:00 16.3 C 10.54 g/m*3 16.3 C 9.7 km/h
118 15-06-2014 09:45:00 16.2 C 10.48 g/m*3 16.2 C 8.1 km/h
119 15-06-2014 09:50:00 16.1 C 10.42 g/m*3 16.1 C 9.7 km/h
120 15-06-2014 09:55:00 16.2 C 10.76 g/m*3 16.2 C 8.1 km/h
121 15-06-2014 10:00:00 16.7 C 10.8 g/m*3 16.7 C 9.7 km/h
122 15-06-2014 10:05:00 17.2 C 10.84 g/m*3 17.2 C 9.7 km/h
123 15-06-2014 10:10:00 17.2 C 10.4 g/m*3 17.2 C 11.3 km/h
124 15-06-2014 10:15:00 17.1 C 10.34 g/m*3 17.1 C 11.3 km/h
125 15-06-2014 10:20:00 17.1 C 10.77 g/m*3 17.1 C 8.1 km/h
Sensor: Nr:Datum:Temp:Abs-Feuchte:Windchill:Wind:
Aussen-T/F 126 15-06-2014 10:25:00 17.5 C 10.73 g/m*3 17.5 C 11.3 km/h
127 15-06-2014 10:30:00 17.6 C 10.65 g/m*3 17.6 C 8.1 km/h
128 15-06-2014 10:35:00 17.7 C 10.71 g/m*3 17.7 C 9.7 km/h
129 15-06-2014 10:40:00 17.8 C 10.93 g/m*3 17.8 C 8.1 km/h
130 15-06-2014 10:45:00 18.1 C 10.97 g/m*3 18.1 C 4.8 km/h
131 15-06-2014 10:50:00 18.3 C 10.48 g/m*3 18.3 C 9.7 km/h
132 15-06-2014 10:55:00 18.4 C 10.85 g/m*3 18.4 C 12.9 km/h
133 15-06-2014 11:00:00 18.6 C 10.82 g/m*3 18.6 C 9.7 km/h
134 15-06-2014 11:05:00 18.6 C 10.66 g/m*3 18.6 C 11.3 km/h
135 15-06-2014 11:10:00 18.3 C 10.32 g/m*3 18.3 C 8.1 km/h
136 15-06-2014 11:15:00 18.3 C 10.63 g/m*3 18.3 C 6.4 km/h
137 15-06-2014 11:20:00 18.7 C 11.21 g/m*3 18.7 C 9.7 km/h
138 15-06-2014 11:25:00 19.2 C 11.21 g/m*3 19.2 C 6.4 km/h
139 15-06-2014 11:30:00 19.5 C 10.74 g/m*3 19.5 C 9.7 km/h
140 15-06-2014 11:35:00 19.5 C 10.74 g/m*3 19.5 C 8.1 km/h
141 15-06-2014 11:40:00 19.2 C 10.39 g/m*3 19.2 C 9.7 km/h
142 15-06-2014 11:45:00 19 C 10.59 g/m*3 19 C 3.2 km/h
143 15-06-2014 11:50:00 18.8 C 10.31 g/m*3 18.8 C 11.3 km/h
144 15-06-2014 11:55:00 18.7 C 10.25 g/m*3 18.7 C 9.7 km/h
145 15-06-2014 12:00:00 18.7 C 9.93 g/m*3 18.7 C 4.8 km/h
146 15-06-2014 12:05:00 18.7 C 10.41 g/m*3 18.7 C 4.8 km/h
147 15-06-2014 12:10:00 18.8 C 10.63 g/m*3 18.8 C 8.1 km/h
148 15-06-2014 12:15:00 19.1 C 10.16 g/m*3 19.1 C 4.8 km/h
149 15-06-2014 12:20:00 19.2 C 10.22 g/m*3 19.2 C 6.4 km/h
150 15-06-2014 12:25:00 19.2 C 10.22 g/m*3 19.2 C 8.1 km/h
Sensor: Nr:Datum:Temp:Abs-Feuchte:Windchill:Wind:
Aussen-T/F 151 15-06-2014 12:30:00 19.5 C 10.57 g/m*3 19.5 C 12.9 km/h
152 15-06-2014 12:35:00 19.7 C 10.53 g/m*3 19.7 C 12.9 km/h
153 15-06-2014 12:40:00 19.6 C 10.13 g/m*3 19.6 C 8.1 km/h
154 15-06-2014 12:45:00 19.4 C 10.34 g/m*3 19.4 C 8.1 km/h
155 15-06-2014 12:50:00 19.3 C 10.45 g/m*3 19.3 C 12.9 km/h
156 15-06-2014 12:55:00 19.4 C 10.68 g/m*3 19.4 C 11.3 km/h
157 15-06-2014 13:00:00 19.8 C 9.91 g/m*3 19.8 C 12.9 km/h
158 15-06-2014 13:05:00 19.9 C 10.14 g/m*3 19.9 C 9.7 km/h
159 15-06-2014 13:10:00 20.1 C 10.26 g/m*3 20.1 C 17.7 km/h
160 15-06-2014 13:15:00 19.9 C 10.14 g/m*3 19.9 C 17.7 km/h
161 15-06-2014 13:20:00 20.2 C 10.14 g/m*3 20.2 C 12.9 km/h
162 15-06-2014 13:25:00 20.3 C 9.85 g/m*3 20.3 C 22.5 km/h
163 15-06-2014 13:30:00 20.3 C 10.02 g/m*3 20.3 C 8.1 km/h
164 15-06-2014 13:35:00 20.3 C 10.2 g/m*3 20.3 C 11.3 km/h
165 15-06-2014 13:40:00 20.1 C 10.26 g/m*3 20.1 C 14.5 km/h
166 15-06-2014 13:45:00 19.9 C 9.62 g/m*3 19.9 C 16.1 km/h
167 15-06-2014 13:50:00 19.9 C 9.97 g/m*3 19.9 C 6.4 km/h
168 15-06-2014 13:55:00 19.9 C 10.14 g/m*3 19.9 C 12.9 km/h
169 15-06-2014 14:00:00 19.9 C 9.97 g/m*3 19.9 C 11.3 km/h
170 15-06-2014 14:05:00 19.8 C 9.74 g/m*3 19.8 C 11.3 km/h
171 15-06-2014 14:10:00 19.9 C 9.62 g/m*3 19.9 C 8.1 km/h
172 15-06-2014 14:15:00 20.2 C 9.62 g/m*3 20.2 C 6.4 km/h
173 15-06-2014 14:20:00 20.4 C 9.55 g/m*3 20.4 C 16.1 km/h
174 15-06-2014 14:25:00 20.2 C 9.44 g/m*3 20.2 C 12.9 km/h
175 15-06-2014 14:30:00 20.1 C 9.21 g/m*3 20.1 C 8.1 km/h
Sensor: Nr:Datum:Temp:Abs-Feuchte:Windchill:Wind:
Aussen-T/F 176 15-06-2014 14:35:00 20.1 C 9.39 g/m*3 20.1 C 6.4 km/h
177 15-06-2014 14:40:00 20.3 C 9.85 g/m*3 20.3 C 9.7 km/h
178 15-06-2014 14:45:00 20.4 C 9.2 g/m*3 20.4 C 14.5 km/h
179 15-06-2014 14:50:00 20.6 C 9.13 g/m*3 20.6 C 9.7 km/h
180 15-06-2014 14:55:00 20.7 C 9.18 g/m*3 20.7 C 14.5 km/h
181 15-06-2014 15:00:00 20.7 C 9.72 g/m*3 20.7 C 9.7 km/h
182 15-06-2014 15:05:00 20.7 C 9.54 g/m*3 20.7 C 12.9 km/h
183 15-06-2014 15:10:00 20.7 C 9.36 g/m*3 20.7 C 6.4 km/h
184 15-06-2014 15:15:00 20.6 C 8.77 g/m*3 20.6 C 6.4 km/h
185 15-06-2014 15:20:00 20.5 C 8.54 g/m*3 20.5 C 9.7 km/h
186 15-06-2014 15:25:00 20.6 C 8.41 g/m*3 20.6 C 6.4 km/h
187 15-06-2014 15:30:00 20.7 C 8.46 g/m*3 20.7 C 6.4 km/h
188 15-06-2014 15:35:00 20.9 C 8.74 g/m*3 20.9 C 11.3 km/h
189 15-06-2014 15:40:00 21.1 C 8.84 g/m*3 21.1 C 6.4 km/h
190 15-06-2014 15:45:00 21.4 C 8.44 g/m*3 21.4 C 8.1 km/h
191 15-06-2014 15:50:00 21.4 C 8.81 g/m*3 21.4 C 9.7 km/h
192 15-06-2014 15:55:00 21.2 C 9.45 g/m*3 21.2 C 8.1 km/h
193 15-06-2014 16:00:00 21 C 9.34 g/m*3 21 C 3.2 km/h
194 15-06-2014 16:05:00 21.1 C 9.4 g/m*3 21.1 C 6.4 km/h
195 15-06-2014 16:10:00 21.3 C 9.69 g/m*3 21.3 C 8.1 km/h
196 15-06-2014 16:15:00 22.1 C 9.37 g/m*3 22.1 C 8.1 km/h
197 15-06-2014 16:20:00 22.7 C 8.49 g/m*3 22.7 C 6.4 km/h
198 15-06-2014 16:25:00 22.8 C 8.33 g/m*3 22.8 C 6.4 km/h
199 15-06-2014 16:30:00 22.4 C 8.54 g/m*3 22.4 C 6.4 km/h
200 15-06-2014 16:35:00 22.1 C 8.2 g/m*3 22.1 C 6.4 km/h
Sensor: Nr:Datum:Temp:Abs-Feuchte:Windchill:Wind:
Aussen-T/F 201 15-06-2014 16:40:00 22.1 C 8 g/m*3 22.1 C 4.8 km/h
202 15-06-2014 16:45:00 22 C 8.15 g/m*3 22 C 8.1 km/h
203 15-06-2014 16:50:00 21.9 C 8.3 g/m*3 21.9 C 11.3 km/h
204 15-06-2014 16:55:00 21.8 C 8.44 g/m*3 21.8 C 6.4 km/h
205 15-06-2014 17:00:00 21.7 C 8.39 g/m*3 21.7 C 6.4 km/h
206 15-06-2014 17:05:00 21.8 C 8.06 g/m*3 21.8 C 12.9 km/h
207 15-06-2014 17:10:00 21.9 C 8.3 g/m*3 21.9 C 9.7 km/h
208 15-06-2014 17:15:00 21.8 C 7.87 g/m*3 21.8 C 8.1 km/h
209 15-06-2014 17:20:00 21.8 C 7.87 g/m*3 21.8 C 11.3 km/h
210 15-06-2014 17:25:00 21.6 C 7.78 g/m*3 21.6 C 11.3 km/h
211 15-06-2014 17:30:00 21.7 C 7.82 g/m*3 21.7 C 9.7 km/h
212 15-06-2014 17:35:00 21.8 C 8.06 g/m*3 21.8 C 6.4 km/h
213 15-06-2014 17:40:00 21.9 C 7.91 g/m*3 21.9 C 11.3 km/h
214 15-06-2014 17:45:00 22.1 C 8 g/m*3 22.1 C 9.7 km/h
215 15-06-2014 17:50:00 21.9 C 7.91 g/m*3 21.9 C 12.9 km/h
216 15-06-2014 17:55:00 22.1 C 8 g/m*3 22.1 C 8.1 km/h
217 15-06-2014 18:00:00 22.7 C 7.88 g/m*3 22.7 C 12.9 km/h
218 15-06-2014 18:05:00 23.1 C 8.27 g/m*3 23.1 C 17.7 km/h
219 15-06-2014 18:10:00 22.9 C 7.97 g/m*3 22.9 C 12.9 km/h
220 15-06-2014 18:15:00 22.4 C 7.75 g/m*3 22.4 C 11.3 km/h
221 15-06-2014 18:20:00 22.1 C 7.81 g/m*3 22.1 C 11.3 km/h
222 15-06-2014 18:25:00 21.8 C 8.25 g/m*3 21.8 C 11.3 km/h
223 15-06-2014 18:30:00 21.9 C 7.91 g/m*3 21.9 C 11.3 km/h
224 15-06-2014 18:35:00 21.7 C 7.82 g/m*3 21.7 C 11.3 km/h
225 15-06-2014 18:40:00 21.4 C 7.87 g/m*3 21.4 C 11.3 km/h
Sensor: Nr:Datum:Temp:Abs-Feuchte:Windchill:Wind:
Aussen-T/F 226 15-06-2014 18:45:00 21.6 C 8.35 g/m*3 21.6 C 9.7 km/h
227 15-06-2014 18:50:00 22.2 C 8.25 g/m*3 22.2 C 11.3 km/h
228 15-06-2014 18:55:00 22.6 C 8.24 g/m*3 22.6 C 16.1 km/h
229 15-06-2014 19:00:00 22.6 C 7.83 g/m*3 22.6 C 12.9 km/h
230 15-06-2014 19:05:00 22.3 C 7.9 g/m*3 22.3 C 9.7 km/h
231 15-06-2014 19:10:00 22.1 C 7.81 g/m*3 22.1 C 6.4 km/h
232 15-06-2014 19:15:00 21.9 C 7.72 g/m*3 21.9 C 9.7 km/h
233 15-06-2014 19:20:00 21.9 C 7.53 g/m*3 21.9 C 12.9 km/h
234 15-06-2014 19:25:00 22.1 C 7.61 g/m*3 22.1 C 9.7 km/h
235 15-06-2014 19:30:00 22.1 C 7.42 g/m*3 22.1 C 14.5 km/h
236 15-06-2014 19:35:00 22.1 C 7.61 g/m*3 22.1 C 12.9 km/h
237 15-06-2014 19:40:00 22.1 C 7.61 g/m*3 22.1 C 12.9 km/h
238 15-06-2014 19:45:00 22.1 C 7.42 g/m*3 22.1 C 14.5 km/h
239 15-06-2014 19:50:00 22 C 7.38 g/m*3 22 C 12.9 km/h
240 15-06-2014 19:55:00 21.9 C 7.53 g/m*3 21.9 C 9.7 km/h
241 15-06-2014 20:00:00 21.8 C 7.29 g/m*3 21.8 C 12.9 km/h
242 15-06-2014 20:05:00 21.6 C 7.4 g/m*3 21.6 C 12.9 km/h
243 15-06-2014 20:10:00 21.5 C 7.35 g/m*3 21.5 C 11.3 km/h
244 15-06-2014 20:15:00 21.4 C 7.31 g/m*3 21.4 C 11.3 km/h
245 15-06-2014 20:20:00 21.3 C 7.46 g/m*3 21.3 C 9.7 km/h
246 15-06-2014 20:25:00 21.2 C 7.41 g/m*3 21.2 C 9.7 km/h
247 15-06-2014 20:30:00 21.1 C 7.37 g/m*3 21.1 C 11.3 km/h
248 15-06-2014 20:35:00 20.9 C 7.47 g/m*3 20.9 C 14.5 km/h
249 15-06-2014 20:40:00 20.8 C 7.6 g/m*3 20.8 C 12.9 km/h
250 15-06-2014 20:45:00 20.7 C 7.74 g/m*3 20.7 C 9.7 km/h
Sensor: Nr:Datum:Temp:Abs-Feuchte:Windchill:Wind:
Aussen-T/F 251 15-06-2014 20:50:00 20.5 C 7.83 g/m*3 20.5 C 9.7 km/h
252 15-06-2014 20:55:00 20.4 C 7.78 g/m*3 20.4 C 9.7 km/h
253 15-06-2014 21:00:00 20.2 C 7.87 g/m*3 20.2 C 9.7 km/h
254 15-06-2014 21:05:00 20 C 7.95 g/m*3 20 C 11.3 km/h
255 15-06-2014 21:10:00 19.8 C 7.86 g/m*3 19.8 C 9.7 km/h
256 15-06-2014 21:15:00 19.6 C 7.93 g/m*3 19.6 C 6.4 km/h
257 15-06-2014 21:20:00 19.4 C 8.34 g/m*3 19.4 C 3.2 km/h
258 15-06-2014 21:25:00 19.2 C 8.41 g/m*3 19.2 C 1.6 km/h
259 15-06-2014 21:30:00 18.8 C 8.7 g/m*3 18.8 C 0 km/h
260 15-06-2014 21:35:00 18.3 C 8.6 g/m*3 18.3 C 1.6 km/h
261 15-06-2014 21:40:00 17.8 C 8.5 g/m*3 17.8 C 0 km/h
262 15-06-2014 21:45:00 17.3 C 8.69 g/m*3 17.3 C 0 km/h
263 15-06-2014 21:50:00 16.8 C 8.72 g/m*3 16.8 C 0 km/h
264 15-06-2014 21:55:00 16.4 C 8.65 g/m*3 16.4 C 0 km/h
265 15-06-2014 22:00:00 16.2 C 8.69 g/m*3 16.2 C 1.6 km/h
266 15-06-2014 22:05:00 16 C 8.72 g/m*3 16 C 0 km/h
267 15-06-2014 22:10:00 15.8 C 8.62 g/m*3 15.8 C 1.6 km/h
268 15-06-2014 22:15:00 15.7 C 8.56 g/m*3 15.7 C 1.6 km/h
269 15-06-2014 22:20:00 15.6 C 8.64 g/m*3 15.6 C 1.6 km/h
270 15-06-2014 22:25:00 15.5 C 8.72 g/m*3 15.5 C 0 km/h
271 15-06-2014 22:30:00 15.4 C 8.67 g/m*3 15.4 C 0 km/h
272 15-06-2014 22:35:00 15.3 C 8.62 g/m*3 15.3 C 0 km/h
273 15-06-2014 22:40:00 15.2 C 8.7 g/m*3 15.2 C 0 km/h
274 15-06-2014 22:45:00 15.1 C 8.77 g/m*3 15.1 C 0 km/h
275 15-06-2014 22:50:00 15 C 8.72 g/m*3 15 C 0 km/h
Sensor: Nr:Datum:Temp:Abs-Feuchte:Windchill:Wind:
Aussen-T/F 276 15-06-2014 22:55:00 14.9 C 8.92 g/m*3 14.9 C 1.6 km/h
277 15-06-2014 23:00:00 14.8 C 8.87 g/m*3 14.8 C 0 km/h
278 15-06-2014 23:05:00 14.8 C 8.87 g/m*3 14.8 C 0 km/h
279 15-06-2014 23:10:00 14.7 C 8.81 g/m*3 14.7 C 0 km/h
280 15-06-2014 23:15:00 14.7 C 8.94 g/m*3 14.7 C 0 km/h
281 15-06-2014 23:20:00 14.7 C 8.94 g/m*3 14.7 C 0 km/h
282 15-06-2014 23:25:00 14.6 C 9.01 g/m*3 14.6 C 0 km/h
283 15-06-2014 23:30:00 14.5 C 8.83 g/m*3 14.5 C 0 km/h
284 15-06-2014 23:35:00 14.4 C 8.9 g/m*3 14.4 C 0 km/h
285 15-06-2014 23:40:00 14.4 C 9.02 g/m*3 14.4 C 0 km/h
286 15-06-2014 23:45:00 14.4 C 9.15 g/m*3 14.4 C 0 km/h
287 15-06-2014 23:50:00 14.4 C 9.02 g/m*3 14.4 C 0 km/h
288 15-06-2014 23:55:00 14.4 C 9.15 g/m*3 14.4 C 0 km/h
289 16-06-2014 00:00:00 14.4 C 9.15 g/m*3 14.4 C 0 km/h
290 16-06-2014 00:05:00 14.4 C 9.27 g/m*3 14.4 C 0 km/h
291 16-06-2014 00:10:00 14.5 C 9.33 g/m*3 14.5 C 0 km/h
292 16-06-2014 00:15:00 14.4 C 9.39 g/m*3 14.4 C 0 km/h
293 16-06-2014 00:20:00 14.4 C 9.39 g/m*3 14.4 C 0 km/h
294 16-06-2014 00:25:00 14.3 C 9.34 g/m*3 14.3 C 0 km/h
295 16-06-2014 00:30:00 14.3 C 9.34 g/m*3 14.3 C 0 km/h
296 16-06-2014 00:35:00 14.3 C 9.34 g/m*3 14.3 C 0 km/h
297 16-06-2014 00:40:00 14.2 C 9.16 g/m*3 14.2 C 0 km/h
298 16-06-2014 00:45:00 14 C 9.17 g/m*3 14 C 0 km/h
299 16-06-2014 00:50:00 13.8 C 9.17 g/m*3 13.8 C 0 km/h
300 16-06-2014 00:55:00 13.7 C 9.12 g/m*3 13.7 C 0 km/h
Sensor: Nr:Datum:Temp:Abs-Feuchte:Windchill:Wind:
Aussen-T/F 301 16-06-2014 01:00:00 13.4 C 9.07 g/m*3 13.4 C 0 km/h
302 16-06-2014 01:05:00 13.3 C 9.13 g/m*3 13.3 C 0 km/h
303 16-06-2014 01:10:00 13.1 C 9.13 g/m*3 13.1 C 0 km/h
304 16-06-2014 01:15:00 12.9 C 9.02 g/m*3 12.9 C 0 km/h
305 16-06-2014 01:20:00 12.9 C 9.13 g/m*3 12.9 C 0 km/h
306 16-06-2014 01:25:00 12.9 C 9.13 g/m*3 12.9 C 0 km/h
307 16-06-2014 01:30:00 12.8 C 9.07 g/m*3 12.8 C 0 km/h
308 16-06-2014 01:35:00 12.7 C 9.02 g/m*3 12.7 C 0 km/h
309 16-06-2014 01:40:00 12.7 C 9.13 g/m*3 12.7 C 0 km/h
310 16-06-2014 01:45:00 12.6 C 9.07 g/m*3 12.6 C 0 km/h
311 16-06-2014 01:50:00 12.4 C 8.96 g/m*3 12.4 C 0 km/h
312 16-06-2014 01:55:00 12.3 C 9.01 g/m*3 12.3 C 0 km/h
313 16-06-2014 02:00:00 12.3 C 9.01 g/m*3 12.3 C 0 km/h
314 16-06-2014 02:05:00 12.2 C 9.06 g/m*3 12.2 C 0 km/h
315 16-06-2014 02:10:00 12.1 C 9.01 g/m*3 12.1 C 0 km/h
316 16-06-2014 02:15:00 12.1 C 9.01 g/m*3 12.1 C 0 km/h
317 16-06-2014 02:20:00 12 C 8.95 g/m*3 12 C 0 km/h
318 16-06-2014 02:25:00 11.9 C 9 g/m*3 11.9 C 0 km/h
319 16-06-2014 02:30:00 11.8 C 8.95 g/m*3 11.8 C 0 km/h
320 16-06-2014 02:35:00 11.8 C 8.95 g/m*3 11.8 C 0 km/h
321 16-06-2014 02:40:00 11.7 C 8.99 g/m*3 11.7 C 0 km/h
322 16-06-2014 02:45:00 11.7 C 8.99 g/m*3 11.7 C 0 km/h
323 16-06-2014 02:50:00 11.6 C 8.94 g/m*3 11.6 C 0 km/h
324 16-06-2014 02:55:00 11.5 C 8.88 g/m*3 11.5 C 0 km/h
325 16-06-2014 03:00:00 11.5 C 8.99 g/m*3 11.5 C 0 km/h
Sensor: Nr:Datum:Temp:Abs-Feuchte:Windchill:Wind:
Aussen-T/F 326 16-06-2014 03:05:00 11.5 C 9.09 g/m*3 11.5 C 0 km/h
327 16-06-2014 03:10:00 11.6 C 9.04 g/m*3 11.6 C 0 km/h
328 16-06-2014 03:15:00 11.6 C 9.15 g/m*3 11.6 C 0 km/h
329 16-06-2014 03:20:00 11.7 C 9.2 g/m*3 11.7 C 0 km/h
330 16-06-2014 03:25:00 11.7 C 9.1 g/m*3 11.7 C 0 km/h
331 16-06-2014 03:30:00 11.8 C 9.16 g/m*3 11.8 C 0 km/h
332 16-06-2014 03:35:00 11.8 C 9.16 g/m*3 11.8 C 0 km/h
333 16-06-2014 03:40:00 11.7 C 9.1 g/m*3 11.7 C 0 km/h
334 16-06-2014 03:45:00 11.8 C 9.16 g/m*3 11.8 C 0 km/h
335 16-06-2014 03:50:00 11.7 C 9.1 g/m*3 11.7 C 0 km/h
336 16-06-2014 03:55:00 11.7 C 9.1 g/m*3 11.7 C 1.6 km/h
337 16-06-2014 04:00:00 11.7 C 9.1 g/m*3 11.7 C 0 km/h
338 16-06-2014 04:05:00 11.7 C 9.2 g/m*3 11.7 C 0 km/h
339 16-06-2014 04:10:00 11.7 C 9.2 g/m*3 11.7 C 0 km/h
340 16-06-2014 04:15:00 11.8 C 9.26 g/m*3 11.8 C 0 km/h
341 16-06-2014 04:20:00 11.9 C 9.21 g/m*3 11.9 C 0 km/h
342 16-06-2014 04:25:00 12 C 9.38 g/m*3 12 C 1.6 km/h
343 16-06-2014 04:30:00 12.2 C 9.5 g/m*3 12.2 C 0 km/h
344 16-06-2014 04:35:00 12.3 C 9.56 g/m*3 12.3 C 0 km/h
345 16-06-2014 04:40:00 12.4 C 9.62 g/m*3 12.4 C 1.6 km/h
346 16-06-2014 04:45:00 12.4 C 9.62 g/m*3 12.4 C 1.6 km/h
347 16-06-2014 04:50:00 12.5 C 9.57 g/m*3 12.5 C 0 km/h
348 16-06-2014 04:55:00 12.6 C 9.62 g/m*3 12.6 C 1.6 km/h
349 16-06-2014 05:00:00 12.7 C 9.68 g/m*3 12.7 C 1.6 km/h
350 16-06-2014 05:05:00 12.8 C 9.86 g/m*3 12.8 C 1.6 km/h
Sensor: Nr:Datum:Temp:Abs-Feuchte:Windchill:Wind:
Aussen-T/F 351 16-06-2014 05:10:00 12.7 C 9.68 g/m*3 12.7 C 0 km/h
352 16-06-2014 05:15:00 12.7 C 9.68 g/m*3 12.7 C 0 km/h
353 16-06-2014 05:20:00 12.7 C 9.68 g/m*3 12.7 C 0 km/h
354 16-06-2014 05:25:00 12.6 C 9.74 g/m*3 12.6 C 1.6 km/h
355 16-06-2014 05:30:00 12.6 C 9.85 g/m*3 12.6 C 0 km/h
356 16-06-2014 05:35:00 12.6 C 9.74 g/m*3 12.6 C 1.6 km/h
357 16-06-2014 05:40:00 12.6 C 9.74 g/m*3 12.6 C 0 km/h
358 16-06-2014 05:45:00 12.7 C 9.91 g/m*3 12.7 C 0 km/h
359 16-06-2014 05:50:00 12.8 C 9.97 g/m*3 12.8 C 0 km/h
360 16-06-2014 05:55:00 12.9 C 10.03 g/m*3 12.9 C 1.6 km/h
361 16-06-2014 06:00:00 12.9 C 10.03 g/m*3 12.9 C 0 km/h
362 16-06-2014 06:05:00 12.9 C 10.03 g/m*3 12.9 C 0 km/h
363 16-06-2014 06:10:00 13 C 10.09 g/m*3 13 C 0 km/h
364 16-06-2014 06:15:00 13.1 C 10.16 g/m*3 13.1 C 1.6 km/h
365 16-06-2014 06:20:00 13.1 C 10.16 g/m*3 13.1 C 0 km/h
366 16-06-2014 06:25:00 13.2 C 10.22 g/m*3 13.2 C 1.6 km/h
367 16-06-2014 06:30:00 13.2 C 10.22 g/m*3 13.2 C 0 km/h
368 16-06-2014 06:35:00 13.3 C 10.28 g/m*3 13.3 C 0 km/h
369 16-06-2014 06:40:00 13.4 C 10.35 g/m*3 13.4 C 1.6 km/h
370 16-06-2014 06:45:00 13.5 C 10.41 g/m*3 13.5 C 1.6 km/h
371 16-06-2014 06:50:00 13.6 C 10.36 g/m*3 13.6 C 1.6 km/h
372 16-06-2014 06:55:00 13.7 C 10.42 g/m*3 13.7 C 3.2 km/h
373 16-06-2014 07:00:00 13.8 C 10.37 g/m*3 13.8 C 4.8 km/h
374 16-06-2014 07:05:00 13.9 C 10.43 g/m*3 13.9 C 1.6 km/h
375 16-06-2014 07:10:00 13.9 C 10.43 g/m*3 13.9 C 3.2 km/h
Sensor: Nr:Datum:Temp:Abs-Feuchte:Windchill:Wind:
Aussen-T/F 376 16-06-2014 07:15:00 14 C 10.49 g/m*3 14 C 0 km/h
377 16-06-2014 07:20:00 14.1 C 10.56 g/m*3 14.1 C 3.2 km/h
378 16-06-2014 07:25:00 14.1 C 10.44 g/m*3 14.1 C 4.8 km/h
379 16-06-2014 07:30:00 14.1 C 10.44 g/m*3 14.1 C 4.8 km/h
380 16-06-2014 07:35:00 14.1 C 10.44 g/m*3 14.1 C 6.4 km/h
381 16-06-2014 07:40:00 14.1 C 10.44 g/m*3 14.1 C 4.8 km/h
382 16-06-2014 07:45:00 14.2 C 10.5 g/m*3 14.2 C 4.8 km/h
383 16-06-2014 07:50:00 14.2 C 10.5 g/m*3 14.2 C 8.1 km/h
384 16-06-2014 07:55:00 14.2 C 10.38 g/m*3 14.2 C 6.4 km/h
385 16-06-2014 08:00:00 14.2 C 10.38 g/m*3 14.2 C 4.8 km/h
386 16-06-2014 08:05:00 14.3 C 10.44 g/m*3 14.3 C 4.8 km/h
387 16-06-2014 08:10:00 14.3 C 10.44 g/m*3 14.3 C 4.8 km/h
388 16-06-2014 08:15:00 14.3 C 10.44 g/m*3 14.3 C 9.7 km/h
389 16-06-2014 08:20:00 14.3 C 10.44 g/m*3 14.3 C 9.7 km/h
390 16-06-2014 08:25:00 14.2 C 10.26 g/m*3 14.2 C 6.4 km/h
391 16-06-2014 08:30:00 14.2 C 10.26 g/m*3 14.2 C 3.2 km/h
392 16-06-2014 08:35:00 14.2 C 10.26 g/m*3 14.2 C 11.3 km/h
393 16-06-2014 08:40:00 14.2 C 10.26 g/m*3 14.2 C 11.3 km/h
394 16-06-2014 08:45:00 14.2 C 10.26 g/m*3 14.2 C 9.7 km/h
395 16-06-2014 08:50:00 14.2 C 10.26 g/m*3 14.2 C 9.7 km/h
396 16-06-2014 08:55:00 14.3 C 10.32 g/m*3 14.3 C 9.7 km/h
397 16-06-2014 09:00:00 14.4 C 10.26 g/m*3 14.4 C 9.7 km/h
398 16-06-2014 09:05:00 14.4 C 10.26 g/m*3 14.4 C 9.7 km/h
399 16-06-2014 09:10:00 14.5 C 10.32 g/m*3 14.5 C 6.4 km/h
400 16-06-2014 09:15:00 14.6 C 10.39 g/m*3 14.6 C 4.8 km/h
Sensor: Nr:Datum:Temp:Abs-Feuchte:Windchill:Wind:
Aussen-T/F 401 16-06-2014 09:20:00 14.7 C 10.45 g/m*3 14.7 C 8.1 km/h
402 16-06-2014 09:25:00 14.8 C 10.39 g/m*3 14.8 C 6.4 km/h
403 16-06-2014 09:30:00 15 C 10.39 g/m*3 15 C 12.9 km/h
404 16-06-2014 09:35:00 15.2 C 10.51 g/m*3 15.2 C 9.7 km/h
405 16-06-2014 09:40:00 15.2 C 10.51 g/m*3 15.2 C 9.7 km/h
406 16-06-2014 09:45:00 15.1 C 10.32 g/m*3 15.1 C 9.7 km/h
407 16-06-2014 09:50:00 15.1 C 10.45 g/m*3 15.1 C 9.7 km/h
408 16-06-2014 09:55:00 15.1 C 10.32 g/m*3 15.1 C 9.7 km/h
409 16-06-2014 10:00:00 14.9 C 10.32 g/m*3 14.9 C 9.7 km/h
410 16-06-2014 10:05:00 14.9 C 10.32 g/m*3 14.9 C 9.7 km/h
411 16-06-2014 10:10:00 15 C 10.39 g/m*3 15 C 12.9 km/h
412 16-06-2014 10:15:00 15.1 C 10.45 g/m*3 15.1 C 11.3 km/h
413 16-06-2014 10:20:00 15.3 C 10.58 g/m*3 15.3 C 8.1 km/h
414 16-06-2014 10:25:00 15.5 C 10.44 g/m*3 15.5 C 11.3 km/h
415 16-06-2014 10:30:00 15.7 C 10.44 g/m*3 15.7 C 8.1 km/h
416 16-06-2014 10:35:00 15.7 C 10.57 g/m*3 15.7 C 9.7 km/h
417 16-06-2014 10:40:00 15.7 C 10.44 g/m*3 15.7 C 8.1 km/h
418 16-06-2014 10:45:00 15.7 C 10.44 g/m*3 15.7 C 6.4 km/h
419 16-06-2014 10:50:00 15.9 C 10.43 g/m*3 15.9 C 6.4 km/h
420 16-06-2014 10:55:00 16.1 C 10.42 g/m*3 16.1 C 9.7 km/h
421 16-06-2014 11:00:00 16.1 C 10.28 g/m*3 16.1 C 9.7 km/h
422 16-06-2014 11:05:00 16.3 C 10.54 g/m*3 16.3 C 11.3 km/h
423 16-06-2014 11:10:00 16.2 C 10.2 g/m*3 16.2 C 12.9 km/h
424 16-06-2014 11:15:00 16.3 C 10.41 g/m*3 16.3 C 9.7 km/h
425 16-06-2014 11:20:00 16.3 C 10.27 g/m*3 16.3 C 9.7 km/h
Sensor: Nr:Datum:Temp:Abs-Feuchte:Windchill:Wind:
Aussen-T/F 426 16-06-2014 11:25:00 16.5 C 10.53 g/m*3 16.5 C 14.5 km/h
427 16-06-2014 11:30:00 16.7 C 10.37 g/m*3 16.7 C 14.5 km/h
428 16-06-2014 11:35:00 16.7 C 10.23 g/m*3 16.7 C 20.9 km/h
429 16-06-2014 11:40:00 16.5 C 9.97 g/m*3 16.5 C 9.7 km/h
430 16-06-2014 11:45:00 16.3 C 9.85 g/m*3 16.3 C 12.9 km/h
431 16-06-2014 11:50:00 16.4 C 10.19 g/m*3 16.4 C 11.3 km/h
432 16-06-2014 11:55:00 16.4 C 10.05 g/m*3 16.4 C 16.1 km/h
433 16-06-2014 12:00:00 16.4 C 9.91 g/m*3 16.4 C 11.3 km/h
434 16-06-2014 12:05:00 16.5 C 10.11 g/m*3 16.5 C 14.5 km/h
435 16-06-2014 12:10:00 16.6 C 10.17 g/m*3 16.6 C 9.7 km/h
436 16-06-2014 12:15:00 16.6 C 10.03 g/m*3 16.6 C 14.5 km/h
437 16-06-2014 12:20:00 16.7 C 9.95 g/m*3 16.7 C 8.1 km/h
438 16-06-2014 12:25:00 16.7 C 9.95 g/m*3 16.7 C 9.7 km/h
439 16-06-2014 12:30:00 16.6 C 9.89 g/m*3 16.6 C 11.3 km/h
440 16-06-2014 12:35:00 16.6 C 9.89 g/m*3 16.6 C 11.3 km/h
441 16-06-2014 12:40:00 16.5 C 9.83 g/m*3 16.5 C 11.3 km/h
442 16-06-2014 12:45:00 16.5 C 9.83 g/m*3 16.5 C 9.7 km/h
443 16-06-2014 12:50:00 16.7 C 9.95 g/m*3 16.7 C 6.4 km/h
444 16-06-2014 12:55:00 17 C 9.98 g/m*3 17 C 8.1 km/h
445 16-06-2014 13:00:00 17.2 C 9.81 g/m*3 17.2 C 9.7 km/h
446 16-06-2014 13:05:00 17.3 C 9.87 g/m*3 17.3 C 8.1 km/h
447 16-06-2014 13:10:00 17.3 C 9.58 g/m*3 17.3 C 14.5 km/h
448 16-06-2014 13:15:00 17.4 C 9.48 g/m*3 17.4 C 8.1 km/h
449 16-06-2014 13:20:00 17.5 C 9.84 g/m*3 17.5 C 6.4 km/h
450 16-06-2014 13:25:00 17.8 C 10.02 g/m*3 17.8 C 9.7 km/h
Sensor: Nr:Datum:Temp:Abs-Feuchte:Windchill:Wind:
Aussen-T/F 451 16-06-2014 13:30:00 18.2 C 9.79 g/m*3 18.2 C 9.7 km/h
452 16-06-2014 13:35:00 18.3 C 9.69 g/m*3 18.3 C 8.1 km/h
453 16-06-2014 13:40:00 18.2 C 9.64 g/m*3 18.2 C 9.7 km/h
454 16-06-2014 13:45:00 18.3 C 9.54 g/m*3 18.3 C 14.5 km/h
455 16-06-2014 13:50:00 18.3 C 9.69 g/m*3 18.3 C 16.1 km/h
456 16-06-2014 13:55:00 18.3 C 9.54 g/m*3 18.3 C 14.5 km/h
457 16-06-2014 14:00:00 18.2 C 9.48 g/m*3 18.2 C 9.7 km/h
458 16-06-2014 14:05:00 17.9 C 9.31 g/m*3 17.9 C 11.3 km/h
459 16-06-2014 14:10:00 17.9 C 9.47 g/m*3 17.9 C 11.3 km/h
460 16-06-2014 14:15:00 18 C 9.68 g/m*3 18 C 14.5 km/h
461 16-06-2014 14:20:00 17.9 C 9.31 g/m*3 17.9 C 11.3 km/h
462 16-06-2014 14:25:00 17.9 C 9.77 g/m*3 17.9 C 11.3 km/h
463 16-06-2014 14:30:00 18.3 C 9.85 g/m*3 18.3 C 9.7 km/h
464 16-06-2014 14:35:00 18.8 C 9.66 g/m*3 18.8 C 12.9 km/h
465 16-06-2014 14:40:00 19 C 9.45 g/m*3 19 C 9.7 km/h
466 16-06-2014 14:45:00 19.3 C 9.62 g/m*3 19.3 C 9.7 km/h
467 16-06-2014 14:50:00 19.6 C 9.62 g/m*3 19.6 C 6.4 km/h
468 16-06-2014 14:55:00 19.3 C 9.29 g/m*3 19.3 C 14.5 km/h
469 16-06-2014 15:00:00 19.3 C 9.79 g/m*3 19.3 C 9.7 km/h
470 16-06-2014 15:05:00 19.3 C 9.45 g/m*3 19.3 C 8.1 km/h
471 16-06-2014 15:10:00 19.6 C 9.62 g/m*3 19.6 C 8.1 km/h
472 16-06-2014 15:15:00 19.8 C 9.57 g/m*3 19.8 C 6.4 km/h
473 16-06-2014 15:20:00 19.8 C 9.74 g/m*3 19.8 C 11.3 km/h
474 16-06-2014 15:25:00 19.8 C 9.22 g/m*3 19.8 C 8.1 km/h
475 16-06-2014 15:30:00 19.9 C 9.28 g/m*3 19.9 C 14.5 km/h
Sensor: Nr:Datum:Temp:Abs-Feuchte:Windchill:Wind:
Aussen-T/F 476 16-06-2014 15:35:00 20 C 9.33 g/m*3 20 C 11.3 km/h
477 16-06-2014 15:40:00 20.3 C 9.15 g/m*3 20.3 C 12.9 km/h
478 16-06-2014 15:45:00 20.5 C 9.07 g/m*3 20.5 C 11.3 km/h
479 16-06-2014 15:50:00 20.5 C 9.07 g/m*3 20.5 C 16.1 km/h
480 16-06-2014 15:55:00 20.4 C 8.67 g/m*3 20.4 C 12.9 km/h
481 16-06-2014 16:00:00 20.3 C 9.32 g/m*3 20.3 C 12.9 km/h
482 16-06-2014 16:05:00 20.4 C 9.38 g/m*3 20.4 C 12.9 km/h
483 16-06-2014 16:10:00 20.4 C 9.55 g/m*3 20.4 C 14.5 km/h
484 16-06-2014 16:15:00 20.2 C 9.27 g/m*3 20.2 C 11.3 km/h
485 16-06-2014 16:20:00 19.9 C 9.11 g/m*3 19.9 C 12.9 km/h
486 16-06-2014 16:25:00 19.6 C 9.12 g/m*3 19.6 C 12.9 km/h
487 16-06-2014 16:30:00 19.6 C 9.45 g/m*3 19.6 C 11.3 km/h
488 16-06-2014 16:35:00 19.4 C 9.18 g/m*3 19.4 C 17.7 km/h
489 16-06-2014 16:40:00 19.2 C 9.07 g/m*3 19.2 C 16.1 km/h
490 16-06-2014 16:45:00 19.1 C 9.18 g/m*3 19.1 C 8.1 km/h
491 16-06-2014 16:50:00 19 C 9.45 g/m*3 19 C 11.3 km/h
492 16-06-2014 16:55:00 19.1 C 9.51 g/m*3 19.1 C 9.7 km/h
493 16-06-2014 17:00:00 19.1 C 9.18 g/m*3 19.1 C 14.5 km/h
494 16-06-2014 17:05:00 19 C 9.13 g/m*3 19 C 8.1 km/h
495 16-06-2014 17:10:00 18.8 C 9.18 g/m*3 18.8 C 11.3 km/h
496 16-06-2014 17:15:00 18.7 C 9.29 g/m*3 18.7 C 14.5 km/h
497 16-06-2014 17:20:00 18.4 C 9.44 g/m*3 18.4 C 9.7 km/h
498 16-06-2014 17:25:00 18.3 C 9.22 g/m*3 18.3 C 14.5 km/h
499 16-06-2014 17:30:00 18.1 C 9.43 g/m*3 18.1 C 11.3 km/h
500 16-06-2014 17:35:00 18.1 C 9.58 g/m*3 18.1 C 8.1 km/h
Sensor: Nr:Datum:Temp:Abs-Feuchte:Windchill:Wind:
Aussen-T/F 501 16-06-2014 17:40:00 18 C 9.52 g/m*3 18 C 12.9 km/h
502 16-06-2014 17:45:00 18 C 9.37 g/m*3 18 C 9.7 km/h
503 16-06-2014 17:50:00 17.8 C 9.41 g/m*3 17.8 C 8.1 km/h
504 16-06-2014 17:55:00 17.8 C 9.56 g/m*3 17.8 C 12.9 km/h
505 16-06-2014 18:00:00 17.7 C 9.66 g/m*3 17.7 C 16.1 km/h
506 16-06-2014 18:05:00 17.6 C 9.6 g/m*3 17.6 C 11.3 km/h
507 16-06-2014 18:10:00 17.6 C 9.75 g/m*3 17.6 C 11.3 km/h
508 16-06-2014 18:15:00 17.4 C 9.78 g/m*3 17.4 C 12.9 km/h
509 16-06-2014 18:20:00 17.4 C 9.63 g/m*3 17.4 C 12.9 km/h
510 16-06-2014 18:25:00 17.4 C 9.78 g/m*3 17.4 C 12.9 km/h
511 16-06-2014 18:30:00 17.3 C 9.72 g/m*3 17.3 C 9.7 km/h
512 16-06-2014 18:35:00 17.4 C 9.78 g/m*3 17.4 C 8.1 km/h
513 16-06-2014 18:40:00 17.3 C 9.72 g/m*3 17.3 C 8.1 km/h
514 16-06-2014 18:45:00 17.3 C 9.72 g/m*3 17.3 C 4.8 km/h
515 16-06-2014 18:50:00 17.3 C 9.87 g/m*3 17.3 C 6.4 km/h
516 16-06-2014 18:55:00 17.3 C 9.87 g/m*3 17.3 C 12.9 km/h
517 16-06-2014 19:00:00 17.3 C 10.02 g/m*3 17.3 C 6.4 km/h
518 16-06-2014 19:05:00 17.3 C 10.02 g/m*3 17.3 C 9.7 km/h
519 16-06-2014 19:10:00 17.3 C 10.02 g/m*3 17.3 C 11.3 km/h
520 16-06-2014 19:15:00 17.3 C 10.31 g/m*3 17.3 C 8.1 km/h
521 16-06-2014 19:20:00 17.2 C 10.1 g/m*3 17.2 C 9.7 km/h
522 16-06-2014 19:25:00 17.2 C 10.25 g/m*3 17.2 C 8.1 km/h
523 16-06-2014 19:30:00 17.2 C 10.1 g/m*3 17.2 C 9.7 km/h
524 16-06-2014 19:35:00 17.1 C 10.04 g/m*3 17.1 C 6.4 km/h
525 16-06-2014 19:40:00 17.1 C 10.19 g/m*3 17.1 C 12.9 km/h
Sensor: Nr:Datum:Temp:Abs-Feuchte:Windchill:Wind:
Aussen-T/F 526 16-06-2014 19:45:00 17.2 C 10.1 g/m*3 17.2 C 9.7 km/h
527 16-06-2014 19:50:00 17.2 C 10.25 g/m*3 17.2 C 11.3 km/h
528 16-06-2014 19:55:00 17.3 C 10.31 g/m*3 17.3 C 8.1 km/h
529 16-06-2014 20:00:00 17.3 C 10.16 g/m*3 17.3 C 9.7 km/h
530 16-06-2014 20:05:00 17.3 C 10.16 g/m*3 17.3 C 8.1 km/h
531 16-06-2014 20:10:00 17.3 C 10.16 g/m*3 17.3 C 11.3 km/h
532 16-06-2014 20:15:00 17.2 C 10.25 g/m*3 17.2 C 9.7 km/h
533 16-06-2014 20:20:00 17.2 C 10.1 g/m*3 17.2 C 8.1 km/h
534 16-06-2014 20:25:00 17.2 C 10.1 g/m*3 17.2 C 6.4 km/h
535 16-06-2014 20:30:00 17.2 C 10.1 g/m*3 17.2 C 4.8 km/h
536 16-06-2014 20:35:00 17.2 C 10.1 g/m*3 17.2 C 6.4 km/h
537 16-06-2014 20:40:00 17.2 C 10.25 g/m*3 17.2 C 8.1 km/h
538 16-06-2014 20:45:00 17.2 C 10.25 g/m*3 17.2 C 9.7 km/h
539 16-06-2014 20:50:00 17.1 C 10.19 g/m*3 17.1 C 4.8 km/h
540 16-06-2014 20:55:00 17.1 C 10.19 g/m*3 17.1 C 8.1 km/h
541 16-06-2014 21:00:00 17.1 C 10.19 g/m*3 17.1 C 9.7 km/h
542 16-06-2014 21:05:00 16.9 C 10.21 g/m*3 16.9 C 8.1 km/h
543 16-06-2014 21:10:00 16.9 C 10.21 g/m*3 16.9 C 6.4 km/h
544 16-06-2014 21:15:00 16.9 C 10.21 g/m*3 16.9 C 6.4 km/h
545 16-06-2014 21:20:00 16.8 C 10.29 g/m*3 16.8 C 6.4 km/h
546 16-06-2014 21:25:00 16.8 C 10.29 g/m*3 16.8 C 6.4 km/h
547 16-06-2014 21:30:00 16.8 C 10.29 g/m*3 16.8 C 3.2 km/h
548 16-06-2014 21:35:00 16.7 C 10.37 g/m*3 16.7 C 4.8 km/h
549 16-06-2014 21:40:00 16.7 C 10.37 g/m*3 16.7 C 6.4 km/h
550 16-06-2014 21:45:00 16.6 C 10.45 g/m*3 16.6 C 4.8 km/h
Sensor: Nr:Datum:Temp:Abs-Feuchte:Windchill:Wind:
Aussen-T/F 551 16-06-2014 21:50:00 16.5 C 10.39 g/m*3 16.5 C 3.2 km/h
552 16-06-2014 21:55:00 16.4 C 10.33 g/m*3 16.4 C 6.4 km/h
553 16-06-2014 22:00:00 16.4 C 10.47 g/m*3 16.4 C 3.2 km/h
554 16-06-2014 22:05:00 16.3 C 10.54 g/m*3 16.3 C 1.6 km/h
555 16-06-2014 22:10:00 16.3 C 10.54 g/m*3 16.3 C 4.8 km/h
556 16-06-2014 22:15:00 16.2 C 10.48 g/m*3 16.2 C 3.2 km/h
557 16-06-2014 22:20:00 16.2 C 10.48 g/m*3 16.2 C 0 km/h
558 16-06-2014 22:25:00 16.1 C 10.55 g/m*3 16.1 C 4.8 km/h
559 16-06-2014 22:30:00 16.1 C 10.55 g/m*3 16.1 C 1.6 km/h
560 16-06-2014 22:35:00 16 C 10.49 g/m*3 16 C 3.2 km/h
561 16-06-2014 22:40:00 15.9 C 10.43 g/m*3 15.9 C 1.6 km/h
562 16-06-2014 22:45:00 15.9 C 10.56 g/m*3 15.9 C 0 km/h
563 16-06-2014 22:50:00 15.8 C 10.5 g/m*3 15.8 C 0 km/h
564 16-06-2014 22:55:00 15.8 C 10.63 g/m*3 15.8 C 1.6 km/h
565 16-06-2014 23:00:00 15.8 C 10.5 g/m*3 15.8 C 0 km/h
566 16-06-2014 23:05:00 15.7 C 10.57 g/m*3 15.7 C 1.6 km/h
567 16-06-2014 23:10:00 15.7 C 10.7 g/m*3 15.7 C 0 km/h
568 16-06-2014 23:15:00 15.6 C 10.64 g/m*3 15.6 C 0 km/h
569 16-06-2014 23:20:00 15.6 C 10.64 g/m*3 15.6 C 0 km/h
570 16-06-2014 23:25:00 15.5 C 10.57 g/m*3 15.5 C 0 km/h
571 16-06-2014 23:30:00 15.4 C 10.38 g/m*3 15.4 C 4.8 km/h
572 16-06-2014 23:35:00 15.5 C 10.44 g/m*3 15.5 C 0 km/h
573 16-06-2014 23:40:00 15.5 C 10.44 g/m*3 15.5 C 0 km/h
574 16-06-2014 23:45:00 15.6 C 10.24 g/m*3 15.6 C 3.2 km/h
575 16-06-2014 23:50:00 15.6 C 10.24 g/m*3 15.6 C 0 km/h
Sensor: Nr:Datum:Temp:Abs-Feuchte:Windchill:Wind:
Aussen-T/F 576 16-06-2014 23:55:00 15.6 C 10.24 g/m*3 15.6 C 1.6 km/h
577 17-06-2014 00:00:00 15.6 C 10.24 g/m*3 15.6 C 3.2 km/h
578 17-06-2014 00:05:00 15.6 C 10.24 g/m*3 15.6 C 1.6 km/h
579 17-06-2014 00:10:00 15.6 C 10.11 g/m*3 15.6 C 1.6 km/h
580 17-06-2014 00:15:00 15.7 C 10.17 g/m*3 15.7 C 3.2 km/h
581 17-06-2014 00:20:00 15.7 C 10.17 g/m*3 15.7 C 1.6 km/h
582 17-06-2014 00:25:00 15.7 C 10.3 g/m*3 15.7 C 1.6 km/h
583 17-06-2014 00:30:00 15.6 C 10.11 g/m*3 15.6 C 1.6 km/h
584 17-06-2014 00:35:00 15.6 C 10.24 g/m*3 15.6 C 0 km/h
585 17-06-2014 00:40:00 15.6 C 10.37 g/m*3 15.6 C 0 km/h
586 17-06-2014 00:45:00 15.5 C 10.18 g/m*3 15.5 C 0 km/h
587 17-06-2014 00:50:00 15.4 C 10.12 g/m*3 15.4 C 1.6 km/h
588 17-06-2014 00:55:00 15.4 C 10.12 g/m*3 15.4 C 3.2 km/h
589 17-06-2014 01:00:00 15.5 C 10.18 g/m*3 15.5 C 4.8 km/h
590 17-06-2014 01:05:00 15.5 C 10.18 g/m*3 15.5 C 4.8 km/h
591 17-06-2014 01:10:00 15.6 C 10.24 g/m*3 15.6 C 4.8 km/h
592 17-06-2014 01:15:00 15.6 C 10.24 g/m*3 15.6 C 6.4 km/h
593 17-06-2014 01:20:00 15.6 C 10.24 g/m*3 15.6 C 4.8 km/h
594 17-06-2014 01:25:00 15.6 C 10.24 g/m*3 15.6 C 4.8 km/h
595 17-06-2014 01:30:00 15.6 C 10.24 g/m*3 15.6 C 4.8 km/h
596 17-06-2014 01:35:00 15.6 C 10.24 g/m*3 15.6 C 1.6 km/h
597 17-06-2014 01:40:00 15.6 C 10.24 g/m*3 15.6 C 3.2 km/h
598 17-06-2014 01:45:00 15.6 C 10.24 g/m*3 15.6 C 3.2 km/h
599 17-06-2014 01:50:00 15.6 C 10.24 g/m*3 15.6 C 3.2 km/h
600 17-06-2014 01:55:00 15.5 C 10.05 g/m*3 15.5 C 9.7 km/h
Sensor: Nr:Datum:Temp:Abs-Feuchte:Windchill:Wind:
Aussen-T/F 601 17-06-2014 02:00:00 15.5 C 10.05 g/m*3 15.5 C 3.2 km/h
602 17-06-2014 02:05:00 15.5 C 10.05 g/m*3 15.5 C 14.5 km/h
603 17-06-2014 02:10:00 15.4 C 9.99 g/m*3 15.4 C 6.4 km/h
604 17-06-2014 02:15:00 15.4 C 9.99 g/m*3 15.4 C 6.4 km/h
605 17-06-2014 02:20:00 15.4 C 9.99 g/m*3 15.4 C 4.8 km/h
606 17-06-2014 02:25:00 15.4 C 9.85 g/m*3 15.4 C 4.8 km/h
607 17-06-2014 02:30:00 15.4 C 9.85 g/m*3 15.4 C 6.4 km/h
608 17-06-2014 02:35:00 15.4 C 9.85 g/m*3 15.4 C 8.1 km/h
609 17-06-2014 02:40:00 15.3 C 9.79 g/m*3 15.3 C 8.1 km/h
610 17-06-2014 02:45:00 15.3 C 9.79 g/m*3 15.3 C 6.4 km/h
611 17-06-2014 02:50:00 15.3 C 9.79 g/m*3 15.3 C 3.2 km/h
612 17-06-2014 02:55:00 15.3 C 9.92 g/m*3 15.3 C 6.4 km/h
613 17-06-2014 03:00:00 15.2 C 9.86 g/m*3 15.2 C 4.8 km/h
614 17-06-2014 03:05:00 15.2 C 9.73 g/m*3 15.2 C 4.8 km/h
615 17-06-2014 03:10:00 15.1 C 9.68 g/m*3 15.1 C 6.4 km/h
616 17-06-2014 03:15:00 15.1 C 9.68 g/m*3 15.1 C 6.4 km/h
617 17-06-2014 03:20:00 15.1 C 9.68 g/m*3 15.1 C 6.4 km/h
618 17-06-2014 03:25:00 15.1 C 9.68 g/m*3 15.1 C 9.7 km/h
619 17-06-2014 03:30:00 15 C 9.62 g/m*3 15 C 8.1 km/h
620 17-06-2014 03:35:00 14.9 C 9.56 g/m*3 14.9 C 12.9 km/h
621 17-06-2014 03:40:00 14.8 C 9.63 g/m*3 14.8 C 4.8 km/h
622 17-06-2014 03:45:00 14.8 C 9.63 g/m*3 14.8 C 6.4 km/h
623 17-06-2014 03:50:00 14.7 C 9.57 g/m*3 14.7 C 4.8 km/h
624 17-06-2014 03:55:00 14.7 C 9.57 g/m*3 14.7 C 4.8 km/h
625 17-06-2014 04:00:00 14.6 C 9.51 g/m*3 14.6 C 9.7 km/h
Sensor: Nr:Datum:Temp:Abs-Feuchte:Windchill:Wind:
Aussen-T/F 626 17-06-2014 04:05:00 14.5 C 9.58 g/m*3 14.5 C 6.4 km/h
627 17-06-2014 04:10:00 14.5 C 9.58 g/m*3 14.5 C 3.2 km/h
628 17-06-2014 04:15:00 14.4 C 9.52 g/m*3 14.4 C 4.8 km/h
629 17-06-2014 04:20:00 14.4 C 9.52 g/m*3 14.4 C 3.2 km/h
630 17-06-2014 04:25:00 14.3 C 9.46 g/m*3 14.3 C 3.2 km/h
631 17-06-2014 04:30:00 14.3 C 9.46 g/m*3 14.3 C 3.2 km/h
632 17-06-2014 04:35:00 14.3 C 9.58 g/m*3 14.3 C 8.1 km/h
633 17-06-2014 04:40:00 14.2 C 9.52 g/m*3 14.2 C 8.1 km/h
634 17-06-2014 04:45:00 14.2 C 9.52 g/m*3 14.2 C 8.1 km/h
635 17-06-2014 04:50:00 14.2 C 9.52 g/m*3 14.2 C 4.8 km/h
636 17-06-2014 04:55:00 14.1 C 9.47 g/m*3 14.1 C 6.4 km/h
637 17-06-2014 05:00:00 14.1 C 9.47 g/m*3 14.1 C 6.4 km/h
638 17-06-2014 05:05:00 14.1 C 9.47 g/m*3 14.1 C 6.4 km/h
639 17-06-2014 05:10:00 14.1 C 9.59 g/m*3 14.1 C 8.1 km/h
640 17-06-2014 05:15:00 14 C 9.53 g/m*3 14 C 4.8 km/h
641 17-06-2014 05:20:00 14 C 9.53 g/m*3 14 C 4.8 km/h
642 17-06-2014 05:25:00 14 C 9.53 g/m*3 14 C 8.1 km/h
643 17-06-2014 05:30:00 14 C 9.53 g/m*3 14 C 3.2 km/h
644 17-06-2014 05:35:00 14 C 9.53 g/m*3 14 C 3.2 km/h
645 17-06-2014 05:40:00 14 C 9.53 g/m*3 14 C 6.4 km/h
646 17-06-2014 05:45:00 14 C 9.53 g/m*3 14 C 6.4 km/h
647 17-06-2014 05:50:00 13.9 C 9.47 g/m*3 13.9 C 8.1 km/h
648 17-06-2014 05:55:00 13.9 C 9.47 g/m*3 13.9 C 6.4 km/h
649 17-06-2014 06:00:00 13.9 C 9.59 g/m*3 13.9 C 4.8 km/h
650 17-06-2014 06:05:00 13.9 C 9.59 g/m*3 13.9 C 4.8 km/h
Sensor: Nr:Datum:Temp:Abs-Feuchte:Windchill:Wind:
Aussen-T/F 651 17-06-2014 06:10:00 13.9 C 9.47 g/m*3 13.9 C 4.8 km/h
652 17-06-2014 06:15:00 13.9 C 9.47 g/m*3 13.9 C 8.1 km/h
653 17-06-2014 06:20:00 13.9 C 9.47 g/m*3 13.9 C 6.4 km/h
654 17-06-2014 06:25:00 13.9 C 9.47 g/m*3 13.9 C 4.8 km/h
655 17-06-2014 06:30:00 14 C 9.53 g/m*3 14 C 4.8 km/h
656 17-06-2014 06:35:00 14 C 9.53 g/m*3 14 C 6.4 km/h
657 17-06-2014 06:40:00 14 C 9.65 g/m*3 14 C 4.8 km/h
658 17-06-2014 06:45:00 14 C 9.53 g/m*3 14 C 9.7 km/h
659 17-06-2014 06:50:00 14 C 9.53 g/m*3 14 C 8.1 km/h
660 17-06-2014 06:55:00 14 C 9.53 g/m*3 14 C 6.4 km/h
661 17-06-2014 07:00:00 14.1 C 9.59 g/m*3 14.1 C 6.4 km/h
662 17-06-2014 07:05:00 14.1 C 9.59 g/m*3 14.1 C 6.4 km/h
663 17-06-2014 07:10:00 14.1 C 9.59 g/m*3 14.1 C 1.6 km/h
664 17-06-2014 07:15:00 14.1 C 9.47 g/m*3 14.1 C 6.4 km/h
665 17-06-2014 07:20:00 14.1 C 9.47 g/m*3 14.1 C 1.6 km/h
666 17-06-2014 07:25:00 14.1 C 9.47 g/m*3 14.1 C 6.4 km/h
667 17-06-2014 07:30:00 14.1 C 9.59 g/m*3 14.1 C 4.8 km/h
668 17-06-2014 07:35:00 14 C 9.41 g/m*3 14 C 6.4 km/h
669 17-06-2014 07:40:00 13.8 C 9.29 g/m*3 13.8 C 4.8 km/h
670 17-06-2014 07:45:00 13.8 C 9.41 g/m*3 13.8 C 4.8 km/h
671 17-06-2014 07:50:00 13.7 C 9.24 g/m*3 13.7 C 6.4 km/h
672 17-06-2014 07:55:00 13.7 C 9.35 g/m*3 13.7 C 3.2 km/h
673 17-06-2014 08:00:00 13.8 C 9.41 g/m*3 13.8 C 1.6 km/h
674 17-06-2014 08:05:00 13.8 C 9.41 g/m*3 13.8 C 1.6 km/h
675 17-06-2014 08:10:00 13.9 C 9.59 g/m*3 13.9 C 0 km/h
Sensor: Nr:Datum:Temp:Abs-Feuchte:Windchill:Wind:
Aussen-T/F 676 17-06-2014 08:15:00 14.2 C 9.52 g/m*3 14.2 C 0 km/h
677 17-06-2014 08:20:00 14.6 C 9.64 g/m*3 14.6 C 4.8 km/h
678 17-06-2014 08:25:00 14.8 C 9.37 g/m*3 14.8 C 6.4 km/h
679 17-06-2014 08:30:00 15.2 C 9.48 g/m*3 15.2 C 6.4 km/h
680 17-06-2014 08:35:00 15.4 C 9.46 g/m*3 15.4 C 6.4 km/h
681 17-06-2014 08:40:00 15.5 C 9.25 g/m*3 15.5 C 8.1 km/h
682 17-06-2014 08:45:00 15.7 C 9.23 g/m*3 15.7 C 11.3 km/h
683 17-06-2014 08:50:00 15.8 C 9.29 g/m*3 15.8 C 4.8 km/h
684 17-06-2014 08:55:00 15.9 C 9.34 g/m*3 15.9 C 4.8 km/h
685 17-06-2014 09:00:00 16.2 C 9.24 g/m*3 16.2 C 4.8 km/h
686 17-06-2014 09:05:00 16.2 C 9.24 g/m*3 16.2 C 6.4 km/h
687 17-06-2014 09:10:00 16.4 C 9.35 g/m*3 16.4 C 4.8 km/h
688 17-06-2014 09:15:00 16.5 C 9.13 g/m*3 16.5 C 12.9 km/h
689 17-06-2014 09:20:00 16.6 C 9.18 g/m*3 16.6 C 8.1 km/h
690 17-06-2014 09:25:00 16.7 C 9.24 g/m*3 16.7 C 9.7 km/h
691 17-06-2014 09:30:00 16.3 C 9.3 g/m*3 16.3 C 9.7 km/h
692 17-06-2014 09:35:00 16 C 9.26 g/m*3 16 C 9.7 km/h
693 17-06-2014 09:40:00 16.1 C 9.46 g/m*3 16.1 C 8.1 km/h
694 17-06-2014 09:45:00 16.3 C 9.43 g/m*3 16.3 C 11.3 km/h
695 17-06-2014 09:50:00 16.4 C 9.49 g/m*3 16.4 C 8.1 km/h
696 17-06-2014 09:55:00 16.3 C 9.02 g/m*3 16.3 C 8.1 km/h
697 17-06-2014 10:00:00 16.2 C 9.1 g/m*3 16.2 C 4.8 km/h
698 17-06-2014 10:05:00 16.2 C 9.24 g/m*3 16.2 C 6.4 km/h
699 17-06-2014 10:10:00 16.3 C 9.3 g/m*3 16.3 C 6.4 km/h
700 17-06-2014 10:15:00 16.4 C 9.35 g/m*3 16.4 C 9.7 km/h
Sensor: Nr:Datum:Temp:Abs-Feuchte:Windchill:Wind:
Aussen-T/F 701 17-06-2014 10:20:00 16.6 C 9.46 g/m*3 16.6 C 9.7 km/h
702 17-06-2014 10:25:00 16.8 C 9.29 g/m*3 16.8 C 12.9 km/h
703 17-06-2014 10:30:00 16.8 C 9.44 g/m*3 16.8 C 8.1 km/h
704 17-06-2014 10:35:00 16.8 C 9.58 g/m*3 16.8 C 4.8 km/h
705 17-06-2014 10:40:00 16.9 C 9.21 g/m*3 16.9 C 8.1 km/h
706 17-06-2014 10:45:00 16.8 C 9.15 g/m*3 16.8 C 9.7 km/h
707 17-06-2014 10:50:00 16.8 C 9.15 g/m*3 16.8 C 8.1 km/h
708 17-06-2014 10:55:00 16.7 C 8.95 g/m*3 16.7 C 4.8 km/h
709 17-06-2014 11:00:00 16.8 C 9.29 g/m*3 16.8 C 1.6 km/h
710 17-06-2014 11:05:00 17.3 C 9.43 g/m*3 17.3 C 8.1 km/h
711 17-06-2014 11:10:00 17.9 C 9.47 g/m*3 17.9 C 11.3 km/h
712 17-06-2014 11:15:00 18.3 C 9.54 g/m*3 18.3 C 11.3 km/h
713 17-06-2014 11:20:00 18.5 C 9.65 g/m*3 18.5 C 9.7 km/h
714 17-06-2014 11:25:00 18.3 C 9.69 g/m*3 18.3 C 8.1 km/h
715 17-06-2014 11:30:00 18.5 C 9.49 g/m*3 18.5 C 11.3 km/h
716 17-06-2014 11:35:00 18.6 C 9.71 g/m*3 18.6 C 8.1 km/h
717 17-06-2014 11:40:00 18.6 C 9.55 g/m*3 18.6 C 11.3 km/h
718 17-06-2014 11:45:00 18.4 C 9.91 g/m*3 18.4 C 9.7 km/h
719 17-06-2014 11:50:00 18.3 C 9.69 g/m*3 18.3 C 8.1 km/h
720 17-06-2014 11:55:00 18.2 C 9.33 g/m*3 18.2 C 6.4 km/h
721 17-06-2014 12:00:00 18.3 C 9.54 g/m*3 18.3 C 11.3 km/h
722 17-06-2014 12:05:00 18.7 C 9.45 g/m*3 18.7 C 12.9 km/h
723 17-06-2014 12:10:00 19.3 C 9.95 g/m*3 19.3 C 6.4 km/h
724 17-06-2014 12:15:00 19.7 C 9.68 g/m*3 19.7 C 12.9 km/h
725 17-06-2014 12:20:00 19.8 C 9.39 g/m*3 19.8 C 11.3 km/h
Sensor: Nr:Datum:Temp:Abs-Feuchte:Windchill:Wind:
Aussen-T/F 726 17-06-2014 12:25:00 19.8 C 9.57 g/m*3 19.8 C 8.1 km/h
727 17-06-2014 12:30:00 20.1 C 9.56 g/m*3 20.1 C 6.4 km/h
728 17-06-2014 12:35:00 20.3 C 9.5 g/m*3 20.3 C 8.1 km/h
729 17-06-2014 12:40:00 20.3 C 9.32 g/m*3 20.3 C 8.1 km/h
730 17-06-2014 12:45:00 20.3 C 9.32 g/m*3 20.3 C 8.1 km/h
731 17-06-2014 12:50:00 20.4 C 9.2 g/m*3 20.4 C 9.7 km/h
732 17-06-2014 12:55:00 20.6 C 9.31 g/m*3 20.6 C 8.1 km/h
733 17-06-2014 13:00:00 20.6 C 9.49 g/m*3 20.6 C 6.4 km/h
734 17-06-2014 13:05:00 20.3 C 9.5 g/m*3 20.3 C 8.1 km/h
735 17-06-2014 13:10:00 19.9 C 9.45 g/m*3 19.9 C 11.3 km/h
736 17-06-2014 13:15:00 19.7 C 9.68 g/m*3 19.7 C 11.3 km/h
737 17-06-2014 13:20:00 19.5 C 9.57 g/m*3 19.5 C 9.7 km/h
738 17-06-2014 13:25:00 19.4 C 10.18 g/m*3 19.4 C 4.8 km/h
739 17-06-2014 13:30:00 19.4 C 9.84 g/m*3 19.4 C 4.8 km/h
740 17-06-2014 13:35:00 19.4 C 10.01 g/m*3 19.4 C 14.5 km/h
741 17-06-2014 13:40:00 19.4 C 10.01 g/m*3 19.4 C 11.3 km/h
742 17-06-2014 13:45:00 19.3 C 9.95 g/m*3 19.3 C 8.1 km/h
743 17-06-2014 13:50:00 19.8 C 9.91 g/m*3 19.8 C 8.1 km/h
744 17-06-2014 13:55:00 20.4 C 10.61 g/m*3 20.4 C 12.9 km/h
745 17-06-2014 14:00:00 20.7 C 10.08 g/m*3 20.7 C 9.7 km/h
746 17-06-2014 14:05:00 20.4 C 10.26 g/m*3 20.4 C 12.9 km/h
747 17-06-2014 14:10:00 20.2 C 10.49 g/m*3 20.2 C 6.4 km/h
748 17-06-2014 14:15:00 20.2 C 9.97 g/m*3 20.2 C 8.1 km/h
749 17-06-2014 14:20:00 20.4 C 10.08 g/m*3 20.4 C 11.3 km/h
750 17-06-2014 14:25:00 20.4 C 9.91 g/m*3 20.4 C 9.7 km/h
Sensor: Nr:Datum:Temp:Abs-Feuchte:Windchill:Wind:
Aussen-T/F 751 17-06-2014 14:30:00 20.5 C 10.68 g/m*3 20.5 C 12.9 km/h
752 17-06-2014 14:35:00 21.2 C 10.38 g/m*3 21.2 C 11.3 km/h
753 17-06-2014 14:40:00 21.3 C 10.07 g/m*3 21.3 C 11.3 km/h
754 17-06-2014 14:45:00 20.7 C 10.26 g/m*3 20.7 C 8.1 km/h
755 17-06-2014 14:50:00 20.4 C 10.08 g/m*3 20.4 C 11.3 km/h
756 17-06-2014 14:55:00 20.3 C 10.2 g/m*3 20.3 C 11.3 km/h
757 17-06-2014 15:00:00 20.3 C 10.2 g/m*3 20.3 C 14.5 km/h
758 17-06-2014 15:05:00 20.3 C 10.02 g/m*3 20.3 C 12.9 km/h
759 17-06-2014 15:10:00 20.1 C 10.08 g/m*3 20.1 C 14.5 km/h
760 17-06-2014 15:15:00 20.1 C 10.26 g/m*3 20.1 C 11.3 km/h
761 17-06-2014 15:20:00 20.5 C 10.5 g/m*3 20.5 C 11.3 km/h
762 17-06-2014 15:25:00 20.7 C 10.44 g/m*3 20.7 C 6.4 km/h
763 17-06-2014 15:30:00 20.6 C 10.38 g/m*3 20.6 C 14.5 km/h
764 17-06-2014 15:35:00 20.3 C 10.2 g/m*3 20.3 C 8.1 km/h
765 17-06-2014 15:40:00 20.3 C 10.38 g/m*3 20.3 C 16.1 km/h
766 17-06-2014 15:45:00 20.3 C 10.2 g/m*3 20.3 C 9.7 km/h
767 17-06-2014 15:50:00 20.4 C 10.44 g/m*3 20.4 C 9.7 km/h
768 17-06-2014 15:55:00 21.1 C 10.87 g/m*3 21.1 C 8.1 km/h
769 17-06-2014 16:00:00 21.3 C 10.62 g/m*3 21.3 C 11.3 km/h
770 17-06-2014 16:05:00 21.2 C 10.56 g/m*3 21.2 C 11.3 km/h
771 17-06-2014 16:10:00 21.1 C 10.69 g/m*3 21.1 C 8.1 km/h
772 17-06-2014 16:15:00 21.1 C 10.5 g/m*3 21.1 C 16.1 km/h
773 17-06-2014 16:20:00 20.7 C 10.44 g/m*3 20.7 C 14.5 km/h
774 17-06-2014 16:25:00 20.5 C 10.32 g/m*3 20.5 C 9.7 km/h
775 17-06-2014 16:30:00 20.4 C 10.44 g/m*3 20.4 C 9.7 km/h
Sensor: Nr:Datum:Temp:Abs-Feuchte:Windchill:Wind:
Aussen-T/F 776 17-06-2014 16:35:00 20.6 C 10.56 g/m*3 20.6 C 9.7 km/h
777 17-06-2014 16:40:00 21.3 C 11.18 g/m*3 21.3 C 16.1 km/h
778 17-06-2014 16:45:00 21.6 C 10.43 g/m*3 21.6 C 16.1 km/h
779 17-06-2014 16:50:00 21.2 C 10.56 g/m*3 21.2 C 9.7 km/h
780 17-06-2014 16:55:00 20.8 C 10.32 g/m*3 20.8 C 14.5 km/h
781 17-06-2014 17:00:00 20.7 C 10.44 g/m*3 20.7 C 9.7 km/h
782 17-06-2014 17:05:00 20.8 C 10.5 g/m*3 20.8 C 9.7 km/h
783 17-06-2014 17:10:00 20.8 C 10.5 g/m*3 20.8 C 6.4 km/h
784 17-06-2014 17:15:00 20.9 C 10.56 g/m*3 20.9 C 8.1 km/h
785 17-06-2014 17:20:00 21.1 C 10.69 g/m*3 21.1 C 8.1 km/h
786 17-06-2014 17:25:00 21.7 C 10.49 g/m*3 21.7 C 11.3 km/h
787 17-06-2014 17:30:00 21.9 C 10.23 g/m*3 21.9 C 11.3 km/h
788 17-06-2014 17:35:00 22.1 C 10.74 g/m*3 22.1 C 11.3 km/h
789 17-06-2014 17:40:00 22.3 C 10.86 g/m*3 22.3 C 11.3 km/h
790 17-06-2014 17:45:00 22.4 C 10.33 g/m*3 22.4 C 9.7 km/h
791 17-06-2014 17:50:00 22.3 C 10.27 g/m*3 22.3 C 14.5 km/h
792 17-06-2014 17:55:00 22 C 10.29 g/m*3 22 C 9.7 km/h
793 17-06-2014 18:00:00 21.9 C 10.03 g/m*3 21.9 C 12.9 km/h
794 17-06-2014 18:05:00 21.9 C 10.23 g/m*3 21.9 C 16.1 km/h
795 17-06-2014 18:10:00 21.8 C 10.17 g/m*3 21.8 C 9.7 km/h
796 17-06-2014 18:15:00 22.1 C 10.35 g/m*3 22.1 C 11.3 km/h
797 17-06-2014 18:20:00 22.4 C 10.13 g/m*3 22.4 C 14.5 km/h
798 17-06-2014 18:25:00 22.2 C 10.01 g/m*3 22.2 C 12.9 km/h
799 17-06-2014 18:30:00 21.8 C 10.17 g/m*3 21.8 C 8.1 km/h
800 17-06-2014 18:35:00 21.9 C 10.23 g/m*3 21.9 C 9.7 km/h
Sensor: Nr:Datum:Temp:Abs-Feuchte:Windchill:Wind:
Aussen-T/F 801 17-06-2014 18:40:00 22 C 10.29 g/m*3 22 C 11.3 km/h
802 17-06-2014 18:45:00 21.8 C 9.98 g/m*3 21.8 C 12.9 km/h
803 17-06-2014 18:50:00 21.7 C 9.73 g/m*3 21.7 C 9.7 km/h
804 17-06-2014 18:55:00 21.8 C 9.78 g/m*3 21.8 C 12.9 km/h
805 17-06-2014 19:00:00 21.7 C 9.73 g/m*3 21.7 C 17.7 km/h
806 17-06-2014 19:05:00 21.3 C 9.69 g/m*3 21.3 C 12.9 km/h
807 17-06-2014 19:10:00 21.1 C 9.58 g/m*3 21.1 C 12.9 km/h
808 17-06-2014 19:15:00 20.9 C 9.47 g/m*3 20.9 C 12.9 km/h
809 17-06-2014 19:20:00 20.8 C 9.42 g/m*3 20.8 C 9.7 km/h
810 17-06-2014 19:25:00 20.7 C 9.18 g/m*3 20.7 C 9.7 km/h
811 17-06-2014 19:30:00 20.6 C 9.13 g/m*3 20.6 C 12.9 km/h
812 17-06-2014 19:35:00 20.5 C 9.07 g/m*3 20.5 C 9.7 km/h
813 17-06-2014 19:40:00 20.4 C 9.2 g/m*3 20.4 C 9.7 km/h
814 17-06-2014 19:45:00 20.3 C 9.15 g/m*3 20.3 C 9.7 km/h
815 17-06-2014 19:50:00 20.3 C 8.97 g/m*3 20.3 C 11.3 km/h
816 17-06-2014 19:55:00 20.2 C 9.09 g/m*3 20.2 C 11.3 km/h
817 17-06-2014 20:00:00 20.2 C 9.09 g/m*3 20.2 C 9.7 km/h
818 17-06-2014 20:05:00 20.2 C 9.09 g/m*3 20.2 C 11.3 km/h
819 17-06-2014 20:10:00 20.2 C 8.92 g/m*3 20.2 C 6.4 km/h
820 17-06-2014 20:15:00 20.1 C 9.04 g/m*3 20.1 C 6.4 km/h
821 17-06-2014 20:20:00 20.1 C 9.21 g/m*3 20.1 C 4.8 km/h
822 17-06-2014 20:25:00 20 C 9.16 g/m*3 20 C 8.1 km/h
823 17-06-2014 20:30:00 19.9 C 9.28 g/m*3 19.9 C 6.4 km/h
824 17-06-2014 20:35:00 19.9 C 9.28 g/m*3 19.9 C 6.4 km/h
825 17-06-2014 20:40:00 19.8 C 9.22 g/m*3 19.8 C 4.8 km/h
Sensor: Nr:Datum:Temp:Abs-Feuchte:Windchill:Wind:
Aussen-T/F 826 17-06-2014 20:45:00 19.8 C 9.22 g/m*3 19.8 C 8.1 km/h
827 17-06-2014 20:50:00 19.6 C 9.12 g/m*3 19.6 C 8.1 km/h
828 17-06-2014 20:55:00 19.4 C 9.18 g/m*3 19.4 C 6.4 km/h
829 17-06-2014 21:00:00 19.2 C 9.23 g/m*3 19.2 C 1.6 km/h
830 17-06-2014 21:05:00 18.9 C 9.4 g/m*3 18.9 C 1.6 km/h
831 17-06-2014 21:10:00 18.4 C 9.59 g/m*3 18.4 C 0 km/h
832 17-06-2014 21:15:00 17.9 C 9.62 g/m*3 17.9 C 1.6 km/h
833 17-06-2014 21:20:00 17.5 C 9.54 g/m*3 17.5 C 0 km/h
834 17-06-2014 21:25:00 17.2 C 9.67 g/m*3 17.2 C 0 km/h
835 17-06-2014 21:30:00 16.9 C 9.64 g/m*3 16.9 C 0 km/h
836 17-06-2014 21:35:00 16.7 C 9.66 g/m*3 16.7 C 0 km/h
837 17-06-2014 21:40:00 16.4 C 9.49 g/m*3 16.4 C 0 km/h
838 17-06-2014 21:45:00 16.3 C 9.57 g/m*3 16.3 C 1.6 km/h
839 17-06-2014 21:50:00 16.2 C 9.52 g/m*3 16.2 C 1.6 km/h
840 17-06-2014 21:55:00 16.1 C 9.6 g/m*3 16.1 C 1.6 km/h
841 17-06-2014 22:00:00 16.1 C 9.73 g/m*3 16.1 C 0 km/h
842 17-06-2014 22:05:00 15.9 C 9.75 g/m*3 15.9 C 1.6 km/h
843 17-06-2014 22:10:00 15.9 C 9.75 g/m*3 15.9 C 1.6 km/h
844 17-06-2014 22:15:00 15.8 C 9.83 g/m*3 15.8 C 0 km/h
845 17-06-2014 22:20:00 15.8 C 9.83 g/m*3 15.8 C 0 km/h
846 17-06-2014 22:25:00 15.7 C 10.03 g/m*3 15.7 C 0 km/h
847 17-06-2014 22:30:00 15.6 C 10.11 g/m*3 15.6 C 0 km/h
848 17-06-2014 22:35:00 15.6 C 10.11 g/m*3 15.6 C 0 km/h
849 17-06-2014 22:40:00 15.7 C 10.3 g/m*3 15.7 C 0 km/h
850 17-06-2014 22:45:00 15.7 C 10.3 g/m*3 15.7 C 0 km/h
Sensor: Nr:Datum:Temp:Abs-Feuchte:Windchill:Wind:
Aussen-T/F 851 17-06-2014 22:50:00 15.8 C 10.36 g/m*3 15.8 C 0 km/h
852 17-06-2014 22:55:00 15.8 C 10.36 g/m*3 15.8 C 0 km/h
853 17-06-2014 23:00:00 15.8 C 10.5 g/m*3 15.8 C 0 km/h
854 17-06-2014 23:05:00 15.7 C 10.44 g/m*3 15.7 C 0 km/h
855 17-06-2014 23:10:00 15.6 C 10.37 g/m*3 15.6 C 0 km/h
856 17-06-2014 23:15:00 15.6 C 10.51 g/m*3 15.6 C 0 km/h
857 17-06-2014 23:20:00 15.4 C 10.38 g/m*3 15.4 C 0 km/h
858 17-06-2014 23:25:00 15.4 C 10.51 g/m*3 15.4 C 1.6 km/h
859 17-06-2014 23:30:00 15.3 C 10.45 g/m*3 15.3 C 0 km/h
860 17-06-2014 23:35:00 15.3 C 10.58 g/m*3 15.3 C 0 km/h
861 17-06-2014 23:40:00 15.2 C 10.51 g/m*3 15.2 C 0 km/h
862 17-06-2014 23:45:00 15.1 C 10.58 g/m*3 15.1 C 0 km/h
863 17-06-2014 23:50:00 15.1 C 10.58 g/m*3 15.1 C 0 km/h
864 17-06-2014 23:55:00 15 C 10.51 g/m*3 15 C 1.6 km/h
865 18-06-2014 00:00:00 14.9 C 10.58 g/m*3 14.9 C 0 km/h
866 18-06-2014 00:05:00 14.9 C 10.58 g/m*3 14.9 C 0 km/h
867 18-06-2014 00:10:00 14.8 C 10.51 g/m*3 14.8 C 0 km/h
868 18-06-2014 00:15:00 14.7 C 10.45 g/m*3 14.7 C 0 km/h
869 18-06-2014 00:20:00 14.6 C 10.51 g/m*3 14.6 C 0 km/h
870 18-06-2014 00:25:00 14.6 C 10.51 g/m*3 14.6 C 0 km/h
871 18-06-2014 00:30:00 14.4 C 10.38 g/m*3 14.4 C 0 km/h
872 18-06-2014 00:35:00 14.3 C 10.44 g/m*3 14.3 C 0 km/h
873 18-06-2014 00:40:00 14.3 C 10.44 g/m*3 14.3 C 0 km/h
874 18-06-2014 00:45:00 14.2 C 10.38 g/m*3 14.2 C 0 km/h
875 18-06-2014 00:50:00 14.1 C 10.44 g/m*3 14.1 C 0 km/h
Sensor: Nr:Datum:Temp:Abs-Feuchte:Windchill:Wind:
Aussen-T/F 876 18-06-2014 00:55:00 14.1 C 10.44 g/m*3 14.1 C 0 km/h
877 18-06-2014 01:00:00 14 C 10.37 g/m*3 14 C 0 km/h
878 18-06-2014 01:05:00 13.9 C 10.19 g/m*3 13.9 C 0 km/h
879 18-06-2014 01:10:00 13.8 C 10.25 g/m*3 13.8 C 0 km/h
880 18-06-2014 01:15:00 13.7 C 10.18 g/m*3 13.7 C 0 km/h
881 18-06-2014 01:20:00 13.6 C 10.12 g/m*3 13.6 C 0 km/h
882 18-06-2014 01:25:00 13.5 C 10.18 g/m*3 13.5 C 0 km/h
883 18-06-2014 01:30:00 13.5 C 10.18 g/m*3 13.5 C 0 km/h
884 18-06-2014 01:35:00 13.5 C 10.06 g/m*3 13.5 C 0 km/h
885 18-06-2014 01:40:00 13.5 C 10.18 g/m*3 13.5 C 0 km/h
886 18-06-2014 01:45:00 13.4 C 10.11 g/m*3 13.4 C 0 km/h
887 18-06-2014 01:50:00 13.3 C 10.05 g/m*3 13.3 C 0 km/h
888 18-06-2014 01:55:00 13.2 C 9.99 g/m*3 13.2 C 0 km/h
889 18-06-2014 02:00:00 13.1 C 10.04 g/m*3 13.1 C 0 km/h
890 18-06-2014 02:05:00 13.1 C 10.04 g/m*3 13.1 C 0 km/h
891 18-06-2014 02:10:00 13.1 C 10.04 g/m*3 13.1 C 0 km/h
892 18-06-2014 02:15:00 13.1 C 10.16 g/m*3 13.1 C 0 km/h
893 18-06-2014 02:20:00 13.1 C 10.04 g/m*3 13.1 C 0 km/h
894 18-06-2014 02:25:00 13 C 9.98 g/m*3 13 C 0 km/h
895 18-06-2014 02:30:00 12.9 C 10.03 g/m*3 12.9 C 0 km/h
896 18-06-2014 02:35:00 12.8 C 9.97 g/m*3 12.8 C 0 km/h
897 18-06-2014 02:40:00 12.7 C 9.91 g/m*3 12.7 C 0 km/h
898 18-06-2014 02:45:00 12.7 C 10.02 g/m*3 12.7 C 0 km/h
899 18-06-2014 02:50:00 12.6 C 9.96 g/m*3 12.6 C 0 km/h
900 18-06-2014 02:55:00 12.6 C 9.96 g/m*3 12.6 C 0 km/h
Sensor: Nr:Datum:Temp:Abs-Feuchte:Windchill:Wind:
Aussen-T/F 901 18-06-2014 03:00:00 12.5 C 9.89 g/m*3 12.5 C 0 km/h
902 18-06-2014 03:05:00 12.4 C 9.94 g/m*3 12.4 C 0 km/h
903 18-06-2014 03:10:00 12.4 C 9.94 g/m*3 12.4 C 0 km/h
904 18-06-2014 03:15:00 12.3 C 9.88 g/m*3 12.3 C 0 km/h
905 18-06-2014 03:20:00 12.3 C 9.99 g/m*3 12.3 C 0 km/h
906 18-06-2014 03:25:00 12.3 C 9.99 g/m*3 12.3 C 0 km/h
907 18-06-2014 03:30:00 12.3 C 9.99 g/m*3 12.3 C 0 km/h
908 18-06-2014 03:35:00 12.3 C 10.1 g/m*3 12.3 C 0 km/h
909 18-06-2014 03:40:00 12.3 C 9.99 g/m*3 12.3 C 0 km/h
910 18-06-2014 03:45:00 12.3 C 9.99 g/m*3 12.3 C 0 km/h
911 18-06-2014 03:50:00 12.3 C 9.99 g/m*3 12.3 C 0 km/h
912 18-06-2014 03:55:00 12.2 C 9.93 g/m*3 12.2 C 0 km/h
913 18-06-2014 04:00:00 12.2 C 10.04 g/m*3 12.2 C 0 km/h
914 18-06-2014 04:05:00 12.1 C 9.97 g/m*3 12.1 C 0 km/h
915 18-06-2014 04:10:00 12.1 C 9.97 g/m*3 12.1 C 0 km/h
916 18-06-2014 04:15:00 12 C 9.91 g/m*3 12 C 0 km/h
917 18-06-2014 04:20:00 11.9 C 9.85 g/m*3 11.9 C 0 km/h
918 18-06-2014 04:25:00 11.9 C 9.85 g/m*3 11.9 C 0 km/h
919 18-06-2014 04:30:00 11.9 C 9.85 g/m*3 11.9 C 0 km/h
920 18-06-2014 04:35:00 11.8 C 9.79 g/m*3 11.8 C 0 km/h
921 18-06-2014 04:40:00 11.8 C 9.89 g/m*3 11.8 C 0 km/h
922 18-06-2014 04:45:00 11.8 C 9.89 g/m*3 11.8 C 0 km/h
923 18-06-2014 04:50:00 11.8 C 9.89 g/m*3 11.8 C 0 km/h
924 18-06-2014 04:55:00 11.8 C 9.89 g/m*3 11.8 C 0 km/h
925 18-06-2014 05:00:00 11.8 C 9.89 g/m*3 11.8 C 0 km/h
Sensor: Nr:Datum:Temp:Abs-Feuchte:Windchill:Wind:
Aussen-T/F 926 18-06-2014 05:05:00 11.8 C 9.89 g/m*3 11.8 C 0 km/h
927 18-06-2014 05:10:00 11.9 C 9.96 g/m*3 11.9 C 0 km/h
928 18-06-2014 05:15:00 11.9 C 10.06 g/m*3 11.9 C 0 km/h
929 18-06-2014 05:20:00 12 C 10.12 g/m*3 12 C 0 km/h
930 18-06-2014 05:25:00 12.1 C 10.19 g/m*3 12.1 C 1.6 km/h
931 18-06-2014 05:30:00 12.2 C 10.25 g/m*3 12.2 C 0 km/h
932 18-06-2014 05:35:00 12.2 C 10.25 g/m*3 12.2 C 0 km/h
933 18-06-2014 05:40:00 12.2 C 10.25 g/m*3 12.2 C 0 km/h
934 18-06-2014 05:45:00 12.3 C 10.32 g/m*3 12.3 C 0 km/h
935 18-06-2014 05:50:00 12.3 C 10.32 g/m*3 12.3 C 0 km/h
936 18-06-2014 05:55:00 12.4 C 10.38 g/m*3 12.4 C 0 km/h
937 18-06-2014 06:00:00 12.4 C 10.38 g/m*3 12.4 C 0 km/h
938 18-06-2014 06:05:00 12.4 C 10.38 g/m*3 12.4 C 0 km/h
939 18-06-2014 06:10:00 12.7 C 10.58 g/m*3 12.7 C 0 km/h
940 18-06-2014 06:15:00 12.9 C 10.71 g/m*3 12.9 C 1.6 km/h
941 18-06-2014 06:20:00 13.1 C 10.84 g/m*3 13.1 C 1.6 km/h
942 18-06-2014 06:25:00 13.3 C 10.98 g/m*3 13.3 C 1.6 km/h
943 18-06-2014 06:30:00 13.5 C 10.99 g/m*3 13.5 C 0 km/h
944 18-06-2014 06:35:00 13.7 C 11.13 g/m*3 13.7 C 1.6 km/h
945 18-06-2014 06:40:00 13.8 C 11.08 g/m*3 13.8 C 1.6 km/h
946 18-06-2014 06:45:00 13.9 C 11.15 g/m*3 13.9 C 1.6 km/h
947 18-06-2014 06:50:00 14.1 C 11.17 g/m*3 14.1 C 3.2 km/h
948 18-06-2014 06:55:00 14.2 C 11.23 g/m*3 14.2 C 1.6 km/h
949 18-06-2014 07:00:00 14.2 C 11.11 g/m*3 14.2 C 1.6 km/h
950 18-06-2014 07:05:00 14.2 C 11.11 g/m*3 14.2 C 1.6 km/h
Sensor: Nr:Datum:Temp:Abs-Feuchte:Windchill:Wind:
Aussen-T/F 951 18-06-2014 07:10:00 14.2 C 10.99 g/m*3 14.2 C 4.8 km/h
952 18-06-2014 07:15:00 14.3 C 11.06 g/m*3 14.3 C 6.4 km/h
953 18-06-2014 07:20:00 14.3 C 11.18 g/m*3 14.3 C 0 km/h
954 18-06-2014 07:25:00 14.4 C 11.13 g/m*3 14.4 C 0 km/h
955 18-06-2014 07:30:00 14.5 C 11.19 g/m*3 14.5 C 3.2 km/h
956 18-06-2014 07:35:00 14.6 C 11.26 g/m*3 14.6 C 1.6 km/h
957 18-06-2014 07:40:00 14.6 C 11.14 g/m*3 14.6 C 1.6 km/h
958 18-06-2014 07:45:00 14.7 C 11.21 g/m*3 14.7 C 1.6 km/h
959 18-06-2014 07:50:00 14.8 C 11.27 g/m*3 14.8 C 8.1 km/h
960 18-06-2014 07:55:00 14.9 C 11.34 g/m*3 14.9 C 4.8 km/h
961 18-06-2014 08:00:00 14.9 C 11.22 g/m*3 14.9 C 4.8 km/h
962 18-06-2014 08:05:00 15 C 11.16 g/m*3 15 C 4.8 km/h
963 18-06-2014 08:10:00 15 C 11.16 g/m*3 15 C 9.7 km/h
964 18-06-2014 08:15:00 15 C 11.16 g/m*3 15 C 9.7 km/h
965 18-06-2014 08:20:00 15.1 C 11.22 g/m*3 15.1 C 6.4 km/h
966 18-06-2014 08:25:00 15.1 C 11.09 g/m*3 15.1 C 8.1 km/h
967 18-06-2014 08:30:00 15.1 C 11.22 g/m*3 15.1 C 6.4 km/h
968 18-06-2014 08:35:00 15.1 C 11.09 g/m*3 15.1 C 6.4 km/h
969 18-06-2014 08:40:00 15.2 C 11.16 g/m*3 15.2 C 3.2 km/h
970 18-06-2014 08:45:00 15.4 C 11.3 g/m*3 15.4 C 8.1 km/h
971 18-06-2014 08:50:00 15.6 C 11.3 g/m*3 15.6 C 6.4 km/h
972 18-06-2014 08:55:00 15.6 C 11.17 g/m*3 15.6 C 9.7 km/h
973 18-06-2014 09:00:00 15.6 C 11.3 g/m*3 15.6 C 8.1 km/h
974 18-06-2014 09:05:00 15.7 C 11.37 g/m*3 15.7 C 8.1 km/h
975 18-06-2014 09:10:00 15.8 C 11.31 g/m*3 15.8 C 11.3 km/h
Sensor: Nr:Datum:Temp:Abs-Feuchte:Windchill:Wind:
Aussen-T/F 976 18-06-2014 09:15:00 15.8 C 11.17 g/m*3 15.8 C 11.3 km/h
977 18-06-2014 09:20:00 15.7 C 11.11 g/m*3 15.7 C 8.1 km/h
978 18-06-2014 09:25:00 15.8 C 11.17 g/m*3 15.8 C 9.7 km/h
979 18-06-2014 09:30:00 15.9 C 11.24 g/m*3 15.9 C 8.1 km/h
980 18-06-2014 09:35:00 15.9 C 11.1 g/m*3 15.9 C 9.7 km/h
981 18-06-2014 09:40:00 15.9 C 11.1 g/m*3 15.9 C 8.1 km/h
982 18-06-2014 09:45:00 15.9 C 11.1 g/m*3 15.9 C 8.1 km/h
983 18-06-2014 09:50:00 15.9 C 11.1 g/m*3 15.9 C 8.1 km/h
984 18-06-2014 09:55:00 16.1 C 11.24 g/m*3 16.1 C 11.3 km/h
985 18-06-2014 10:00:00 16.2 C 11.31 g/m*3 16.2 C 8.1 km/h
986 18-06-2014 10:05:00 16.2 C 11.31 g/m*3 16.2 C 6.4 km/h
987 18-06-2014 10:10:00 16.2 C 11.17 g/m*3 16.2 C 6.4 km/h
988 18-06-2014 10:15:00 16.2 C 11.17 g/m*3 16.2 C 8.1 km/h
989 18-06-2014 10:20:00 16.2 C 11.31 g/m*3 16.2 C 8.1 km/h
990 18-06-2014 10:25:00 16.3 C 11.24 g/m*3 16.3 C 4.8 km/h
991 18-06-2014 10:30:00 16.5 C 11.37 g/m*3 16.5 C 6.4 km/h
992 18-06-2014 10:35:00 16.6 C 11.3 g/m*3 16.6 C 6.4 km/h
993 18-06-2014 10:40:00 16.7 C 11.37 g/m*3 16.7 C 9.7 km/h
994 18-06-2014 10:45:00 16.8 C 11.44 g/m*3 16.8 C 8.1 km/h
995 18-06-2014 10:50:00 16.8 C 11.44 g/m*3 16.8 C 4.8 km/h
996 18-06-2014 10:55:00 16.9 C 11.36 g/m*3 16.9 C 9.7 km/h
997 18-06-2014 11:00:00 17 C 11.43 g/m*3 17 C 6.4 km/h
998 18-06-2014 11:05:00 17.1 C 11.35 g/m*3 17.1 C 11.3 km/h
999 18-06-2014 11:10:00 17.2 C 11.42 g/m*3 17.2 C 8.1 km/h
1000 18-06-2014 11:15:00 17.3 C 11.34 g/m*3 17.3 C 11.3 km/h
Sensor: Nr:Datum:Temp:Abs-Feuchte:Windchill:Wind:
Aussen-T/F 1001 18-06-2014 11:20:00 17.3 C 11.34 g/m*3 17.3 C 8.1 km/h
1002 18-06-2014 11:25:00 17.3 C 11.34 g/m*3 17.3 C 4.8 km/h
1003 18-06-2014 11:30:00 17.4 C 11.41 g/m*3 17.4 C 8.1 km/h
1004 18-06-2014 11:35:00 17.7 C 11.47 g/m*3 17.7 C 14.5 km/h
1005 18-06-2014 11:40:00 17.8 C 11.54 g/m*3 17.8 C 12.9 km/h
1006 18-06-2014 11:45:00 17.9 C 11.6 g/m*3 17.9 C 8.1 km/h
1007 18-06-2014 11:50:00 18.1 C 11.59 g/m*3 18.1 C 8.1 km/h
1008 18-06-2014 11:55:00 18.2 C 11.81 g/m*3 18.2 C 4.8 km/h
1009 18-06-2014 12:00:00 18.3 C 11.73 g/m*3 18.3 C 9.7 km/h
1010 18-06-2014 12:05:00 18.4 C 11.64 g/m*3 18.4 C 8.1 km/h
1011 18-06-2014 12:10:00 18.6 C 11.78 g/m*3 18.6 C 8.1 km/h
1012 18-06-2014 12:15:00 18.8 C 11.76 g/m*3 18.8 C 6.4 km/h
1013 18-06-2014 12:20:00 19.2 C 12.04 g/m*3 19.2 C 9.7 km/h
1014 18-06-2014 12:25:00 19.3 C 11.61 g/m*3 19.3 C 9.7 km/h
1015 18-06-2014 12:30:00 19.4 C 11.51 g/m*3 19.4 C 9.7 km/h
1016 18-06-2014 12:35:00 19.5 C 11.75 g/m*3 19.5 C 9.7 km/h
1017 18-06-2014 12:40:00 19.7 C 12.06 g/m*3 19.7 C 17.7 km/h
1018 18-06-2014 12:45:00 19.9 C 11.85 g/m*3 19.9 C 17.7 km/h
1019 18-06-2014 12:50:00 19.8 C 11.61 g/m*3 19.8 C 16.1 km/h
1020 18-06-2014 12:55:00 19.9 C 12.2 g/m*3 19.9 C 8.1 km/h
1021 18-06-2014 13:00:00 20.3 C 11.96 g/m*3 20.3 C 9.7 km/h
1022 18-06-2014 13:05:00 20.6 C 11.99 g/m*3 20.6 C 6.4 km/h
1023 18-06-2014 13:10:00 20.7 C 11.88 g/m*3 20.7 C 8.1 km/h
1024 18-06-2014 13:15:00 20.8 C 11.59 g/m*3 20.8 C 8.1 km/h
1025 18-06-2014 13:20:00 21.1 C 11.98 g/m*3 21.1 C 8.1 km/h
Sensor: Nr:Datum:Temp:Abs-Feuchte:Windchill:Wind:
Aussen-T/F 1026 18-06-2014 13:25:00 21.3 C 11.93 g/m*3 21.3 C 9.7 km/h
1027 18-06-2014 13:30:00 21.6 C 11.76 g/m*3 21.6 C 11.3 km/h
1028 18-06-2014 13:35:00 21.4 C 11.81 g/m*3 21.4 C 8.1 km/h
1029 18-06-2014 13:40:00 21.4 C 12 g/m*3 21.4 C 12.9 km/h
1030 18-06-2014 13:45:00 21.8 C 11.7 g/m*3 21.8 C 8.1 km/h
1031 18-06-2014 13:50:00 22 C 12.03 g/m*3 22 C 9.7 km/h
1032 18-06-2014 13:55:00 22.5 C 11.98 g/m*3 22.5 C 9.7 km/h
1033 18-06-2014 14:00:00 22.9 C 12.06 g/m*3 22.9 C 11.3 km/h
1034 18-06-2014 14:05:00 23 C 11.3 g/m*3 23 C 8.1 km/h
1035 18-06-2014 14:10:00 22.7 C 11.31 g/m*3 22.7 C 11.3 km/h
1036 18-06-2014 14:15:00 22.6 C 11.85 g/m*3 22.6 C 8.1 km/h
1037 18-06-2014 14:20:00 23 C 11.72 g/m*3 23 C 11.3 km/h
1038 18-06-2014 14:25:00 23.3 C 11.5 g/m*3 23.3 C 11.3 km/h
1039 18-06-2014 14:30:00 23.6 C 11.91 g/m*3 23.6 C 9.7 km/h
1040 18-06-2014 14:35:00 23.7 C 10.91 g/m*3 23.7 C 6.4 km/h
1041 18-06-2014 14:40:00 23.7 C 10.91 g/m*3 23.7 C 12.9 km/h
1042 18-06-2014 14:45:00 24.1 C 11.6 g/m*3 24.1 C 9.7 km/h
1043 18-06-2014 14:50:00 24.2 C 10.56 g/m*3 24.2 C 9.7 km/h
1044 18-06-2014 14:55:00 23.8 C 10.54 g/m*3 23.8 C 11.3 km/h
1045 18-06-2014 15:00:00 23.7 C 10.69 g/m*3 23.7 C 12.9 km/h
1046 18-06-2014 15:05:00 24.1 C 10.94 g/m*3 24.1 C 9.7 km/h
1047 18-06-2014 15:10:00 24.3 C 9.96 g/m*3 24.3 C 9.7 km/h
1048 18-06-2014 15:15:00 24.3 C 10.4 g/m*3 24.3 C 8.1 km/h
1049 18-06-2014 15:20:00 24.3 C 9.74 g/m*3 24.3 C 14.5 km/h
1050 18-06-2014 15:25:00 24.5 C 9.85 g/m*3 24.5 C 20.9 km/h
Sensor: Nr:Datum:Temp:Abs-Feuchte:Windchill:Wind:
Aussen-T/F 1051 18-06-2014 15:30:00 24.6 C 10.35 g/m*3 24.6 C 17.7 km/h
1052 18-06-2014 15:35:00 24.8 C 9.79 g/m*3 24.8 C 11.3 km/h
1053 18-06-2014 15:40:00 24.5 C 9.4 g/m*3 24.5 C 11.3 km/h
1054 18-06-2014 15:45:00 24.3 C 9.52 g/m*3 24.3 C 12.9 km/h
1055 18-06-2014 15:50:00 24.4 C 9.57 g/m*3 24.4 C 12.9 km/h
1056 18-06-2014 15:55:00 24.8 C 10.24 g/m*3 24.8 C 12.9 km/h
1057 18-06-2014 16:00:00 25.1 C 9.95 g/m*3 25.1 C 17.7 km/h
1058 18-06-2014 16:05:00 24.7 C 9.51 g/m*3 24.7 C 14.5 km/h
1059 18-06-2014 16:10:00 24.1 C 9.63 g/m*3 24.1 C 8.1 km/h
1060 18-06-2014 16:15:00 23.6 C 9.36 g/m*3 23.6 C 9.7 km/h
1061 18-06-2014 16:20:00 23.3 C 9.41 g/m*3 23.3 C 11.3 km/h
1062 18-06-2014 16:25:00 23.4 C 9.04 g/m*3 23.4 C 14.5 km/h
1063 18-06-2014 16:30:00 23.7 C 9.2 g/m*3 23.7 C 11.3 km/h
1064 18-06-2014 16:35:00 23.7 C 9.41 g/m*3 23.7 C 8.1 km/h
1065 18-06-2014 16:40:00 23.4 C 9.25 g/m*3 23.4 C 9.7 km/h
1066 18-06-2014 16:45:00 23.2 C 9.36 g/m*3 23.2 C 11.3 km/h
1067 18-06-2014 16:50:00 23.2 C 9.36 g/m*3 23.2 C 11.3 km/h
1068 18-06-2014 16:55:00 23.2 C 9.15 g/m*3 23.2 C 8.1 km/h
1069 18-06-2014 17:00:00 23.6 C 9.36 g/m*3 23.6 C 9.7 km/h
1070 18-06-2014 17:05:00 24 C 9.36 g/m*3 24 C 9.7 km/h
1071 18-06-2014 17:10:00 24.3 C 9.07 g/m*3 24.3 C 11.3 km/h
1072 18-06-2014 17:15:00 24.3 C 9.52 g/m*3 24.3 C 11.3 km/h
1073 18-06-2014 17:20:00 24.6 C 9 g/m*3 24.6 C 9.7 km/h
1074 18-06-2014 17:25:00 25.1 C 9.26 g/m*3 25.1 C 11.3 km/h
1075 18-06-2014 17:30:00 25.3 C 8.66 g/m*3 25.3 C 9.7 km/h
Sensor: Nr:Datum:Temp:Abs-Feuchte:Windchill:Wind:
Aussen-T/F 1076 18-06-2014 17:35:00 25.4 C 8.71 g/m*3 25.4 C 14.5 km/h
1077 18-06-2014 17:40:00 25.4 C 8.71 g/m*3 25.4 C 11.3 km/h
1078 18-06-2014 17:45:00 25.3 C 8.66 g/m*3 25.3 C 12.9 km/h
1079 18-06-2014 17:50:00 24.9 C 8.93 g/m*3 24.9 C 11.3 km/h
1080 18-06-2014 17:55:00 25 C 8.29 g/m*3 25 C 11.3 km/h
1081 18-06-2014 18:00:00 24.7 C 8.6 g/m*3 24.7 C 8.1 km/h
1082 18-06-2014 18:05:00 24.6 C 8.78 g/m*3 24.6 C 12.9 km/h
1083 18-06-2014 18:10:00 24.7 C 8.83 g/m*3 24.7 C 16.1 km/h
1084 18-06-2014 18:15:00 24.7 C 8.83 g/m*3 24.7 C 11.3 km/h
1085 18-06-2014 18:20:00 24.6 C 9.23 g/m*3 24.6 C 11.3 km/h
1086 18-06-2014 18:25:00 24.7 C 9.28 g/m*3 24.7 C 9.7 km/h
1087 18-06-2014 18:30:00 24.7 C 9.05 g/m*3 24.7 C 11.3 km/h
1088 18-06-2014 18:35:00 24.7 C 9.51 g/m*3 24.7 C 14.5 km/h
1089 18-06-2014 18:40:00 24.2 C 9.24 g/m*3 24.2 C 12.9 km/h
1090 18-06-2014 18:45:00 23.8 C 9.25 g/m*3 23.8 C 14.5 km/h
1091 18-06-2014 18:50:00 23.5 C 9.52 g/m*3 23.5 C 12.9 km/h
1092 18-06-2014 18:55:00 23.6 C 9.57 g/m*3 23.6 C 9.7 km/h
1093 18-06-2014 19:00:00 23.7 C 9.41 g/m*3 23.7 C 12.9 km/h
1094 18-06-2014 19:05:00 23.7 C 9.41 g/m*3 23.7 C 11.3 km/h
1095 18-06-2014 19:10:00 23.8 C 9.46 g/m*3 23.8 C 9.7 km/h
1096 18-06-2014 19:15:00 23.6 C 9.36 g/m*3 23.6 C 9.7 km/h
1097 18-06-2014 19:20:00 23.3 C 9.41 g/m*3 23.3 C 6.4 km/h
1098 18-06-2014 19:25:00 23.2 C 9.56 g/m*3 23.2 C 9.7 km/h
1099 18-06-2014 19:30:00 23 C 9.66 g/m*3 23 C 12.9 km/h
1100 18-06-2014 19:35:00 22.7 C 9.5 g/m*3 22.7 C 20.9 km/h
Sensor: Nr:Datum:Temp:Abs-Feuchte:Windchill:Wind:
Aussen-T/F 1101 18-06-2014 19:40:00 22.4 C 9.73 g/m*3 22.4 C 12.9 km/h
1102 18-06-2014 19:45:00 22.3 C 9.68 g/m*3 22.3 C 14.5 km/h
1103 18-06-2014 19:50:00 22.3 C 9.68 g/m*3 22.3 C 9.7 km/h
1104 18-06-2014 19:55:00 22.1 C 9.56 g/m*3 22.1 C 9.7 km/h
1105 18-06-2014 20:00:00 21.8 C 9.78 g/m*3 21.8 C 14.5 km/h
1106 18-06-2014 20:05:00 21.7 C 9.73 g/m*3 21.7 C 12.9 km/h
1107 18-06-2014 20:10:00 21.6 C 9.67 g/m*3 21.6 C 8.1 km/h
1108 18-06-2014 20:15:00 21.4 C 9.75 g/m*3 21.4 C 11.3 km/h
1109 18-06-2014 20:20:00 21.2 C 9.82 g/m*3 21.2 C 14.5 km/h
1110 18-06-2014 20:25:00 21.1 C 9.95 g/m*3 21.1 C 8.1 km/h
1111 18-06-2014 20:30:00 20.9 C 10.02 g/m*3 20.9 C 11.3 km/h
1112 18-06-2014 20:35:00 20.8 C 9.96 g/m*3 20.8 C 9.7 km/h
1113 18-06-2014 20:40:00 20.7 C 10.08 g/m*3 20.7 C 8.1 km/h
1114 18-06-2014 20:45:00 20.5 C 9.96 g/m*3 20.5 C 8.1 km/h
1115 18-06-2014 20:50:00 20.3 C 10.2 g/m*3 20.3 C 9.7 km/h
1116 18-06-2014 20:55:00 20.3 C 10.02 g/m*3 20.3 C 8.1 km/h
1117 18-06-2014 21:00:00 20.1 C 9.91 g/m*3 20.1 C 6.4 km/h
1118 18-06-2014 21:05:00 19.9 C 9.79 g/m*3 19.9 C 9.7 km/h
1119 18-06-2014 21:10:00 19.8 C 9.91 g/m*3 19.8 C 3.2 km/h
1120 18-06-2014 21:15:00 19.6 C 9.96 g/m*3 19.6 C 9.7 km/h
1121 18-06-2014 21:20:00 19.4 C 9.84 g/m*3 19.4 C 8.1 km/h
1122 18-06-2014 21:25:00 19.3 C 9.95 g/m*3 19.3 C 6.4 km/h
1123 18-06-2014 21:30:00 19.1 C 9.84 g/m*3 19.1 C 4.8 km/h
1124 18-06-2014 21:35:00 19.1 C 10 g/m*3 19.1 C 4.8 km/h
1125 18-06-2014 21:40:00 18.7 C 10.09 g/m*3 18.7 C 0 km/h
Sensor: Nr:Datum:Temp:Abs-Feuchte:Windchill:Wind:
Aussen-T/F 1126 18-06-2014 21:45:00 18.3 C 10.01 g/m*3 18.3 C 4.8 km/h
1127 18-06-2014 21:50:00 18.2 C 10.1 g/m*3 18.2 C 3.2 km/h
1128 18-06-2014 21:55:00 18.1 C 10.04 g/m*3 18.1 C 3.2 km/h
1129 18-06-2014 22:00:00 17.8 C 10.02 g/m*3 17.8 C 4.8 km/h
1130 18-06-2014 22:05:00 17.5 C 9.99 g/m*3 17.5 C 0 km/h
1131 18-06-2014 22:10:00 17.2 C 9.96 g/m*3 17.2 C 0 km/h
1132 18-06-2014 22:15:00 16.8 C 9.87 g/m*3 16.8 C 0 km/h
1133 18-06-2014 22:20:00 16.5 C 9.97 g/m*3 16.5 C 1.6 km/h
1134 18-06-2014 22:25:00 16.3 C 9.85 g/m*3 16.3 C 0 km/h
1135 18-06-2014 22:30:00 16.2 C 9.93 g/m*3 16.2 C 0 km/h
1136 18-06-2014 22:35:00 16.1 C 9.87 g/m*3 16.1 C 0 km/h
1137 18-06-2014 22:40:00 15.9 C 9.89 g/m*3 15.9 C 0 km/h
1138 18-06-2014 22:45:00 15.8 C 9.83 g/m*3 15.8 C 0 km/h
1139 18-06-2014 22:50:00 15.8 C 9.83 g/m*3 15.8 C 4.8 km/h
1140 18-06-2014 22:55:00 15.9 C 9.89 g/m*3 15.9 C 0 km/h
1141 18-06-2014 23:00:00 15.9 C 9.89 g/m*3 15.9 C 0 km/h
1142 18-06-2014 23:05:00 15.8 C 9.96 g/m*3 15.8 C 0 km/h
1143 18-06-2014 23:10:00 15.6 C 9.84 g/m*3 15.6 C 0 km/h
1144 18-06-2014 23:15:00 15.5 C 9.78 g/m*3 15.5 C 0 km/h
1145 18-06-2014 23:20:00 15.4 C 9.85 g/m*3 15.4 C 1.6 km/h
1146 18-06-2014 23:25:00 15.3 C 9.79 g/m*3 15.3 C 0 km/h
1147 18-06-2014 23:30:00 15.3 C 9.92 g/m*3 15.3 C 0 km/h
1148 18-06-2014 23:35:00 15.3 C 9.79 g/m*3 15.3 C 0 km/h
1149 18-06-2014 23:40:00 15.3 C 9.79 g/m*3 15.3 C 0 km/h
1150 18-06-2014 23:45:00 15.2 C 9.86 g/m*3 15.2 C 1.6 km/h
Sensor: Nr:Datum:Temp:Abs-Feuchte:Windchill:Wind:
Aussen-T/F 1151 18-06-2014 23:50:00 15.1 C 9.8 g/m*3 15.1 C 1.6 km/h
1152 18-06-2014 23:55:00 15.1 C 9.8 g/m*3 15.1 C 0 km/h
1153 19-06-2014 00:00:00 15 C 9.87 g/m*3 15 C 0 km/h
1154 19-06-2014 00:05:00 14.9 C 9.81 g/m*3 14.9 C 0 km/h
1155 19-06-2014 00:10:00 14.9 C 9.81 g/m*3 14.9 C 0 km/h
1156 19-06-2014 00:15:00 14.8 C 9.75 g/m*3 14.8 C 0 km/h
1157 19-06-2014 00:20:00 14.8 C 9.75 g/m*3 14.8 C 0 km/h
1158 19-06-2014 00:25:00 14.8 C 9.88 g/m*3 14.8 C 0 km/h
1159 19-06-2014 00:30:00 14.7 C 9.82 g/m*3 14.7 C 0 km/h
1160 19-06-2014 00:35:00 14.6 C 9.76 g/m*3 14.6 C 0 km/h
1161 19-06-2014 00:40:00 14.4 C 9.77 g/m*3 14.4 C 0 km/h
1162 19-06-2014 00:45:00 14.3 C 9.71 g/m*3 14.3 C 0 km/h
1163 19-06-2014 00:50:00 14.3 C 9.83 g/m*3 14.3 C 0 km/h
1164 19-06-2014 00:55:00 14.2 C 9.77 g/m*3 14.2 C 0 km/h
1165 19-06-2014 01:00:00 14 C 9.77 g/m*3 14 C 0 km/h
1166 19-06-2014 01:05:00 13.9 C 9.83 g/m*3 13.9 C 0 km/h
1167 19-06-2014 01:10:00 13.9 C 9.83 g/m*3 13.9 C 0 km/h
1168 19-06-2014 01:15:00 13.8 C 9.77 g/m*3 13.8 C 0 km/h
1169 19-06-2014 01:20:00 13.7 C 9.71 g/m*3 13.7 C 0 km/h
1170 19-06-2014 01:25:00 13.7 C 9.83 g/m*3 13.7 C 0 km/h
1171 19-06-2014 01:30:00 13.6 C 9.77 g/m*3 13.6 C 0 km/h
1172 19-06-2014 01:35:00 13.6 C 9.77 g/m*3 13.6 C 0 km/h
1173 19-06-2014 01:40:00 13.4 C 9.65 g/m*3 13.4 C 0 km/h
1174 19-06-2014 01:45:00 13.4 C 9.76 g/m*3 13.4 C 0 km/h
1175 19-06-2014 01:50:00 13.3 C 9.7 g/m*3 13.3 C 0 km/h
Sensor: Nr:Datum:Temp:Abs-Feuchte:Windchill:Wind:
Aussen-T/F 1176 19-06-2014 01:55:00 13.2 C 9.64 g/m*3 13.2 C 0 km/h
1177 19-06-2014 02:00:00 13.1 C 9.7 g/m*3 13.1 C 0 km/h
1178 19-06-2014 02:05:00 12.9 C 9.58 g/m*3 12.9 C 0 km/h
1179 19-06-2014 02:10:00 12.8 C 9.63 g/m*3 12.8 C 0 km/h
1180 19-06-2014 02:15:00 12.7 C 9.57 g/m*3 12.7 C 0 km/h
1181 19-06-2014 02:20:00 12.6 C 9.62 g/m*3 12.6 C 0 km/h
1182 19-06-2014 02:25:00 12.6 C 9.62 g/m*3 12.6 C 0 km/h
1183 19-06-2014 02:30:00 12.5 C 9.57 g/m*3 12.5 C 0 km/h
1184 19-06-2014 02:35:00 12.4 C 9.62 g/m*3 12.4 C 1.6 km/h
1185 19-06-2014 02:40:00 12.3 C 9.56 g/m*3 12.3 C 0 km/h
1186 19-06-2014 02:45:00 12.2 C 9.5 g/m*3 12.2 C 0 km/h
1187 19-06-2014 02:50:00 12.1 C 9.54 g/m*3 12.1 C 0 km/h
1188 19-06-2014 02:55:00 12.1 C 9.54 g/m*3 12.1 C 0 km/h
1189 19-06-2014 03:00:00 11.9 C 9.43 g/m*3 11.9 C 0 km/h
1190 19-06-2014 03:05:00 11.9 C 9.43 g/m*3 11.9 C 0 km/h
1191 19-06-2014 03:10:00 11.8 C 9.37 g/m*3 11.8 C 0 km/h
1192 19-06-2014 03:15:00 11.8 C 9.47 g/m*3 11.8 C 0 km/h
1193 19-06-2014 03:20:00 11.7 C 9.41 g/m*3 11.7 C 0 km/h
1194 19-06-2014 03:25:00 11.6 C 9.35 g/m*3 11.6 C 0 km/h
1195 19-06-2014 03:30:00 11.6 C 9.46 g/m*3 11.6 C 0 km/h
1196 19-06-2014 03:35:00 11.5 C 9.4 g/m*3 11.5 C 0 km/h
1197 19-06-2014 03:40:00 11.5 C 9.4 g/m*3 11.5 C 0 km/h
1198 19-06-2014 03:45:00 11.4 C 9.34 g/m*3 11.4 C 0 km/h
1199 19-06-2014 03:50:00 11.4 C 9.34 g/m*3 11.4 C 0 km/h
1200 19-06-2014 03:55:00 11.3 C 9.28 g/m*3 11.3 C 0 km/h
Sensor: Nr:Datum:Temp:Abs-Feuchte:Windchill:Wind:
Aussen-T/F 1201 19-06-2014 04:00:00 11.3 C 9.28 g/m*3 11.3 C 0 km/h
1202 19-06-2014 04:05:00 11.3 C 9.38 g/m*3 11.3 C 0 km/h
1203 19-06-2014 04:10:00 11.2 C 9.33 g/m*3 11.2 C 0 km/h
1204 19-06-2014 04:15:00 11.2 C 9.33 g/m*3 11.2 C 0 km/h
1205 19-06-2014 04:20:00 11.2 C 9.33 g/m*3 11.2 C 0 km/h
1206 19-06-2014 04:25:00 11.2 C 9.33 g/m*3 11.2 C 0 km/h
1207 19-06-2014 04:30:00 11.1 C 9.27 g/m*3 11.1 C 0 km/h
1208 19-06-2014 04:35:00 11.1 C 9.27 g/m*3 11.1 C 0 km/h
1209 19-06-2014 04:40:00 11.1 C 9.37 g/m*3 11.1 C 0 km/h
1210 19-06-2014 04:45:00 11.1 C 9.37 g/m*3 11.1 C 0 km/h
1211 19-06-2014 04:50:00 11.1 C 9.37 g/m*3 11.1 C 0 km/h
1212 19-06-2014 04:55:00 11.2 C 9.43 g/m*3 11.2 C 0 km/h
1213 19-06-2014 05:00:00 11.3 C 9.59 g/m*3 11.3 C 0 km/h
1214 19-06-2014 05:05:00 11.4 C 9.55 g/m*3 11.4 C 1.6 km/h
1215 19-06-2014 05:10:00 11.4 C 9.55 g/m*3 11.4 C 3.2 km/h
1216 19-06-2014 05:15:00 11.6 C 9.67 g/m*3 11.6 C 3.2 km/h
1217 19-06-2014 05:20:00 11.7 C 9.62 g/m*3 11.7 C 3.2 km/h
1218 19-06-2014 05:25:00 11.7 C 9.62 g/m*3 11.7 C 1.6 km/h
1219 19-06-2014 05:30:00 11.7 C 9.62 g/m*3 11.7 C 3.2 km/h
1220 19-06-2014 05:35:00 11.7 C 9.62 g/m*3 11.7 C 1.6 km/h
1221 19-06-2014 05:40:00 11.6 C 9.56 g/m*3 11.6 C 0 km/h
1222 19-06-2014 05:45:00 11.5 C 9.5 g/m*3 11.5 C 0 km/h
1223 19-06-2014 05:50:00 11.5 C 9.5 g/m*3 11.5 C 0 km/h
1224 19-06-2014 05:55:00 11.4 C 9.44 g/m*3 11.4 C 0 km/h
1225 19-06-2014 06:00:00 11.3 C 9.38 g/m*3 11.3 C 1.6 km/h
Sensor: Nr:Datum:Temp:Abs-Feuchte:Windchill:Wind:
Aussen-T/F 1226 19-06-2014 06:05:00 11.3 C 9.49 g/m*3 11.3 C 0 km/h
1227 19-06-2014 06:10:00 11.3 C 9.49 g/m*3 11.3 C 0 km/h
1228 19-06-2014 06:15:00 11.3 C 9.49 g/m*3 11.3 C 0 km/h
1229 19-06-2014 06:20:00 11.4 C 9.55 g/m*3 11.4 C 0 km/h
1230 19-06-2014 06:25:00 11.6 C 9.67 g/m*3 11.6 C 3.2 km/h
1231 19-06-2014 06:30:00 11.7 C 9.73 g/m*3 11.7 C 1.6 km/h
1232 19-06-2014 06:35:00 11.8 C 9.79 g/m*3 11.8 C 3.2 km/h
1233 19-06-2014 06:40:00 11.9 C 9.74 g/m*3 11.9 C 3.2 km/h
1234 19-06-2014 06:45:00 12.1 C 9.87 g/m*3 12.1 C 3.2 km/h
1235 19-06-2014 06:50:00 12.2 C 9.82 g/m*3 12.2 C 1.6 km/h
1236 19-06-2014 06:55:00 12.2 C 9.82 g/m*3 12.2 C 0 km/h
1237 19-06-2014 07:00:00 12.4 C 9.94 g/m*3 12.4 C 4.8 km/h
1238 19-06-2014 07:05:00 12.5 C 9.89 g/m*3 12.5 C 0 km/h
1239 19-06-2014 07:10:00 12.7 C 10.02 g/m*3 12.7 C 0 km/h
1240 19-06-2014 07:15:00 12.8 C 10.08 g/m*3 12.8 C 3.2 km/h
1241 19-06-2014 07:20:00 12.9 C 10.03 g/m*3 12.9 C 1.6 km/h
1242 19-06-2014 07:25:00 12.9 C 10.03 g/m*3 12.9 C 3.2 km/h
1243 19-06-2014 07:30:00 12.9 C 10.03 g/m*3 12.9 C 3.2 km/h
1244 19-06-2014 07:35:00 13 C 10.09 g/m*3 13 C 0 km/h
1245 19-06-2014 07:40:00 13.1 C 10.16 g/m*3 13.1 C 1.6 km/h
1246 19-06-2014 07:45:00 13.2 C 10.22 g/m*3 13.2 C 0 km/h
1247 19-06-2014 07:50:00 13.3 C 10.4 g/m*3 13.3 C 0 km/h
1248 19-06-2014 07:55:00 13.6 C 10.59 g/m*3 13.6 C 0 km/h
1249 19-06-2014 08:00:00 13.8 C 10.48 g/m*3 13.8 C 1.6 km/h
1250 19-06-2014 08:05:00 13.8 C 10.37 g/m*3 13.8 C 3.2 km/h
Sensor: Nr:Datum:Temp:Abs-Feuchte:Windchill:Wind:
Aussen-T/F 1251 19-06-2014 08:10:00 13.9 C 10.55 g/m*3 13.9 C 3.2 km/h
1252 19-06-2014 08:15:00 14.1 C 10.68 g/m*3 14.1 C 1.6 km/h
1253 19-06-2014 08:20:00 14.2 C 10.62 g/m*3 14.2 C 3.2 km/h
1254 19-06-2014 08:25:00 14.3 C 10.69 g/m*3 14.3 C 1.6 km/h
1255 19-06-2014 08:30:00 14.4 C 10.63 g/m*3 14.4 C 6.4 km/h
1256 19-06-2014 08:35:00 14.5 C 10.7 g/m*3 14.5 C 4.8 km/h
1257 19-06-2014 08:40:00 14.6 C 10.76 g/m*3 14.6 C 1.6 km/h
1258 19-06-2014 08:45:00 14.6 C 10.64 g/m*3 14.6 C 3.2 km/h
1259 19-06-2014 08:50:00 14.6 C 10.64 g/m*3 14.6 C 1.6 km/h
1260 19-06-2014 08:55:00 14.6 C 10.51 g/m*3 14.6 C 6.4 km/h
1261 19-06-2014 09:00:00 14.6 C 10.51 g/m*3 14.6 C 8.1 km/h
1262 19-06-2014 09:05:00 14.6 C 10.39 g/m*3 14.6 C 9.7 km/h
1263 19-06-2014 09:10:00 14.6 C 10.51 g/m*3 14.6 C 6.4 km/h
1264 19-06-2014 09:15:00 14.6 C 10.51 g/m*3 14.6 C 6.4 km/h
1265 19-06-2014 09:20:00 14.7 C 10.58 g/m*3 14.7 C 4.8 km/h
1266 19-06-2014 09:25:00 14.8 C 10.64 g/m*3 14.8 C 8.1 km/h
1267 19-06-2014 09:30:00 14.9 C 10.45 g/m*3 14.9 C 6.4 km/h
1268 19-06-2014 09:35:00 15 C 10.51 g/m*3 15 C 1.6 km/h
1269 19-06-2014 09:40:00 15.1 C 10.32 g/m*3 15.1 C 6.4 km/h
1270 19-06-2014 09:45:00 15.3 C 10.45 g/m*3 15.3 C 6.4 km/h
1271 19-06-2014 09:50:00 15.4 C 10.38 g/m*3 15.4 C 6.4 km/h
1272 19-06-2014 09:55:00 15.6 C 10.24 g/m*3 15.6 C 8.1 km/h
1273 19-06-2014 10:00:00 15.7 C 10.17 g/m*3 15.7 C 4.8 km/h
1274 19-06-2014 10:05:00 15.8 C 10.1 g/m*3 15.8 C 8.1 km/h
1275 19-06-2014 10:10:00 15.8 C 9.96 g/m*3 15.8 C 11.3 km/h
Sensor: Nr:Datum:Temp:Abs-Feuchte:Windchill:Wind:
Aussen-T/F 1276 19-06-2014 10:15:00 15.7 C 10.03 g/m*3 15.7 C 11.3 km/h
1277 19-06-2014 10:20:00 15.7 C 10.03 g/m*3 15.7 C 8.1 km/h
1278 19-06-2014 10:25:00 15.7 C 9.77 g/m*3 15.7 C 9.7 km/h
1279 19-06-2014 10:30:00 15.8 C 9.83 g/m*3 15.8 C 9.7 km/h
1280 19-06-2014 10:35:00 15.8 C 9.69 g/m*3 15.8 C 16.1 km/h
1281 19-06-2014 10:40:00 15.8 C 9.83 g/m*3 15.8 C 8.1 km/h
1282 19-06-2014 10:45:00 15.8 C 9.69 g/m*3 15.8 C 11.3 km/h
1283 19-06-2014 10:50:00 15.8 C 9.69 g/m*3 15.8 C 11.3 km/h
1284 19-06-2014 10:55:00 15.9 C 9.62 g/m*3 15.9 C 9.7 km/h
1285 19-06-2014 11:00:00 15.9 C 9.75 g/m*3 15.9 C 8.1 km/h
1286 19-06-2014 11:05:00 15.9 C 9.62 g/m*3 15.9 C 9.7 km/h
1287 19-06-2014 11:10:00 15.9 C 9.48 g/m*3 15.9 C 9.7 km/h
1288 19-06-2014 11:15:00 15.9 C 9.48 g/m*3 15.9 C 9.7 km/h
1289 19-06-2014 11:20:00 15.9 C 9.48 g/m*3 15.9 C 11.3 km/h
1290 19-06-2014 11:25:00 15.9 C 9.62 g/m*3 15.9 C 6.4 km/h
1291 19-06-2014 11:30:00 16.1 C 9.6 g/m*3 16.1 C 8.1 km/h
1292 19-06-2014 11:35:00 16.3 C 9.71 g/m*3 16.3 C 8.1 km/h
1293 19-06-2014 11:40:00 16.2 C 9.65 g/m*3 16.2 C 11.3 km/h
1294 19-06-2014 11:45:00 16.3 C 9.57 g/m*3 16.3 C 11.3 km/h
1295 19-06-2014 11:50:00 16.3 C 9.43 g/m*3 16.3 C 9.7 km/h
1296 19-06-2014 11:55:00 16.3 C 9.57 g/m*3 16.3 C 8.1 km/h
1297 19-06-2014 12:00:00 16.4 C 9.49 g/m*3 16.4 C 8.1 km/h
1298 19-06-2014 12:05:00 16.3 C 9.57 g/m*3 16.3 C 8.1 km/h
1299 19-06-2014 12:10:00 16.4 C 9.77 g/m*3 16.4 C 8.1 km/h
1300 19-06-2014 12:15:00 16.5 C 9.55 g/m*3 16.5 C 9.7 km/h
Sensor: Nr:Datum:Temp:Abs-Feuchte:Windchill:Wind:
Aussen-T/F 1301 19-06-2014 12:20:00 16.6 C 9.61 g/m*3 16.6 C 11.3 km/h
1302 19-06-2014 12:25:00 16.9 C 9.78 g/m*3 16.9 C 9.7 km/h
1303 19-06-2014 12:30:00 17.2 C 9.81 g/m*3 17.2 C 9.7 km/h
1304 19-06-2014 12:35:00 17.6 C 10.05 g/m*3 17.6 C 6.4 km/h
1305 19-06-2014 12:40:00 17.8 C 9.87 g/m*3 17.8 C 6.4 km/h
1306 19-06-2014 12:45:00 18.2 C 10.1 g/m*3 18.2 C 4.8 km/h
1307 19-06-2014 12:50:00 18.2 C 9.95 g/m*3 18.2 C 9.7 km/h
1308 19-06-2014 12:55:00 17.9 C 9.77 g/m*3 17.9 C 11.3 km/h
1309 19-06-2014 13:00:00 17.9 C 9.77 g/m*3 17.9 C 8.1 km/h
1310 19-06-2014 13:05:00 17.9 C 9.77 g/m*3 17.9 C 6.4 km/h
1311 19-06-2014 13:10:00 18.1 C 9.58 g/m*3 18.1 C 8.1 km/h
1312 19-06-2014 13:15:00 18.1 C 9.43 g/m*3 18.1 C 9.7 km/h
1313 19-06-2014 13:20:00 17.9 C 9.47 g/m*3 17.9 C 9.7 km/h
1314 19-06-2014 13:25:00 17.9 C 9.62 g/m*3 17.9 C 11.3 km/h
1315 19-06-2014 13:30:00 18.1 C 9.58 g/m*3 18.1 C 12.9 km/h
1316 19-06-2014 13:35:00 18.2 C 9.79 g/m*3 18.2 C 9.7 km/h
1317 19-06-2014 13:40:00 18.6 C 10.03 g/m*3 18.6 C 8.1 km/h
1318 19-06-2014 13:45:00 18.7 C 9.61 g/m*3 18.7 C 11.3 km/h
1319 19-06-2014 13:50:00 18.7 C 9.45 g/m*3 18.7 C 9.7 km/h
1320 19-06-2014 13:55:00 18.6 C 9.55 g/m*3 18.6 C 12.9 km/h
1321 19-06-2014 14:00:00 18.4 C 9.59 g/m*3 18.4 C 9.7 km/h
1322 19-06-2014 14:05:00 18.7 C 9.77 g/m*3 18.7 C 11.3 km/h
1323 19-06-2014 14:10:00 19.1 C 9.51 g/m*3 19.1 C 6.4 km/h
1324 19-06-2014 14:15:00 19.4 C 9.34 g/m*3 19.4 C 11.3 km/h
1325 19-06-2014 14:20:00 19.3 C 9.12 g/m*3 19.3 C 19.3 km/h
Sensor: Nr:Datum:Temp:Abs-Feuchte:Windchill:Wind:
Aussen-T/F 1326 19-06-2014 14:25:00 19.3 C 9.12 g/m*3 19.3 C 16.1 km/h
1327 19-06-2014 14:30:00 19.4 C 9.68 g/m*3 19.4 C 9.7 km/h
1328 19-06-2014 14:35:00 19.4 C 9.51 g/m*3 19.4 C 12.9 km/h
1329 19-06-2014 14:40:00 19.1 C 9.34 g/m*3 19.1 C 11.3 km/h
1330 19-06-2014 14:45:00 18.8 C 9.66 g/m*3 18.8 C 9.7 km/h
1331 19-06-2014 14:50:00 18.7 C 9.45 g/m*3 18.7 C 11.3 km/h
1332 19-06-2014 14:55:00 18.9 C 9.4 g/m*3 18.9 C 11.3 km/h
1333 19-06-2014 15:00:00 18.8 C 9.5 g/m*3 18.8 C 14.5 km/h
1334 19-06-2014 15:05:00 18.8 C 9.66 g/m*3 18.8 C 14.5 km/h
1335 19-06-2014 15:10:00 18.8 C 9.5 g/m*3 18.8 C 14.5 km/h
1336 19-06-2014 15:15:00 19.2 C 9.56 g/m*3 19.2 C 11.3 km/h
1337 19-06-2014 15:20:00 19.3 C 9.79 g/m*3 19.3 C 9.7 km/h
1338 19-06-2014 15:25:00 19.3 C 9.62 g/m*3 19.3 C 17.7 km/h
1339 19-06-2014 15:30:00 19 C 9.45 g/m*3 19 C 14.5 km/h
1340 19-06-2014 15:35:00 18.9 C 9.56 g/m*3 18.9 C 14.5 km/h
1341 19-06-2014 15:40:00 19.3 C 9.95 g/m*3 19.3 C 12.9 km/h
1342 19-06-2014 15:45:00 20 C 10.02 g/m*3 20 C 12.9 km/h
1343 19-06-2014 15:50:00 20.6 C 9.66 g/m*3 20.6 C 11.3 km/h
1344 19-06-2014 15:55:00 20.7 C 9.72 g/m*3 20.7 C 9.7 km/h
1345 19-06-2014 16:00:00 20.6 C 10.02 g/m*3 20.6 C 11.3 km/h
1346 19-06-2014 16:05:00 20.6 C 9.66 g/m*3 20.6 C 12.9 km/h
1347 19-06-2014 16:10:00 20.5 C 9.79 g/m*3 20.5 C 14.5 km/h
1348 19-06-2014 16:15:00 20.7 C 9.72 g/m*3 20.7 C 8.1 km/h
1349 19-06-2014 16:20:00 20.9 C 9.65 g/m*3 20.9 C 11.3 km/h
1350 19-06-2014 16:25:00 20.8 C 9.23 g/m*3 20.8 C 11.3 km/h
Sensor: Nr:Datum:Temp:Abs-Feuchte:Windchill:Wind:
Aussen-T/F 1351 19-06-2014 16:30:00 20.7 C 9.72 g/m*3 20.7 C 11.3 km/h
1352 19-06-2014 16:35:00 20.6 C 9.84 g/m*3 20.6 C 9.7 km/h
1353 19-06-2014 16:40:00 20.5 C 9.79 g/m*3 20.5 C 12.9 km/h
1354 19-06-2014 16:45:00 20.9 C 10.02 g/m*3 20.9 C 11.3 km/h
1355 19-06-2014 16:50:00 21.2 C 10.01 g/m*3 21.2 C 11.3 km/h
1356 19-06-2014 16:55:00 21.4 C 9.94 g/m*3 21.4 C 11.3 km/h
1357 19-06-2014 17:00:00 21.5 C 9.99 g/m*3 21.5 C 11.3 km/h
1358 19-06-2014 17:05:00 21.2 C 9.64 g/m*3 21.2 C 9.7 km/h
1359 19-06-2014 17:10:00 21.3 C 9.69 g/m*3 21.3 C 14.5 km/h
1360 19-06-2014 17:15:00 21.3 C 9.88 g/m*3 21.3 C 11.3 km/h
1361 19-06-2014 17:20:00 21.2 C 9.82 g/m*3 21.2 C 6.4 km/h
1362 19-06-2014 17:25:00 20.8 C 9.6 g/m*3 20.8 C 9.7 km/h
1363 19-06-2014 17:30:00 20.7 C 9.72 g/m*3 20.7 C 6.4 km/h
1364 19-06-2014 17:35:00 20.5 C 9.61 g/m*3 20.5 C 11.3 km/h
1365 19-06-2014 17:40:00 20.3 C 9.5 g/m*3 20.3 C 9.7 km/h
1366 19-06-2014 17:45:00 20.2 C 9.62 g/m*3 20.2 C 8.1 km/h
1367 19-06-2014 17:50:00 20.2 C 9.79 g/m*3 20.2 C 8.1 km/h
1368 19-06-2014 17:55:00 20.2 C 9.79 g/m*3 20.2 C 8.1 km/h
1369 19-06-2014 18:00:00 20.2 C 9.79 g/m*3 20.2 C 11.3 km/h
1370 19-06-2014 18:05:00 20.1 C 9.91 g/m*3 20.1 C 12.9 km/h
1371 19-06-2014 18:10:00 19.8 C 9.74 g/m*3 19.8 C 11.3 km/h
1372 19-06-2014 18:15:00 19.7 C 9.68 g/m*3 19.7 C 16.1 km/h
1373 19-06-2014 18:20:00 19.6 C 9.79 g/m*3 19.6 C 9.7 km/h
1374 19-06-2014 18:25:00 19.6 C 9.62 g/m*3 19.6 C 11.3 km/h
1375 19-06-2014 18:30:00 19.5 C 9.73 g/m*3 19.5 C 9.7 km/h
Sensor: Nr:Datum:Temp:Abs-Feuchte:Windchill:Wind:
Aussen-T/F 1376 19-06-2014 18:35:00 19.4 C 9.84 g/m*3 19.4 C 9.7 km/h
1377 19-06-2014 18:40:00 19.3 C 9.62 g/m*3 19.3 C 12.9 km/h
1378 19-06-2014 18:45:00 19.1 C 9.84 g/m*3 19.1 C 12.9 km/h
1379 19-06-2014 18:50:00 19 C 9.94 g/m*3 19 C 8.1 km/h
1380 19-06-2014 18:55:00 19.1 C 10 g/m*3 19.1 C 12.9 km/h
1381 19-06-2014 19:00:00 18.9 C 9.72 g/m*3 18.9 C 11.3 km/h
1382 19-06-2014 19:05:00 18.8 C 9.82 g/m*3 18.8 C 14.5 km/h
1383 19-06-2014 19:10:00 18.8 C 9.99 g/m*3 18.8 C 11.3 km/h
1384 19-06-2014 19:15:00 18.8 C 9.82 g/m*3 18.8 C 16.1 km/h
1385 19-06-2014 19:20:00 18.6 C 9.71 g/m*3 18.6 C 14.5 km/h
1386 19-06-2014 19:25:00 18.4 C 9.91 g/m*3 18.4 C 11.3 km/h
1387 19-06-2014 19:30:00 18.4 C 9.75 g/m*3 18.4 C 11.3 km/h
1388 19-06-2014 19:35:00 18.4 C 9.75 g/m*3 18.4 C 12.9 km/h
1389 19-06-2014 19:40:00 18.3 C 9.85 g/m*3 18.3 C 9.7 km/h
1390 19-06-2014 19:45:00 18.3 C 9.85 g/m*3 18.3 C 9.7 km/h
1391 19-06-2014 19:50:00 18.2 C 9.95 g/m*3 18.2 C 11.3 km/h
1392 19-06-2014 19:55:00 18.1 C 9.89 g/m*3 18.1 C 8.1 km/h
1393 19-06-2014 20:00:00 18 C 9.83 g/m*3 18 C 14.5 km/h
1394 19-06-2014 20:05:00 17.9 C 9.92 g/m*3 17.9 C 8.1 km/h
1395 19-06-2014 20:10:00 17.8 C 9.87 g/m*3 17.8 C 6.4 km/h
1396 19-06-2014 20:15:00 17.8 C 10.02 g/m*3 17.8 C 9.7 km/h
1397 19-06-2014 20:20:00 17.7 C 9.96 g/m*3 17.7 C 8.1 km/h
1398 19-06-2014 20:25:00 17.6 C 9.9 g/m*3 17.6 C 6.4 km/h
1399 19-06-2014 20:30:00 17.6 C 10.2 g/m*3 17.6 C 3.2 km/h
1400 19-06-2014 20:35:00 17.5 C 10.44 g/m*3 17.5 C 8.1 km/h
Sensor: Nr:Datum:Temp:Abs-Feuchte:Windchill:Wind:
Aussen-T/F 1401 19-06-2014 20:40:00 17.3 C 10.61 g/m*3 17.3 C 9.7 km/h
1402 19-06-2014 20:45:00 16.9 C 10.79 g/m*3 16.9 C 6.4 km/h
1403 19-06-2014 20:50:00 16.5 C 10.81 g/m*3 16.5 C 9.7 km/h
1404 19-06-2014 20:55:00 16.2 C 11.03 g/m*3 16.2 C 4.8 km/h
1405 19-06-2014 21:00:00 16 C 11.04 g/m*3 16 C 4.8 km/h
1406 19-06-2014 21:05:00 15.8 C 11.17 g/m*3 15.8 C 0 km/h
1407 19-06-2014 21:10:00 15.7 C 11.24 g/m*3 15.7 C 0 km/h
1408 19-06-2014 21:15:00 15.5 C 11.1 g/m*3 15.5 C 4.8 km/h
1409 19-06-2014 21:20:00 15.3 C 10.84 g/m*3 15.3 C 8.1 km/h
1410 19-06-2014 21:25:00 15.3 C 11.1 g/m*3 15.3 C 3.2 km/h
1411 19-06-2014 21:30:00 15.3 C 11.23 g/m*3 15.3 C 3.2 km/h
1412 19-06-2014 21:35:00 15.2 C 11.16 g/m*3 15.2 C 0 km/h
1413 19-06-2014 21:40:00 15.1 C 11.35 g/m*3 15.1 C 4.8 km/h
1414 19-06-2014 21:45:00 14.9 C 11.09 g/m*3 14.9 C 6.4 km/h
1415 19-06-2014 21:50:00 14.9 C 11.22 g/m*3 14.9 C 0 km/h
1416 19-06-2014 21:55:00 14.8 C 11.27 g/m*3 14.8 C 0 km/h
1417 19-06-2014 22:00:00 14.7 C 11.33 g/m*3 14.7 C 0 km/h
1418 19-06-2014 22:05:00 14.7 C 11.33 g/m*3 14.7 C 0 km/h
1419 19-06-2014 22:10:00 14.6 C 11.26 g/m*3 14.6 C 1.6 km/h
1420 19-06-2014 22:15:00 14.6 C 11.39 g/m*3 14.6 C 1.6 km/h
1421 19-06-2014 22:20:00 14.5 C 11.32 g/m*3 14.5 C 0 km/h
1422 19-06-2014 22:25:00 14.4 C 11.25 g/m*3 14.4 C 0 km/h
1423 19-06-2014 22:30:00 14.4 C 11.25 g/m*3 14.4 C 0 km/h
1424 19-06-2014 22:35:00 14.4 C 11.37 g/m*3 14.4 C 0 km/h
1425 19-06-2014 22:40:00 14.4 C 11.37 g/m*3 14.4 C 3.2 km/h
Sensor: Nr:Datum:Temp:Abs-Feuchte:Windchill:Wind:
Aussen-T/F 1426 19-06-2014 23:30:00 14.4 C 11 g/m*3 14.4 C 4.8 km/h
1427 19-06-2014 23:35:00 14.5 C 11.07 g/m*3 14.5 C 4.8 km/h
1428 19-06-2014 23:40:00 14.6 C 11.14 g/m*3 14.6 C 4.8 km/h
1429 19-06-2014 23:45:00 14.6 C 11.14 g/m*3 14.6 C 4.8 km/h
1430 19-06-2014 23:50:00 14.6 C 11.14 g/m*3 14.6 C 6.4 km/h
1431 20-06-2014 06:30:00 13.1 C 9.93 g/m*3 13.1 C 8.1 km/h
1432 20-06-2014 06:35:00 13.1 C 9.93 g/m*3 13.1 C 9.7 km/h
1433 20-06-2014 06:40:00 13.1 C 9.93 g/m*3 13.1 C 8.1 km/h
1434 20-06-2014 06:45:00 13.1 C 9.93 g/m*3 13.1 C 4.8 km/h
1435 20-06-2014 06:50:00 13.1 C 9.93 g/m*3 13.1 C 4.8 km/h
1436 20-06-2014 06:55:00 13.1 C 9.93 g/m*3 13.1 C 8.1 km/h
1437 20-06-2014 07:00:00 13.1 C 9.93 g/m*3 13.1 C 9.7 km/h
1438 20-06-2014 07:05:00 13.1 C 9.93 g/m*3 13.1 C 4.8 km/h
1439 20-06-2014 07:10:00 13.2 C 9.99 g/m*3 13.2 C 6.4 km/h
1440 20-06-2014 07:15:00 13.2 C 9.87 g/m*3 13.2 C 8.1 km/h
1441 20-06-2014 07:20:00 13.3 C 9.94 g/m*3 13.3 C 9.7 km/h
1442 20-06-2014 07:25:00 13.3 C 9.94 g/m*3 13.3 C 6.4 km/h
1443 20-06-2014 07:30:00 13.3 C 9.94 g/m*3 13.3 C 8.1 km/h
1444 20-06-2014 07:35:00 13.3 C 9.94 g/m*3 13.3 C 4.8 km/h
1445 20-06-2014 07:40:00 13.3 C 9.94 g/m*3 13.3 C 3.2 km/h
1446 20-06-2014 07:45:00 13.3 C 9.94 g/m*3 13.3 C 6.4 km/h
1447 20-06-2014 07:50:00 13.3 C 9.82 g/m*3 13.3 C 11.3 km/h
1448 20-06-2014 07:55:00 13.3 C 9.82 g/m*3 13.3 C 8.1 km/h
1449 20-06-2014 08:00:00 13.3 C 9.82 g/m*3 13.3 C 4.8 km/h
1450 20-06-2014 08:05:00 13.4 C 9.88 g/m*3 13.4 C 6.4 km/h
Sensor: Nr:Datum:Temp:Abs-Feuchte:Windchill:Wind:
Aussen-T/F 1451 20-06-2014 08:10:00 13.4 C 9.88 g/m*3 13.4 C 6.4 km/h
1452 20-06-2014 08:15:00 13.4 C 9.88 g/m*3 13.4 C 9.7 km/h
1453 20-06-2014 08:20:00 13.5 C 9.94 g/m*3 13.5 C 6.4 km/h
1454 20-06-2014 08:25:00 13.6 C 9.89 g/m*3 13.6 C 4.8 km/h
1455 20-06-2014 08:30:00 13.6 C 9.77 g/m*3 13.6 C 9.7 km/h
1456 20-06-2014 08:35:00 13.6 C 9.89 g/m*3 13.6 C 4.8 km/h
1457 20-06-2014 08:40:00 13.6 C 10 g/m*3 13.6 C 11.3 km/h
1458 20-06-2014 08:45:00 13.3 C 9.94 g/m*3 13.3 C 9.7 km/h
1459 20-06-2014 08:50:00 13.3 C 10.17 g/m*3 13.3 C 4.8 km/h
1460 20-06-2014 08:55:00 13.2 C 10.1 g/m*3 13.2 C 6.4 km/h
1461 20-06-2014 09:00:00 13.2 C 10.1 g/m*3 13.2 C 8.1 km/h
1462 20-06-2014 09:05:00 13.2 C 10.1 g/m*3 13.2 C 4.8 km/h
1463 20-06-2014 09:10:00 13.3 C 10.17 g/m*3 13.3 C 4.8 km/h
1464 20-06-2014 09:15:00 13.4 C 10.35 g/m*3 13.4 C 4.8 km/h
1465 20-06-2014 09:20:00 13.5 C 10.18 g/m*3 13.5 C 6.4 km/h
1466 20-06-2014 09:25:00 13.6 C 10.12 g/m*3 13.6 C 9.7 km/h
1467 20-06-2014 09:30:00 13.7 C 10.18 g/m*3 13.7 C 8.1 km/h
1468 20-06-2014 09:35:00 13.8 C 10.13 g/m*3 13.8 C 12.9 km/h
1469 20-06-2014 09:40:00 13.8 C 10.01 g/m*3 13.8 C 12.9 km/h
1470 20-06-2014 09:45:00 13.9 C 10.19 g/m*3 13.9 C 4.8 km/h
1471 20-06-2014 09:50:00 14.1 C 10.07 g/m*3 14.1 C 6.4 km/h
1472 20-06-2014 09:55:00 14.2 C 9.89 g/m*3 14.2 C 8.1 km/h
1473 20-06-2014 10:00:00 14.5 C 10.07 g/m*3 14.5 C 8.1 km/h
1474 20-06-2014 10:05:00 14.8 C 10.26 g/m*3 14.8 C 9.7 km/h
1475 20-06-2014 10:10:00 15 C 10.13 g/m*3 15 C 12.9 km/h
Sensor: Nr:Datum:Temp:Abs-Feuchte:Windchill:Wind:
Aussen-T/F 1476 20-06-2014 10:15:00 15.1 C 9.8 g/m*3 15.1 C 8.1 km/h
1477 20-06-2014 10:20:00 15.2 C 10.12 g/m*3 15.2 C 8.1 km/h
1478 20-06-2014 10:25:00 15.4 C 10.25 g/m*3 15.4 C 11.3 km/h
1479 20-06-2014 10:30:00 15.6 C 10.11 g/m*3 15.6 C 9.7 km/h
1480 20-06-2014 10:35:00 15.7 C 10.03 g/m*3 15.7 C 8.1 km/h
1481 20-06-2014 10:40:00 15.9 C 10.02 g/m*3 15.9 C 9.7 km/h
1482 20-06-2014 10:45:00 15.7 C 9.5 g/m*3 15.7 C 12.9 km/h
1483 20-06-2014 10:50:00 15.3 C 9.4 g/m*3 15.3 C 14.5 km/h
1484 20-06-2014 10:55:00 15.1 C 9.29 g/m*3 15.1 C 8.1 km/h
1485 20-06-2014 11:00:00 14.9 C 9.43 g/m*3 14.9 C 9.7 km/h
1486 20-06-2014 11:05:00 14.9 C 9.56 g/m*3 14.9 C 8.1 km/h
1487 20-06-2014 11:10:00 14.9 C 9.69 g/m*3 14.9 C 4.8 km/h
1488 20-06-2014 11:15:00 14.9 C 9.69 g/m*3 14.9 C 8.1 km/h
1489 20-06-2014 11:20:00 14.9 C 9.56 g/m*3 14.9 C 12.9 km/h
1490 20-06-2014 11:25:00 14.8 C 9.63 g/m*3 14.8 C 6.4 km/h
1491 20-06-2014 11:30:00 14.8 C 9.63 g/m*3 14.8 C 8.1 km/h
1492 20-06-2014 11:35:00 14.9 C 9.69 g/m*3 14.9 C 9.7 km/h
1493 20-06-2014 11:40:00 14.9 C 9.81 g/m*3 14.9 C 6.4 km/h
1494 20-06-2014 11:45:00 14.9 C 9.94 g/m*3 14.9 C 8.1 km/h
1495 20-06-2014 11:50:00 14.9 C 9.81 g/m*3 14.9 C 8.1 km/h
1496 20-06-2014 11:55:00 15.1 C 9.68 g/m*3 15.1 C 9.7 km/h
1497 20-06-2014 12:00:00 15.2 C 9.86 g/m*3 15.2 C 6.4 km/h
1498 20-06-2014 12:05:00 15.3 C 9.92 g/m*3 15.3 C 8.1 km/h
1499 20-06-2014 12:10:00 15.3 C 9.92 g/m*3 15.3 C 8.1 km/h
1500 20-06-2014 12:15:00 15.3 C 9.79 g/m*3 15.3 C 6.4 km/h
Sensor: Nr:Datum:Temp:Abs-Feuchte:Windchill:Wind:
Aussen-T/F 1501 20-06-2014 12:20:00 15.4 C 9.99 g/m*3 15.4 C 4.8 km/h
1502 20-06-2014 12:25:00 15.4 C 9.99 g/m*3 15.4 C 1.6 km/h
1503 20-06-2014 12:30:00 15.6 C 9.97 g/m*3 15.6 C 4.8 km/h
1504 20-06-2014 12:35:00 15.8 C 10.23 g/m*3 15.8 C 8.1 km/h
1505 20-06-2014 12:40:00 15.9 C 10.02 g/m*3 15.9 C 4.8 km/h
1506 20-06-2014 12:45:00 16.1 C 10.01 g/m*3 16.1 C 6.4 km/h
1507 20-06-2014 12:50:00 16.1 C 9.6 g/m*3 16.1 C 8.1 km/h
1508 20-06-2014 12:55:00 16 C 9.67 g/m*3 16 C 11.3 km/h
1509 20-06-2014 13:00:00 15.9 C 9.62 g/m*3 15.9 C 11.3 km/h
1510 20-06-2014 13:05:00 15.9 C 9.75 g/m*3 15.9 C 11.3 km/h
1511 20-06-2014 13:10:00 15.8 C 9.69 g/m*3 15.8 C 4.8 km/h
1512 20-06-2014 13:15:00 15.7 C 9.63 g/m*3 15.7 C 8.1 km/h
1513 20-06-2014 13:20:00 15.4 C 9.33 g/m*3 15.4 C 17.7 km/h
1514 20-06-2014 13:25:00 15.3 C 9.4 g/m*3 15.3 C 16.1 km/h
1515 20-06-2014 13:30:00 15.2 C 9.48 g/m*3 15.2 C 4.8 km/h
1516 20-06-2014 13:35:00 15.3 C 9.53 g/m*3 15.3 C 6.4 km/h
1517 20-06-2014 13:40:00 15.4 C 9.46 g/m*3 15.4 C 6.4 km/h
1518 20-06-2014 13:45:00 15.7 C 9.63 g/m*3 15.7 C 6.4 km/h
1519 20-06-2014 13:50:00 15.8 C 9.42 g/m*3 15.8 C 11.3 km/h
1520 20-06-2014 13:55:00 16.1 C 9.46 g/m*3 16.1 C 4.8 km/h
1521 20-06-2014 14:00:00 16.3 C 9.43 g/m*3 16.3 C 8.1 km/h
1522 20-06-2014 14:05:00 16.5 C 9.27 g/m*3 16.5 C 11.3 km/h
1523 20-06-2014 14:10:00 16.5 C 9.27 g/m*3 16.5 C 9.7 km/h
1524 20-06-2014 14:15:00 16.3 C 9.43 g/m*3 16.3 C 12.9 km/h
1525 20-06-2014 14:20:00 16.1 C 9.32 g/m*3 16.1 C 12.9 km/h
Sensor: Nr:Datum:Temp:Abs-Feuchte:Windchill:Wind:
Aussen-T/F 1526 20-06-2014 14:25:00 15.9 C 9.89 g/m*3 15.9 C 6.4 km/h
1527 20-06-2014 14:30:00 15.6 C 9.84 g/m*3 15.6 C 9.7 km/h
1528 20-06-2014 14:35:00 15.3 C 9.66 g/m*3 15.3 C 6.4 km/h
1529 20-06-2014 14:40:00 15.2 C 9.73 g/m*3 15.2 C 3.2 km/h
1530 20-06-2014 14:45:00 15.2 C 9.73 g/m*3 15.2 C 6.4 km/h
1531 20-06-2014 14:50:00 15.2 C 9.48 g/m*3 15.2 C 6.4 km/h
1532 20-06-2014 14:55:00 15.3 C 9.4 g/m*3 15.3 C 6.4 km/h
1533 20-06-2014 15:00:00 15.5 C 9.25 g/m*3 15.5 C 9.7 km/h
1534 20-06-2014 15:05:00 15.6 C 9.31 g/m*3 15.6 C 8.1 km/h
1535 20-06-2014 15:10:00 15.7 C 9.5 g/m*3 15.7 C 3.2 km/h
1536 20-06-2014 15:15:00 15.8 C 9.56 g/m*3 15.8 C 6.4 km/h
1537 20-06-2014 15:20:00 16 C 9.4 g/m*3 16 C 8.1 km/h
1538 20-06-2014 15:25:00 16.2 C 9.52 g/m*3 16.2 C 6.4 km/h
1539 20-06-2014 15:30:00 16.3 C 9.3 g/m*3 16.3 C 8.1 km/h
1540 20-06-2014 15:35:00 16.5 C 9.41 g/m*3 16.5 C 8.1 km/h
1541 20-06-2014 15:40:00 16.7 C 9.66 g/m*3 16.7 C 8.1 km/h
1542 20-06-2014 15:45:00 16.9 C 9.49 g/m*3 16.9 C 6.4 km/h
1543 20-06-2014 15:50:00 17.2 C 9.67 g/m*3 17.2 C 4.8 km/h
1544 20-06-2014 15:55:00 17.6 C 10.05 g/m*3 17.6 C 4.8 km/h
1545 20-06-2014 16:00:00 17.8 C 9.71 g/m*3 17.8 C 9.7 km/h
1546 20-06-2014 16:05:00 17.8 C 9.56 g/m*3 17.8 C 11.3 km/h
1547 20-06-2014 16:10:00 17.7 C 9.66 g/m*3 17.7 C 9.7 km/h
1548 20-06-2014 16:15:00 17.8 C 9.56 g/m*3 17.8 C 9.7 km/h
1549 20-06-2014 16:20:00 17.8 C 9.71 g/m*3 17.8 C 6.4 km/h
1550 20-06-2014 16:25:00 17.8 C 9.56 g/m*3 17.8 C 8.1 km/h
Sensor: Nr:Datum:Temp:Abs-Feuchte:Windchill:Wind:
Aussen-T/F 1551 20-06-2014 16:30:00 17.9 C 9.62 g/m*3 17.9 C 6.4 km/h
1552 20-06-2014 16:35:00 17.9 C 9.31 g/m*3 17.9 C 4.8 km/h
1553 20-06-2014 16:40:00 17.8 C 8.95 g/m*3 17.8 C 8.1 km/h
1554 20-06-2014 16:45:00 17.7 C 9.2 g/m*3 17.7 C 6.4 km/h
1555 20-06-2014 16:50:00 17.6 C 9 g/m*3 17.6 C 4.8 km/h
1556 20-06-2014 16:55:00 17.7 C 9.35 g/m*3 17.7 C 4.8 km/h
1557 20-06-2014 17:00:00 17.9 C 9.31 g/m*3 17.9 C 6.4 km/h
1558 20-06-2014 17:05:00 18.1 C 9.12 g/m*3 18.1 C 9.7 km/h
1559 20-06-2014 17:10:00 18.2 C 9.01 g/m*3 18.2 C 8.1 km/h
1560 20-06-2014 17:15:00 18.3 C 9.07 g/m*3 18.3 C 11.3 km/h
1561 20-06-2014 17:20:00 18.1 C 8.81 g/m*3 18.1 C 9.7 km/h
1562 20-06-2014 17:25:00 17.8 C 8.8 g/m*3 17.8 C 14.5 km/h
1563 20-06-2014 17:30:00 17.7 C 8.9 g/m*3 17.7 C 8.1 km/h
1564 20-06-2014 17:35:00 17.6 C 9 g/m*3 17.6 C 4.8 km/h
1565 20-06-2014 17:40:00 17.4 C 8.89 g/m*3 17.4 C 9.7 km/h
1566 20-06-2014 17:45:00 17.2 C 8.93 g/m*3 17.2 C 6.4 km/h
1567 20-06-2014 17:50:00 17.1 C 8.88 g/m*3 17.1 C 9.7 km/h
1568 20-06-2014 17:55:00 16.9 C 8.77 g/m*3 16.9 C 11.3 km/h
1569 20-06-2014 18:00:00 16.9 C 8.92 g/m*3 16.9 C 6.4 km/h
1570 20-06-2014 18:05:00 16.8 C 8.86 g/m*3 16.8 C 6.4 km/h
1571 20-06-2014 18:10:00 16.8 C 8.86 g/m*3 16.8 C 6.4 km/h
1572 20-06-2014 18:15:00 16.8 C 9.01 g/m*3 16.8 C 4.8 km/h
1573 20-06-2014 18:20:00 16.8 C 8.86 g/m*3 16.8 C 8.1 km/h
1574 20-06-2014 18:25:00 16.8 C 8.86 g/m*3 16.8 C 3.2 km/h
1575 20-06-2014 18:30:00 16.9 C 8.92 g/m*3 16.9 C 4.8 km/h
Sensor: Nr:Datum:Temp:Abs-Feuchte:Windchill:Wind:
Aussen-T/F 1576 20-06-2014 18:35:00 16.9 C 8.92 g/m*3 16.9 C 3.2 km/h
1577 20-06-2014 18:40:00 16.9 C 8.92 g/m*3 16.9 C 6.4 km/h
1578 20-06-2014 18:45:00 17 C 8.83 g/m*3 17 C 4.8 km/h
1579 20-06-2014 18:50:00 17.1 C 8.88 g/m*3 17.1 C 8.1 km/h
1580 20-06-2014 18:55:00 17.1 C 8.73 g/m*3 17.1 C 6.4 km/h
1581 20-06-2014 19:00:00 17.1 C 8.88 g/m*3 17.1 C 11.3 km/h
1582 20-06-2014 19:05:00 17.1 C 8.73 g/m*3 17.1 C 3.2 km/h
1583 20-06-2014 19:10:00 17.1 C 8.88 g/m*3 17.1 C 3.2 km/h
1584 20-06-2014 19:15:00 17.2 C 8.93 g/m*3 17.2 C 1.6 km/h
1585 20-06-2014 19:20:00 17.3 C 8.99 g/m*3 17.3 C 1.6 km/h
1586 20-06-2014 19:25:00 17.3 C 8.99 g/m*3 17.3 C 1.6 km/h
1587 20-06-2014 19:30:00 17.4 C 9.04 g/m*3 17.4 C 1.6 km/h
1588 20-06-2014 19:35:00 17.4 C 8.89 g/m*3 17.4 C 1.6 km/h
1589 20-06-2014 19:40:00 17.4 C 8.89 g/m*3 17.4 C 6.4 km/h
1590 20-06-2014 19:45:00 17.4 C 8.74 g/m*3 17.4 C 6.4 km/h
1591 20-06-2014 19:50:00 17.4 C 9.04 g/m*3 17.4 C 6.4 km/h
1592 20-06-2014 19:55:00 17.4 C 8.74 g/m*3 17.4 C 8.1 km/h
1593 20-06-2014 20:00:00 17.4 C 8.3 g/m*3 17.4 C 11.3 km/h
1594 20-06-2014 20:05:00 17.5 C 8.5 g/m*3 17.5 C 8.1 km/h
1595 20-06-2014 20:10:00 17.5 C 8.65 g/m*3 17.5 C 3.2 km/h
1596 20-06-2014 20:15:00 17.5 C 8.5 g/m*3 17.5 C 3.2 km/h
1597 20-06-2014 20:20:00 17.4 C 8.6 g/m*3 17.4 C 1.6 km/h
1598 20-06-2014 20:25:00 17.3 C 8.4 g/m*3 17.3 C 9.7 km/h
1599 20-06-2014 20:30:00 17.2 C 8.64 g/m*3 17.2 C 9.7 km/h
1600 20-06-2014 20:35:00 17 C 8.68 g/m*3 17 C 3.2 km/h
Sensor: Nr:Datum:Temp:Abs-Feuchte:Windchill:Wind:
Aussen-T/F 1601 20-06-2014 20:40:00 16.5 C 9.13 g/m*3 16.5 C 0 km/h
1602 20-06-2014 20:45:00 16 C 9.26 g/m*3 16 C 0 km/h
1603 20-06-2014 20:50:00 15.7 C 8.96 g/m*3 15.7 C 3.2 km/h
1604 20-06-2014 20:55:00 15.5 C 9.25 g/m*3 15.5 C 1.6 km/h
1605 20-06-2014 21:00:00 15.3 C 9.14 g/m*3 15.3 C 4.8 km/h
1606 20-06-2014 21:05:00 15.3 C 9.01 g/m*3 15.3 C 3.2 km/h
1607 20-06-2014 21:10:00 15.3 C 9.27 g/m*3 15.3 C 0 km/h
1608 20-06-2014 21:15:00 15.3 C 9.14 g/m*3 15.3 C 0 km/h
1609 20-06-2014 21:20:00 15.3 C 8.75 g/m*3 15.3 C 8.1 km/h
1610 20-06-2014 21:25:00 15.6 C 8.78 g/m*3 15.6 C 4.8 km/h
1611 20-06-2014 21:30:00 15.8 C 8.75 g/m*3 15.8 C 6.4 km/h
1612 20-06-2014 21:35:00 15.9 C 8.8 g/m*3 15.9 C 3.2 km/h
1613 20-06-2014 21:40:00 15.9 C 8.8 g/m*3 15.9 C 3.2 km/h
1614 20-06-2014 21:45:00 16 C 8.72 g/m*3 16 C 4.8 km/h
1615 20-06-2014 21:50:00 16.1 C 8.77 g/m*3 16.1 C 9.7 km/h
1616 20-06-2014 21:55:00 16.1 C 8.77 g/m*3 16.1 C 8.1 km/h
1617 20-06-2014 22:00:00 16.1 C 8.77 g/m*3 16.1 C 8.1 km/h
1618 20-06-2014 22:05:00 16.1 C 8.77 g/m*3 16.1 C 6.4 km/h
1619 20-06-2014 22:10:00 16 C 8.86 g/m*3 16 C 6.4 km/h
1620 20-06-2014 22:15:00 16 C 8.86 g/m*3 16 C 8.1 km/h
1621 20-06-2014 22:20:00 15.9 C 8.94 g/m*3 15.9 C 1.6 km/h
1622 20-06-2014 22:25:00 15.9 C 8.94 g/m*3 15.9 C 3.2 km/h
1623 20-06-2014 22:30:00 15.8 C 8.88 g/m*3 15.8 C 8.1 km/h
1624 20-06-2014 22:35:00 15.8 C 8.88 g/m*3 15.8 C 4.8 km/h
1625 20-06-2014 22:40:00 15.7 C 8.96 g/m*3 15.7 C 4.8 km/h
Sensor: Nr:Datum:Temp:Abs-Feuchte:Windchill:Wind:
Aussen-T/F 1626 20-06-2014 22:45:00 15.7 C 8.96 g/m*3 15.7 C 4.8 km/h
1627 20-06-2014 22:50:00 15.6 C 8.91 g/m*3 15.6 C 4.8 km/h
1628 20-06-2014 22:55:00 15.6 C 8.91 g/m*3 15.6 C 3.2 km/h
1629 20-06-2014 23:00:00 15.5 C 8.99 g/m*3 15.5 C 1.6 km/h
1630 20-06-2014 23:05:00 15.4 C 8.93 g/m*3 15.4 C 3.2 km/h
1631 20-06-2014 23:10:00 15.4 C 8.93 g/m*3 15.4 C 3.2 km/h
1632 20-06-2014 23:15:00 15.4 C 8.93 g/m*3 15.4 C 6.4 km/h
1633 20-06-2014 23:20:00 15.4 C 9.07 g/m*3 15.4 C 4.8 km/h
1634 20-06-2014 23:25:00 15.4 C 9.07 g/m*3 15.4 C 8.1 km/h
1635 20-06-2014 23:30:00 15.3 C 9.14 g/m*3 15.3 C 1.6 km/h
1636 20-06-2014 23:35:00 15.3 C 9.27 g/m*3 15.3 C 3.2 km/h
1637 20-06-2014 23:40:00 15.2 C 9.22 g/m*3 15.2 C 4.8 km/h
1638 20-06-2014 23:45:00 15.1 C 9.29 g/m*3 15.1 C 1.6 km/h
1639 20-06-2014 23:50:00 15 C 9.23 g/m*3 15 C 1.6 km/h
1640 20-06-2014 23:55:00 14.9 C 9.3 g/m*3 14.9 C 4.8 km/h
1641 21-06-2014 00:00:00 14.8 C 9.25 g/m*3 14.8 C 3.2 km/h
1642 21-06-2014 00:05:00 14.8 C 9.25 g/m*3 14.8 C 3.2 km/h
1643 21-06-2014 00:10:00 14.8 C 9.25 g/m*3 14.8 C 0 km/h
1644 21-06-2014 00:15:00 14.8 C 9.25 g/m*3 14.8 C 3.2 km/h
1645 21-06-2014 00:20:00 14.8 C 9.37 g/m*3 14.8 C 4.8 km/h
1646 21-06-2014 00:25:00 14.8 C 9.37 g/m*3 14.8 C 4.8 km/h
1647 21-06-2014 00:30:00 14.7 C 9.32 g/m*3 14.7 C 3.2 km/h
1648 21-06-2014 00:35:00 14.7 C 9.44 g/m*3 14.7 C 0 km/h
1649 21-06-2014 00:40:00 14.6 C 9.39 g/m*3 14.6 C 0 km/h
1650 21-06-2014 00:45:00 14.4 C 9.39 g/m*3 14.4 C 0 km/h
Sensor: Nr:Datum:Temp:Abs-Feuchte:Windchill:Wind:
Aussen-T/F 1651 21-06-2014 00:50:00 14.3 C 9.34 g/m*3 14.3 C 0 km/h
1652 21-06-2014 00:55:00 14.3 C 9.34 g/m*3 14.3 C 0 km/h
1653 21-06-2014 01:00:00 14.2 C 9.4 g/m*3 14.2 C 0 km/h
1654 21-06-2014 01:05:00 14.2 C 9.4 g/m*3 14.2 C 0 km/h
1655 21-06-2014 01:10:00 14.1 C 9.47 g/m*3 14.1 C 0 km/h
1656 21-06-2014 01:15:00 14 C 9.29 g/m*3 14 C 0 km/h
1657 21-06-2014 01:20:00 14 C 9.41 g/m*3 14 C 0 km/h
1658 21-06-2014 01:25:00 13.9 C 9.35 g/m*3 13.9 C 1.6 km/h
1659 21-06-2014 01:30:00 14 C 9.41 g/m*3 14 C 0 km/h
1660 21-06-2014 01:35:00 14 C 9.29 g/m*3 14 C 8.1 km/h
1661 21-06-2014 01:40:00 14.1 C 9.47 g/m*3 14.1 C 0 km/h
1662 21-06-2014 01:45:00 14.1 C 9.34 g/m*3 14.1 C 3.2 km/h
1663 21-06-2014 01:50:00 14.1 C 9.34 g/m*3 14.1 C 0 km/h
1664 21-06-2014 01:55:00 14.1 C 9.34 g/m*3 14.1 C 0 km/h
1665 21-06-2014 02:00:00 14.1 C 9.34 g/m*3 14.1 C 4.8 km/h
1666 21-06-2014 02:05:00 14.1 C 9.34 g/m*3 14.1 C 1.6 km/h
1667 21-06-2014 02:10:00 14.1 C 9.47 g/m*3 14.1 C 1.6 km/h
1668 21-06-2014 02:15:00 14 C 9.41 g/m*3 14 C 3.2 km/h
1669 21-06-2014 02:20:00 14 C 9.29 g/m*3 14 C 8.1 km/h
1670 21-06-2014 02:25:00 14.1 C 9.34 g/m*3 14.1 C 8.1 km/h
1671 21-06-2014 02:30:00 14.1 C 9.34 g/m*3 14.1 C 8.1 km/h
1672 21-06-2014 02:35:00 14.1 C 9.34 g/m*3 14.1 C 3.2 km/h
1673 21-06-2014 02:40:00 14 C 9.29 g/m*3 14 C 0 km/h
1674 21-06-2014 02:45:00 13.9 C 9.23 g/m*3 13.9 C 4.8 km/h
1675 21-06-2014 02:50:00 13.8 C 9.41 g/m*3 13.8 C 0 km/h
Sensor: Nr:Datum:Temp:Abs-Feuchte:Windchill:Wind:
Aussen-T/F 1676 21-06-2014 02:55:00 13.8 C 9.41 g/m*3 13.8 C 0 km/h
1677 21-06-2014 03:00:00 13.7 C 9.47 g/m*3 13.7 C 0 km/h
1678 21-06-2014 03:05:00 13.7 C 9.35 g/m*3 13.7 C 0 km/h
1679 21-06-2014 03:10:00 13.7 C 9.35 g/m*3 13.7 C 4.8 km/h
1680 21-06-2014 03:15:00 13.7 C 9.24 g/m*3 13.7 C 9.7 km/h
1681 21-06-2014 03:20:00 13.7 C 9.35 g/m*3 13.7 C 0 km/h
1682 21-06-2014 03:25:00 13.7 C 9.35 g/m*3 13.7 C 3.2 km/h
1683 21-06-2014 03:30:00 13.7 C 9.35 g/m*3 13.7 C 1.6 km/h
1684 21-06-2014 03:35:00 13.7 C 9.35 g/m*3 13.7 C 1.6 km/h
1685 21-06-2014 03:40:00 13.7 C 9.24 g/m*3 13.7 C 8.1 km/h
1686 21-06-2014 03:45:00 13.8 C 9.29 g/m*3 13.8 C 4.8 km/h
1687 21-06-2014 03:50:00 13.8 C 9.29 g/m*3 13.8 C 3.2 km/h
1688 21-06-2014 03:55:00 13.8 C 9.29 g/m*3 13.8 C 6.4 km/h
1689 21-06-2014 04:00:00 13.9 C 9.35 g/m*3 13.9 C 4.8 km/h
1690 21-06-2014 04:05:00 13.9 C 9.35 g/m*3 13.9 C 8.1 km/h
1691 21-06-2014 04:10:00 13.9 C 9.35 g/m*3 13.9 C 9.7 km/h
1692 21-06-2014 04:15:00 13.9 C 9.47 g/m*3 13.9 C 8.1 km/h
1693 21-06-2014 04:20:00 13.8 C 9.41 g/m*3 13.8 C 9.7 km/h
1694 21-06-2014 04:25:00 13.7 C 9.35 g/m*3 13.7 C 4.8 km/h
1695 21-06-2014 04:30:00 13.6 C 9.42 g/m*3 13.6 C 8.1 km/h
1696 21-06-2014 04:35:00 13.4 C 9.3 g/m*3 13.4 C 4.8 km/h
1697 21-06-2014 04:40:00 13.3 C 9.36 g/m*3 13.3 C 6.4 km/h
1698 21-06-2014 04:45:00 13.2 C 9.42 g/m*3 13.2 C 0 km/h
1699 21-06-2014 04:50:00 12.9 C 9.35 g/m*3 12.9 C 1.6 km/h
1700 21-06-2014 04:55:00 12.8 C 9.3 g/m*3 12.8 C 1.6 km/h
Sensor: Nr:Datum:Temp:Abs-Feuchte:Windchill:Wind:
Aussen-T/F 1701 21-06-2014 05:00:00 12.7 C 9.35 g/m*3 12.7 C 0 km/h
1702 21-06-2014 05:05:00 12.7 C 9.35 g/m*3 12.7 C 4.8 km/h
1703 21-06-2014 05:10:00 12.7 C 9.35 g/m*3 12.7 C 3.2 km/h
1704 21-06-2014 05:15:00 12.7 C 9.35 g/m*3 12.7 C 0 km/h
1705 21-06-2014 05:20:00 12.6 C 9.29 g/m*3 12.6 C 0 km/h
1706 21-06-2014 05:25:00 12.4 C 9.29 g/m*3 12.4 C 1.6 km/h
1707 21-06-2014 05:30:00 12.4 C 9.29 g/m*3 12.4 C 0 km/h
1708 21-06-2014 05:35:00 12.4 C 9.29 g/m*3 12.4 C 1.6 km/h
1709 21-06-2014 05:40:00 12.4 C 9.29 g/m*3 12.4 C 1.6 km/h
1710 21-06-2014 05:45:00 12.4 C 9.29 g/m*3 12.4 C 1.6 km/h
1711 21-06-2014 05:50:00 12.4 C 9.29 g/m*3 12.4 C 0 km/h
1712 21-06-2014 05:55:00 12.4 C 9.29 g/m*3 12.4 C 1.6 km/h
1713 21-06-2014 06:00:00 12.4 C 9.29 g/m*3 12.4 C 8.1 km/h
1714 21-06-2014 06:05:00 12.4 C 9.29 g/m*3 12.4 C 8.1 km/h
1715 21-06-2014 06:10:00 12.6 C 9.4 g/m*3 12.6 C 9.7 km/h
1716 21-06-2014 06:15:00 12.6 C 9.4 g/m*3 12.6 C 8.1 km/h
1717 21-06-2014 06:20:00 12.7 C 9.35 g/m*3 12.7 C 6.4 km/h
1718 21-06-2014 06:25:00 12.7 C 9.35 g/m*3 12.7 C 3.2 km/h
1719 21-06-2014 06:30:00 12.8 C 9.41 g/m*3 12.8 C 0 km/h
1720 21-06-2014 06:35:00 12.8 C 9.41 g/m*3 12.8 C 0 km/h
1721 21-06-2014 06:40:00 12.8 C 9.41 g/m*3 12.8 C 0 km/h
1722 21-06-2014 06:45:00 12.9 C 9.47 g/m*3 12.9 C 0 km/h
1723 21-06-2014 06:50:00 12.9 C 9.47 g/m*3 12.9 C 0 km/h
1724 21-06-2014 06:55:00 13 C 9.53 g/m*3 13 C 0 km/h
1725 21-06-2014 07:00:00 13 C 9.41 g/m*3 13 C 3.2 km/h
Sensor: Nr:Datum:Temp:Abs-Feuchte:Windchill:Wind:
Aussen-T/F 1726 21-06-2014 07:05:00 13 C 9.41 g/m*3 13 C 3.2 km/h
1727 21-06-2014 07:10:00 13.1 C 9.47 g/m*3 13.1 C 0 km/h
1728 21-06-2014 07:15:00 13.1 C 9.47 g/m*3 13.1 C 0 km/h
1729 21-06-2014 07:20:00 13.2 C 9.53 g/m*3 13.2 C 3.2 km/h
1730 21-06-2014 07:25:00 13.2 C 9.53 g/m*3 13.2 C 4.8 km/h
1731 21-06-2014 07:30:00 13.2 C 9.53 g/m*3 13.2 C 1.6 km/h
1732 21-06-2014 07:35:00 13.3 C 9.47 g/m*3 13.3 C 1.6 km/h
1733 21-06-2014 07:40:00 13.3 C 9.47 g/m*3 13.3 C 3.2 km/h
1734 21-06-2014 07:45:00 13.3 C 9.47 g/m*3 13.3 C 1.6 km/h
1735 21-06-2014 07:50:00 13.4 C 9.53 g/m*3 13.4 C 0 km/h
1736 21-06-2014 07:55:00 13.4 C 9.53 g/m*3 13.4 C 3.2 km/h
1737 21-06-2014 08:00:00 13.4 C 9.53 g/m*3 13.4 C 3.2 km/h
1738 21-06-2014 08:05:00 13.5 C 9.59 g/m*3 13.5 C 1.6 km/h
1739 21-06-2014 08:10:00 13.6 C 9.65 g/m*3 13.6 C 3.2 km/h
1740 21-06-2014 08:15:00 13.7 C 9.59 g/m*3 13.7 C 8.1 km/h
1741 21-06-2014 08:20:00 13.7 C 9.47 g/m*3 13.7 C 6.4 km/h
1742 21-06-2014 08:25:00 13.8 C 9.53 g/m*3 13.8 C 8.1 km/h
1743 21-06-2014 08:30:00 13.8 C 9.65 g/m*3 13.8 C 4.8 km/h
1744 21-06-2014 08:35:00 13.9 C 9.59 g/m*3 13.9 C 8.1 km/h
1745 21-06-2014 08:40:00 14.1 C 9.59 g/m*3 14.1 C 4.8 km/h
1746 21-06-2014 08:45:00 14.1 C 9.59 g/m*3 14.1 C 6.4 km/h
1747 21-06-2014 08:50:00 14.1 C 9.59 g/m*3 14.1 C 4.8 km/h
1748 21-06-2014 08:55:00 14.2 C 9.77 g/m*3 14.2 C 4.8 km/h
1749 21-06-2014 09:00:00 14.5 C 9.58 g/m*3 14.5 C 6.4 km/h
1750 21-06-2014 09:05:00 14.4 C 9.52 g/m*3 14.4 C 6.4 km/h
Sensor: Nr:Datum:Temp:Abs-Feuchte:Windchill:Wind:
Aussen-T/F 1751 21-06-2014 09:10:00 14.4 C 9.52 g/m*3 14.4 C 8.1 km/h
1752 21-06-2014 09:15:00 14.4 C 9.39 g/m*3 14.4 C 9.7 km/h
1753 21-06-2014 09:20:00 14.4 C 9.27 g/m*3 14.4 C 4.8 km/h
1754 21-06-2014 09:25:00 14.6 C 9.51 g/m*3 14.6 C 4.8 km/h
1755 21-06-2014 09:30:00 14.8 C 9.75 g/m*3 14.8 C 4.8 km/h
1756 21-06-2014 09:35:00 14.9 C 9.69 g/m*3 14.9 C 8.1 km/h
1757 21-06-2014 09:40:00 15 C 9.36 g/m*3 15 C 11.3 km/h
1758 21-06-2014 09:45:00 15 C 9.23 g/m*3 15 C 9.7 km/h
1759 21-06-2014 09:50:00 14.9 C 9.18 g/m*3 14.9 C 11.3 km/h
1760 21-06-2014 09:55:00 15 C 9.36 g/m*3 15 C 6.4 km/h
1761 21-06-2014 10:00:00 15.2 C 9.35 g/m*3 15.2 C 4.8 km/h
1762 21-06-2014 10:05:00 15.5 C 9.52 g/m*3 15.5 C 9.7 km/h
1763 21-06-2014 10:10:00 15.8 C 9.69 g/m*3 15.8 C 8.1 km/h
1764 21-06-2014 10:15:00 16.1 C 9.18 g/m*3 16.1 C 11.3 km/h
1765 21-06-2014 10:20:00 16.3 C 9.43 g/m*3 16.3 C 6.4 km/h
1766 21-06-2014 10:25:00 16.3 C 9.43 g/m*3 16.3 C 9.7 km/h
1767 21-06-2014 10:30:00 16.1 C 9.46 g/m*3 16.1 C 6.4 km/h
1768 21-06-2014 10:35:00 15.9 C 9.34 g/m*3 15.9 C 6.4 km/h
1769 21-06-2014 10:40:00 15.8 C 9.42 g/m*3 15.8 C 6.4 km/h
1770 21-06-2014 10:45:00 15.8 C 9.42 g/m*3 15.8 C 4.8 km/h
1771 21-06-2014 10:50:00 15.8 C 9.29 g/m*3 15.8 C 6.4 km/h
1772 21-06-2014 10:55:00 15.8 C 9.15 g/m*3 15.8 C 6.4 km/h
1773 21-06-2014 11:00:00 16.2 C 9.65 g/m*3 16.2 C 6.4 km/h
1774 21-06-2014 11:05:00 16.8 C 9.58 g/m*3 16.8 C 9.7 km/h
1775 21-06-2014 11:10:00 17.2 C 9.52 g/m*3 17.2 C 12.9 km/h
Sensor: Nr:Datum:Temp:Abs-Feuchte:Windchill:Wind:
Aussen-T/F 1776 21-06-2014 11:15:00 17.4 C 9.04 g/m*3 17.4 C 12.9 km/h
1777 21-06-2014 11:20:00 17.4 C 8.89 g/m*3 17.4 C 8.1 km/h
1778 21-06-2014 11:25:00 17.3 C 8.69 g/m*3 17.3 C 9.7 km/h
1779 21-06-2014 11:30:00 17.2 C 8.93 g/m*3 17.2 C 11.3 km/h
1780 21-06-2014 11:35:00 17.1 C 9.03 g/m*3 17.1 C 8.1 km/h
1781 21-06-2014 11:40:00 17 C 8.83 g/m*3 17 C 6.4 km/h
1782 21-06-2014 11:45:00 16.8 C 8.86 g/m*3 16.8 C 9.7 km/h
1783 21-06-2014 11:50:00 17 C 8.97 g/m*3 17 C 9.7 km/h
1784 21-06-2014 11:55:00 17.1 C 8.88 g/m*3 17.1 C 11.3 km/h
1785 21-06-2014 12:00:00 17.1 C 9.03 g/m*3 17.1 C 9.7 km/h
1786 21-06-2014 12:05:00 17.1 C 8.73 g/m*3 17.1 C 11.3 km/h
1787 21-06-2014 12:10:00 17.1 C 9.03 g/m*3 17.1 C 8.1 km/h
1788 21-06-2014 12:15:00 17.3 C 8.99 g/m*3 17.3 C 8.1 km/h
1789 21-06-2014 12:20:00 17.6 C 8.85 g/m*3 17.6 C 9.7 km/h
1790 21-06-2014 12:25:00 17.8 C 8.65 g/m*3 17.8 C 9.7 km/h
1791 21-06-2014 12:30:00 17.9 C 8.4 g/m*3 17.9 C 9.7 km/h
1792 21-06-2014 12:35:00 17.9 C 8.7 g/m*3 17.9 C 11.3 km/h
1793 21-06-2014 12:40:00 18.2 C 8.7 g/m*3 18.2 C 12.9 km/h
1794 21-06-2014 12:45:00 18.4 C 8.49 g/m*3 18.4 C 9.7 km/h
1795 21-06-2014 12:50:00 18.4 C 8.34 g/m*3 18.4 C 8.1 km/h
1796 21-06-2014 12:55:00 18.3 C 8.6 g/m*3 18.3 C 12.9 km/h
1797 21-06-2014 13:00:00 18.6 C 8.59 g/m*3 18.6 C 8.1 km/h
1798 21-06-2014 13:05:00 19.1 C 9.18 g/m*3 19.1 C 4.8 km/h
1799 21-06-2014 13:10:00 19.5 C 8.56 g/m*3 19.5 C 11.3 km/h
1800 21-06-2014 13:15:00 19.4 C 9.01 g/m*3 19.4 C 11.3 km/h
Sensor: Nr:Datum:Temp:Abs-Feuchte:Windchill:Wind:
Aussen-T/F 1801 21-06-2014 13:20:00 19.6 C 9.28 g/m*3 19.6 C 9.7 km/h
1802 21-06-2014 13:25:00 19.7 C 8.83 g/m*3 19.7 C 11.3 km/h
1803 21-06-2014 13:30:00 19 C 8.47 g/m*3 19 C 11.3 km/h
1804 21-06-2014 13:35:00 18.7 C 8.49 g/m*3 18.7 C 11.3 km/h
1805 21-06-2014 13:40:00 18.8 C 8.54 g/m*3 18.8 C 11.3 km/h
1806 21-06-2014 13:45:00 19.2 C 8.74 g/m*3 19.2 C 11.3 km/h
1807 21-06-2014 13:50:00 19.7 C 8.66 g/m*3 19.7 C 8.1 km/h
1808 21-06-2014 13:55:00 19.7 C 8.66 g/m*3 19.7 C 11.3 km/h
1809 21-06-2014 14:00:00 19.2 C 8.41 g/m*3 19.2 C 14.5 km/h
1810 21-06-2014 14:05:00 19.3 C 8.46 g/m*3 19.3 C 9.7 km/h
1811 21-06-2014 14:10:00 19.3 C 8.13 g/m*3 19.3 C 11.3 km/h
1812 21-06-2014 14:15:00 19.7 C 8.49 g/m*3 19.7 C 12.9 km/h
1813 21-06-2014 14:20:00 19.7 C 8.83 g/m*3 19.7 C 9.7 km/h
1814 21-06-2014 14:25:00 20.1 C 8.52 g/m*3 20.1 C 9.7 km/h
1815 21-06-2014 14:30:00 20.4 C 9.02 g/m*3 20.4 C 11.3 km/h
1816 21-06-2014 14:35:00 20.7 C 8.82 g/m*3 20.7 C 14.5 km/h
1817 21-06-2014 14:40:00 20.7 C 8.46 g/m*3 20.7 C 9.7 km/h
1818 21-06-2014 14:45:00 20.6 C 8.59 g/m*3 20.6 C 11.3 km/h
1819 21-06-2014 14:50:00 20.3 C 8.27 g/m*3 20.3 C 6.4 km/h
1820 21-06-2014 14:55:00 20.3 C 8.62 g/m*3 20.3 C 8.1 km/h
1821 21-06-2014 15:00:00 20.7 C 8.82 g/m*3 20.7 C 11.3 km/h
1822 21-06-2014 15:05:00 20.8 C 8.51 g/m*3 20.8 C 9.7 km/h
1823 21-06-2014 15:10:00 20.6 C 8.41 g/m*3 20.6 C 14.5 km/h
1824 21-06-2014 15:15:00 20.5 C 8.72 g/m*3 20.5 C 9.7 km/h
1825 21-06-2014 15:20:00 20.6 C 8.95 g/m*3 20.6 C 6.4 km/h
Sensor: Nr:Datum:Temp:Abs-Feuchte:Windchill:Wind:
Aussen-T/F 1826 21-06-2014 15:25:00 20.6 C 8.95 g/m*3 20.6 C 9.7 km/h
1827 21-06-2014 15:30:00 20.8 C 9.05 g/m*3 20.8 C 11.3 km/h
1828 21-06-2014 15:35:00 20.9 C 8.56 g/m*3 20.9 C 14.5 km/h
1829 21-06-2014 15:40:00 21.1 C 8.66 g/m*3 21.1 C 8.1 km/h
1830 21-06-2014 15:45:00 20.9 C 8.38 g/m*3 20.9 C 8.1 km/h
1831 21-06-2014 15:50:00 20.8 C 8.69 g/m*3 20.8 C 8.1 km/h
1832 21-06-2014 15:55:00 21.3 C 8.57 g/m*3 21.3 C 9.7 km/h
1833 21-06-2014 16:00:00 21.6 C 9.1 g/m*3 21.6 C 8.1 km/h
1834 21-06-2014 16:05:00 21.7 C 8.39 g/m*3 21.7 C 9.7 km/h
1835 21-06-2014 16:10:00 21.7 C 8.77 g/m*3 21.7 C 6.4 km/h
1836 21-06-2014 16:15:00 21.7 C 8.58 g/m*3 21.7 C 9.7 km/h
1837 21-06-2014 16:20:00 21.3 C 8.76 g/m*3 21.3 C 8.1 km/h
1838 21-06-2014 16:25:00 21.4 C 8.44 g/m*3 21.4 C 12.9 km/h
1839 21-06-2014 16:30:00 21.6 C 8.91 g/m*3 21.6 C 12.9 km/h
1840 21-06-2014 16:35:00 21.3 C 8.57 g/m*3 21.3 C 11.3 km/h
1841 21-06-2014 16:40:00 21.1 C 8.84 g/m*3 21.1 C 11.3 km/h
1842 21-06-2014 16:45:00 21.3 C 8.76 g/m*3 21.3 C 8.1 km/h
1843 21-06-2014 16:50:00 21.3 C 8.57 g/m*3 21.3 C 11.3 km/h
1844 21-06-2014 16:55:00 21.2 C 9.08 g/m*3 21.2 C 8.1 km/h
1845 21-06-2014 17:00:00 21.4 C 8.62 g/m*3 21.4 C 8.1 km/h
1846 21-06-2014 17:05:00 21.6 C 9.1 g/m*3 21.6 C 8.1 km/h
1847 21-06-2014 17:10:00 21.9 C 8.68 g/m*3 21.9 C 11.3 km/h
1848 21-06-2014 17:15:00 21.8 C 8.44 g/m*3 21.8 C 8.1 km/h
1849 21-06-2014 17:20:00 21.4 C 8.25 g/m*3 21.4 C 8.1 km/h
1850 21-06-2014 17:25:00 20.8 C 8.15 g/m*3 20.8 C 8.1 km/h
Sensor: Nr:Datum:Temp:Abs-Feuchte:Windchill:Wind:
Aussen-T/F 1851 21-06-2014 17:30:00 20.4 C 8.31 g/m*3 20.4 C 8.1 km/h
1852 21-06-2014 17:35:00 20.8 C 8.51 g/m*3 20.8 C 8.1 km/h
1853 21-06-2014 17:40:00 21.3 C 8.39 g/m*3 21.3 C 4.8 km/h
1854 21-06-2014 17:45:00 21.4 C 8.44 g/m*3 21.4 C 4.8 km/h
1855 21-06-2014 17:50:00 21.7 C 8.58 g/m*3 21.7 C 6.4 km/h
1856 21-06-2014 17:55:00 21.9 C 8.3 g/m*3 21.9 C 6.4 km/h
1857 21-06-2014 18:00:00 22.1 C 8.39 g/m*3 22.1 C 8.1 km/h
1858 21-06-2014 18:05:00 22.1 C 8.59 g/m*3 22.1 C 6.4 km/h
1859 21-06-2014 18:10:00 22.2 C 8.64 g/m*3 22.2 C 9.7 km/h
1860 21-06-2014 18:15:00 22.3 C 8.29 g/m*3 22.3 C 9.7 km/h
1861 21-06-2014 18:20:00 22.2 C 8.25 g/m*3 22.2 C 6.4 km/h
1862 21-06-2014 18:25:00 21.6 C 8.16 g/m*3 21.6 C 8.1 km/h
1863 21-06-2014 18:30:00 21.2 C 8.15 g/m*3 21.2 C 8.1 km/h
1864 21-06-2014 18:35:00 20.8 C 8.15 g/m*3 20.8 C 8.1 km/h
1865 21-06-2014 18:40:00 20.4 C 8.14 g/m*3 20.4 C 4.8 km/h
1866 21-06-2014 18:45:00 20.3 C 8.44 g/m*3 20.3 C 3.2 km/h
1867 21-06-2014 18:50:00 20.5 C 8.36 g/m*3 20.5 C 4.8 km/h
1868 21-06-2014 18:55:00 21 C 8.43 g/m*3 21 C 6.4 km/h
1869 21-06-2014 19:00:00 21.4 C 8.44 g/m*3 21.4 C 3.2 km/h
1870 21-06-2014 19:05:00 21.8 C 8.44 g/m*3 21.8 C 9.7 km/h
1871 21-06-2014 19:10:00 22.1 C 8.2 g/m*3 22.1 C 9.7 km/h
1872 21-06-2014 19:15:00 22 C 8.15 g/m*3 22 C 8.1 km/h
1873 21-06-2014 19:20:00 21.8 C 8.06 g/m*3 21.8 C 6.4 km/h
1874 21-06-2014 19:25:00 21.6 C 8.35 g/m*3 21.6 C 9.7 km/h
1875 21-06-2014 19:30:00 21.3 C 8.02 g/m*3 21.3 C 9.7 km/h
Sensor: Nr:Datum:Temp:Abs-Feuchte:Windchill:Wind:
Aussen-T/F 1876 21-06-2014 19:35:00 21 C 8.43 g/m*3 21 C 8.1 km/h
1877 21-06-2014 19:40:00 20.8 C 8.15 g/m*3 20.8 C 4.8 km/h
1878 21-06-2014 19:45:00 20.6 C 8.23 g/m*3 20.6 C 6.4 km/h
1879 21-06-2014 19:50:00 20.4 C 8.49 g/m*3 20.4 C 4.8 km/h
1880 21-06-2014 19:55:00 20.4 C 8.31 g/m*3 20.4 C 3.2 km/h
1881 21-06-2014 20:00:00 20.3 C 8.09 g/m*3 20.3 C 3.2 km/h
1882 21-06-2014 20:05:00 20.3 C 8.44 g/m*3 20.3 C 4.8 km/h
1883 21-06-2014 20:10:00 20.3 C 8.44 g/m*3 20.3 C 3.2 km/h
1884 21-06-2014 20:15:00 20.3 C 8.62 g/m*3 20.3 C 3.2 km/h
1885 21-06-2014 20:20:00 20.3 C 8.62 g/m*3 20.3 C 4.8 km/h
1886 21-06-2014 20:25:00 20.2 C 8.57 g/m*3 20.2 C 4.8 km/h
1887 21-06-2014 20:30:00 20.1 C 8.52 g/m*3 20.1 C 4.8 km/h
1888 21-06-2014 20:35:00 19.9 C 8.59 g/m*3 19.9 C 6.4 km/h
1889 21-06-2014 20:40:00 19.8 C 8.54 g/m*3 19.8 C 4.8 km/h
1890 21-06-2014 20:45:00 19.8 C 8.37 g/m*3 19.8 C 4.8 km/h
1891 21-06-2014 20:50:00 19.7 C 8.32 g/m*3 19.7 C 1.6 km/h
1892 21-06-2014 20:55:00 19.6 C 8.61 g/m*3 19.6 C 3.2 km/h
1893 21-06-2014 21:00:00 19.5 C 9.06 g/m*3 19.5 C 0 km/h
1894 21-06-2014 21:05:00 19.2 C 9.07 g/m*3 19.2 C 0 km/h
1895 21-06-2014 21:10:00 18.6 C 9.23 g/m*3 18.6 C 0 km/h
1896 21-06-2014 21:15:00 18 C 9.52 g/m*3 18 C 1.6 km/h
1897 21-06-2014 21:20:00 17.4 C 9.48 g/m*3 17.4 C 0 km/h
1898 21-06-2014 21:25:00 17.1 C 9.46 g/m*3 17.1 C 0 km/h
1899 21-06-2014 21:30:00 16.7 C 9.52 g/m*3 16.7 C 1.6 km/h
1900 21-06-2014 21:35:00 16.3 C 9.3 g/m*3 16.3 C 1.6 km/h
Sensor: Nr:Datum:Temp:Abs-Feuchte:Windchill:Wind:
Aussen-T/F 1901 21-06-2014 21:40:00 16.1 C 9.32 g/m*3 16.1 C 1.6 km/h
1902 21-06-2014 21:45:00 15.9 C 9.07 g/m*3 15.9 C 1.6 km/h
1903 21-06-2014 21:50:00 15.8 C 9.02 g/m*3 15.8 C 1.6 km/h
1904 21-06-2014 21:55:00 15.6 C 8.91 g/m*3 15.6 C 1.6 km/h
1905 21-06-2014 22:00:00 15.5 C 8.99 g/m*3 15.5 C 1.6 km/h
1906 21-06-2014 22:05:00 15.4 C 9.07 g/m*3 15.4 C 0 km/h
1907 21-06-2014 22:10:00 15.3 C 9.01 g/m*3 15.3 C 0 km/h
1908 21-06-2014 22:15:00 15.2 C 8.96 g/m*3 15.2 C 1.6 km/h
1909 21-06-2014 22:20:00 15.1 C 9.03 g/m*3 15.1 C 0 km/h
1910 21-06-2014 22:25:00 15.1 C 9.03 g/m*3 15.1 C 1.6 km/h
1911 21-06-2014 22:30:00 15 C 8.85 g/m*3 15 C 0 km/h
1912 21-06-2014 22:35:00 14.9 C 8.92 g/m*3 14.9 C 0 km/h
1913 21-06-2014 22:40:00 14.8 C 8.99 g/m*3 14.8 C 0 km/h
1914 21-06-2014 22:45:00 14.7 C 9.07 g/m*3 14.7 C 0 km/h
1915 21-06-2014 22:50:00 14.6 C 8.88 g/m*3 14.6 C 0 km/h
1916 21-06-2014 22:55:00 14.5 C 8.95 g/m*3 14.5 C 0 km/h
1917 21-06-2014 23:00:00 14.4 C 8.9 g/m*3 14.4 C 0 km/h
1918 21-06-2014 23:05:00 14.4 C 9.15 g/m*3 14.4 C 0 km/h
1919 21-06-2014 23:10:00 13.9 C 8.87 g/m*3 13.9 C 0 km/h
1920 21-06-2014 23:15:00 13.8 C 8.94 g/m*3 13.8 C 0 km/h
1921 21-06-2014 23:20:00 13.7 C 8.88 g/m*3 13.7 C 0 km/h
1922 21-06-2014 23:25:00 13.6 C 8.94 g/m*3 13.6 C 0 km/h
1923 21-06-2014 23:30:00 13.4 C 8.83 g/m*3 13.4 C 0 km/h
1924 21-06-2014 23:35:00 13.2 C 8.84 g/m*3 13.2 C 0 km/h
1925 21-06-2014 23:40:00 13.2 C 8.96 g/m*3 13.2 C 0 km/h
Sensor: Nr:Datum:Temp:Abs-Feuchte:Windchill:Wind:
Aussen-T/F 1926 21-06-2014 23:45:00 13.1 C 8.9 g/m*3 13.1 C 0 km/h
1927 21-06-2014 23:50:00 12.9 C 8.9 g/m*3 12.9 C 0 km/h
1928 21-06-2014 23:55:00 12.8 C 8.85 g/m*3 12.8 C 0 km/h

Legende:
   Min
   Max


Maximal/Minimal-Werte vom 15.06.2014 - 21.06.2014

Sensor Min Max Avg
Temp
(Aussen-T/F)
10.9 °C
15-06-2014  03:40:00
25.4 °C
18-06-2014  17:35:00
16.56 °C
Abs-Feuchte
(Aussen-T/F)
7.29 g/m*3
15-06-2014  20:00:00
12.2 g/m*3
18-06-2014  12:55:00
9.67 g/m*3
Windchill
(Aussen-T/F)
10.9 C
15-06-2014  03:40:00
25.4 C
18-06-2014  17:35:00
16.55 C

Die Daten stammen von einer Davis Vantage Pro 2 Wetter-Station und werden unter Linux mit der Software wview2wettercgi und aufbereitet. Alle Angaben erfolgen ohne Gewähr für ihre Vollständigkeit oder Richtigkeit.
Kontakt: Rainer Krienke krienke@uni-koblenz.de . Meine Webseiten an der Uni Koblenz oder privat.
Version: $Revision: 0.78 $